<?xml version='1.0' encoding='UTF-8' standalone='yes' ?>
<gpx xmlns="http://www.topografix.com/GPX/1/1" xmlns:geotracker="http://ilyabogdanovich.com/gpx/extensions/geotracker" xmlns:xsi="http://www.w3.org/2001/XMLSchema-instance" xsi:schemaLocation="http://www.topografix.com/GPX/1/1 http://www.topografix.com/GPX/1/1/gpx.xsd" version="1.1" creator="Записано в Геотрекере для Android от Ильи Богдановича">
  <metadata>
    <name>Мая-2026-08-20 183204.gpx</name>
    <link href="http://www.garmin.com" />
    <time>2026-08-22T11:29:28Z</time>
  </metadata>
  <trk>
    <name>Мая-2026-08-20 18:32:04</name>
    <extensions>
      <geotracker:meta>
        <geotracker:length>9736.02</geotracker:length>
        <geotracker:duration>21393000</geotracker:duration>
        <geotracker:creationtime>2026-08-20T09:35:27Z</geotracker:creationtime>
        <geotracker:activity>0</geotracker:activity>
      </geotracker:meta>
    </extensions>
    <trkseg>
      <trkpt lat="60.11188737" lon="30.50313234">
        <time>2026-08-20T09:35:27Z</time>
      </trkpt>
      <trkpt lat="60.11190883" lon="30.50354004">
        <time>2026-08-20T09:35:42Z</time>
      </trkpt>
      <trkpt lat="60.11195174" lon="30.50394773">
        <time>2026-08-20T09:36:05Z</time>
      </trkpt>
      <trkpt lat="60.1119732" lon="30.50401211">
        <time>2026-08-20T09:36:07Z</time>
      </trkpt>
      <trkpt lat="60.1119732" lon="30.50405502">
        <time>2026-08-20T09:36:10Z</time>
      </trkpt>
      <trkpt lat="60.11199466" lon="30.50409794">
        <time>2026-08-20T09:36:12Z</time>
      </trkpt>
      <trkpt lat="60.11201612" lon="30.50414085">
        <time>2026-08-20T09:36:15Z</time>
      </trkpt>
      <trkpt lat="60.11201612" lon="30.50420523">
        <time>2026-08-20T09:36:17Z</time>
      </trkpt>
      <trkpt lat="60.11203757" lon="30.5042696">
        <time>2026-08-20T09:36:20Z</time>
      </trkpt>
      <trkpt lat="60.11203757" lon="30.50431252">
        <time>2026-08-20T09:36:22Z</time>
      </trkpt>
      <trkpt lat="60.11212341" lon="30.50474167">
        <time>2026-08-20T09:36:42Z</time>
      </trkpt>
      <trkpt lat="60.11220924" lon="30.50514936">
        <time>2026-08-20T09:37:00Z</time>
      </trkpt>
      <trkpt lat="60.11225215" lon="30.5053854">
        <time>2026-08-20T09:37:10Z</time>
      </trkpt>
      <trkpt lat="60.11225215" lon="30.50542831">
        <time>2026-08-20T09:37:12Z</time>
      </trkpt>
      <trkpt lat="60.11227361" lon="30.50549269">
        <time>2026-08-20T09:37:15Z</time>
      </trkpt>
      <trkpt lat="60.11231652" lon="30.50577164">
        <time>2026-08-20T09:37:27Z</time>
      </trkpt>
      <trkpt lat="60.11233798" lon="30.50579309">
        <time>2026-08-20T09:37:30Z</time>
      </trkpt>
      <trkpt lat="60.11235944" lon="30.50585747">
        <time>2026-08-20T09:37:32Z</time>
      </trkpt>
      <trkpt lat="60.11235944" lon="30.50587893">
        <time>2026-08-20T09:37:35Z</time>
      </trkpt>
      <trkpt lat="60.11240236" lon="30.5060935">
        <time>2026-08-20T09:37:55Z</time>
      </trkpt>
      <trkpt lat="60.11242381" lon="30.50615788">
        <time>2026-08-20T09:37:57Z</time>
      </trkpt>
      <trkpt lat="60.11242381" lon="30.50620079">
        <time>2026-08-20T09:38:00Z</time>
      </trkpt>
      <trkpt lat="60.11244527" lon="30.50624371">
        <time>2026-08-20T09:38:02Z</time>
      </trkpt>
      <trkpt lat="60.11244527" lon="30.50626516">
        <time>2026-08-20T09:38:05Z</time>
      </trkpt>
      <trkpt lat="60.11246673" lon="30.50630808">
        <time>2026-08-20T09:38:07Z</time>
      </trkpt>
      <trkpt lat="60.11246673" lon="30.50637245">
        <time>2026-08-20T09:38:10Z</time>
      </trkpt>
      <trkpt lat="60.11248819" lon="30.50641537">
        <time>2026-08-20T09:38:12Z</time>
      </trkpt>
      <trkpt lat="60.11244527" lon="30.50645828">
        <time>2026-08-20T09:38:15Z</time>
      </trkpt>
      <trkpt lat="60.11244527" lon="30.50652266">
        <time>2026-08-20T09:38:17Z</time>
      </trkpt>
      <trkpt lat="60.11242381" lon="30.50656557">
        <time>2026-08-20T09:38:20Z</time>
      </trkpt>
      <trkpt lat="60.11242381" lon="30.50660849">
        <time>2026-08-20T09:38:22Z</time>
      </trkpt>
      <trkpt lat="60.11242381" lon="30.50667286">
        <time>2026-08-20T09:38:25Z</time>
      </trkpt>
      <trkpt lat="60.11246673" lon="30.50673723">
        <time>2026-08-20T09:38:30Z</time>
      </trkpt>
      <trkpt lat="60.11248819" lon="30.50675869">
        <time>2026-08-20T09:38:32Z</time>
      </trkpt>
      <trkpt lat="60.1125311" lon="30.50684452">
        <time>2026-08-20T09:38:37Z</time>
      </trkpt>
      <trkpt lat="60.11255256" lon="30.50690889">
        <time>2026-08-20T09:38:40Z</time>
      </trkpt>
      <trkpt lat="60.11257402" lon="30.50695181">
        <time>2026-08-20T09:38:42Z</time>
      </trkpt>
      <trkpt lat="60.11257402" lon="30.50697327">
        <time>2026-08-20T09:38:45Z</time>
      </trkpt>
      <trkpt lat="60.11259547" lon="30.50703764">
        <time>2026-08-20T09:38:47Z</time>
      </trkpt>
      <trkpt lat="60.11261693" lon="30.50718784">
        <time>2026-08-20T09:38:55Z</time>
      </trkpt>
      <trkpt lat="60.11263839" lon="30.50723076">
        <time>2026-08-20T09:38:57Z</time>
      </trkpt>
      <trkpt lat="60.11270276" lon="30.50768137">
        <time>2026-08-20T09:39:15Z</time>
      </trkpt>
      <trkpt lat="60.11274568" lon="30.50813198">
        <time>2026-08-20T09:39:32Z</time>
      </trkpt>
      <trkpt lat="60.11278859" lon="30.50856113">
        <time>2026-08-20T09:39:47Z</time>
      </trkpt>
      <trkpt lat="60.11283151" lon="30.50899029">
        <time>2026-08-20T09:40:02Z</time>
      </trkpt>
      <trkpt lat="60.11287442" lon="30.50924778">
        <time>2026-08-20T09:40:25Z</time>
      </trkpt>
      <trkpt lat="60.11287442" lon="30.50924778">
        <time>2026-08-20T09:40:30Z</time>
      </trkpt>
      <trkpt lat="60.11287442" lon="30.50941944">
        <time>2026-08-20T09:40:35Z</time>
      </trkpt>
      <trkpt lat="60.11287442" lon="30.50950527">
        <time>2026-08-20T09:40:37Z</time>
      </trkpt>
      <trkpt lat="60.11287442" lon="30.50956964">
        <time>2026-08-20T09:40:40Z</time>
      </trkpt>
      <trkpt lat="60.11289588" lon="30.50965548">
        <time>2026-08-20T09:40:42Z</time>
      </trkpt>
      <trkpt lat="60.11289588" lon="30.50971985">
        <time>2026-08-20T09:40:45Z</time>
      </trkpt>
      <trkpt lat="60.11291734" lon="30.50978422">
        <time>2026-08-20T09:40:47Z</time>
      </trkpt>
      <trkpt lat="60.1129388" lon="30.51021338">
        <time>2026-08-20T09:41:02Z</time>
      </trkpt>
      <trkpt lat="60.1129388" lon="30.51032066">
        <time>2026-08-20T09:41:07Z</time>
      </trkpt>
      <trkpt lat="60.1129388" lon="30.51040649">
        <time>2026-08-20T09:41:10Z</time>
      </trkpt>
      <trkpt lat="60.1129388" lon="30.51047087">
        <time>2026-08-20T09:41:12Z</time>
      </trkpt>
      <trkpt lat="60.11291734" lon="30.51051378">
        <time>2026-08-20T09:41:15Z</time>
      </trkpt>
      <trkpt lat="60.11291734" lon="30.51059961">
        <time>2026-08-20T09:41:17Z</time>
      </trkpt>
      <trkpt lat="60.1129388" lon="30.51066399">
        <time>2026-08-20T09:41:20Z</time>
      </trkpt>
      <trkpt lat="60.11296025" lon="30.51109314">
        <time>2026-08-20T09:41:35Z</time>
      </trkpt>
      <trkpt lat="60.11302463" lon="30.51150084">
        <time>2026-08-20T09:41:50Z</time>
      </trkpt>
      <trkpt lat="60.11304609" lon="30.51156521">
        <time>2026-08-20T09:41:52Z</time>
      </trkpt>
      <trkpt lat="60.11304609" lon="30.51162958">
        <time>2026-08-20T09:41:55Z</time>
      </trkpt>
      <trkpt lat="60.11304609" lon="30.51169395">
        <time>2026-08-20T09:41:57Z</time>
      </trkpt>
      <trkpt lat="60.11306754" lon="30.51175833">
        <time>2026-08-20T09:42:00Z</time>
      </trkpt>
      <trkpt lat="60.113089" lon="30.5119729">
        <time>2026-08-20T09:42:07Z</time>
      </trkpt>
      <trkpt lat="60.113089" lon="30.51203728">
        <time>2026-08-20T09:42:10Z</time>
      </trkpt>
      <trkpt lat="60.11311046" lon="30.51218748">
        <time>2026-08-20T09:42:17Z</time>
      </trkpt>
      <trkpt lat="60.11311046" lon="30.51227331">
        <time>2026-08-20T09:42:20Z</time>
      </trkpt>
      <trkpt lat="60.11313192" lon="30.51233768">
        <time>2026-08-20T09:42:22Z</time>
      </trkpt>
      <trkpt lat="60.11315337" lon="30.51274538">
        <time>2026-08-20T09:42:37Z</time>
      </trkpt>
      <trkpt lat="60.11317483" lon="30.51315308">
        <time>2026-08-20T09:42:52Z</time>
      </trkpt>
      <trkpt lat="60.11317483" lon="30.51313162">
        <time>2026-08-20T09:43:10Z</time>
      </trkpt>
      <trkpt lat="60.11315337" lon="30.51304579">
        <time>2026-08-20T09:43:12Z</time>
      </trkpt>
      <trkpt lat="60.11315337" lon="30.51298141">
        <time>2026-08-20T09:43:15Z</time>
      </trkpt>
      <trkpt lat="60.11311046" lon="30.5125308">
        <time>2026-08-20T09:43:32Z</time>
      </trkpt>
      <trkpt lat="60.11313192" lon="30.51246643">
        <time>2026-08-20T09:43:35Z</time>
      </trkpt>
      <trkpt lat="60.11313192" lon="30.51240206">
        <time>2026-08-20T09:43:57Z</time>
      </trkpt>
      <trkpt lat="60.11313192" lon="30.51240206">
        <time>2026-08-20T09:44:12Z</time>
      </trkpt>
      <trkpt lat="60.11311046" lon="30.51235914">
        <time>2026-08-20T09:44:15Z</time>
      </trkpt>
      <trkpt lat="60.113089" lon="30.51220894">
        <time>2026-08-20T09:44:20Z</time>
      </trkpt>
      <trkpt lat="60.11306754" lon="30.51212311">
        <time>2026-08-20T09:44:22Z</time>
      </trkpt>
      <trkpt lat="60.11306754" lon="30.51203728">
        <time>2026-08-20T09:44:25Z</time>
      </trkpt>
      <trkpt lat="60.11304609" lon="30.51162958">
        <time>2026-08-20T09:44:40Z</time>
      </trkpt>
      <trkpt lat="60.11300317" lon="30.51120043">
        <time>2026-08-20T09:45:02Z</time>
      </trkpt>
      <trkpt lat="60.11296025" lon="30.51079273">
        <time>2026-08-20T09:45:17Z</time>
      </trkpt>
      <trkpt lat="60.11291734" lon="30.51040649">
        <time>2026-08-20T09:45:40Z</time>
      </trkpt>
      <trkpt lat="60.11291734" lon="30.51034212">
        <time>2026-08-20T09:45:42Z</time>
      </trkpt>
      <trkpt lat="60.11289588" lon="30.51029921">
        <time>2026-08-20T09:45:45Z</time>
      </trkpt>
      <trkpt lat="60.11289588" lon="30.51023483">
        <time>2026-08-20T09:45:47Z</time>
      </trkpt>
      <trkpt lat="60.11289588" lon="30.51017046">
        <time>2026-08-20T09:45:50Z</time>
      </trkpt>
      <trkpt lat="60.11291734" lon="30.51019192">
        <time>2026-08-20T09:45:52Z</time>
      </trkpt>
      <trkpt lat="60.11300317" lon="30.51008463">
        <time>2026-08-20T09:46:20Z</time>
      </trkpt>
      <trkpt lat="60.11298171" lon="30.51006317">
        <time>2026-08-20T09:46:45Z</time>
      </trkpt>
      <trkpt lat="60.11300317" lon="30.51004171">
        <time>2026-08-20T09:47:15Z</time>
      </trkpt>
      <trkpt lat="60.11300317" lon="30.51004171">
        <time>2026-08-20T09:47:45Z</time>
      </trkpt>
      <trkpt lat="60.11317483" lon="30.50997734">
        <time>2026-08-20T09:48:10Z</time>
      </trkpt>
      <trkpt lat="60.11321775" lon="30.50995588">
        <time>2026-08-20T09:48:40Z</time>
      </trkpt>
      <trkpt lat="60.11319629" lon="30.5099988">
        <time>2026-08-20T09:48:45Z</time>
      </trkpt>
      <trkpt lat="60.11317483" lon="30.51004171">
        <time>2026-08-20T09:48:47Z</time>
      </trkpt>
      <trkpt lat="60.11319629" lon="30.51008463">
        <time>2026-08-20T09:48:50Z</time>
      </trkpt>
      <trkpt lat="60.11334649" lon="30.51010609">
        <time>2026-08-20T09:49:20Z</time>
      </trkpt>
      <trkpt lat="60.1134967" lon="30.510149">
        <time>2026-08-20T09:49:50Z</time>
      </trkpt>
      <trkpt lat="60.1134967" lon="30.51029921">
        <time>2026-08-20T09:50:17Z</time>
      </trkpt>
      <trkpt lat="60.11353961" lon="30.51072836">
        <time>2026-08-20T09:50:47Z</time>
      </trkpt>
      <trkpt lat="60.11368982" lon="30.51090002">
        <time>2026-08-20T09:51:17Z</time>
      </trkpt>
      <trkpt lat="60.11375419" lon="30.51105022">
        <time>2026-08-20T09:51:47Z</time>
      </trkpt>
      <trkpt lat="60.11388293" lon="30.51098585">
        <time>2026-08-20T09:52:17Z</time>
      </trkpt>
      <trkpt lat="60.11392585" lon="30.51105022">
        <time>2026-08-20T09:52:20Z</time>
      </trkpt>
      <trkpt lat="60.11392585" lon="30.51109314">
        <time>2026-08-20T09:52:22Z</time>
      </trkpt>
      <trkpt lat="60.11392585" lon="30.51120043">
        <time>2026-08-20T09:52:27Z</time>
      </trkpt>
      <trkpt lat="60.11390439" lon="30.51124334">
        <time>2026-08-20T09:52:30Z</time>
      </trkpt>
      <trkpt lat="60.11396877" lon="30.51135063">
        <time>2026-08-20T09:53:00Z</time>
      </trkpt>
      <trkpt lat="60.11396877" lon="30.51137209">
        <time>2026-08-20T09:53:25Z</time>
      </trkpt>
      <trkpt lat="60.11401168" lon="30.51143646">
        <time>2026-08-20T09:53:35Z</time>
      </trkpt>
      <trkpt lat="60.11409751" lon="30.51152229">
        <time>2026-08-20T09:53:45Z</time>
      </trkpt>
      <trkpt lat="60.11414043" lon="30.51162958">
        <time>2026-08-20T09:54:15Z</time>
      </trkpt>
      <trkpt lat="60.11424772" lon="30.51165104">
        <time>2026-08-20T09:54:45Z</time>
      </trkpt>
      <trkpt lat="60.11426917" lon="30.51171541">
        <time>2026-08-20T09:54:47Z</time>
      </trkpt>
      <trkpt lat="60.11429063" lon="30.51177979">
        <time>2026-08-20T09:54:50Z</time>
      </trkpt>
      <trkpt lat="60.11431209" lon="30.51184416">
        <time>2026-08-20T09:54:52Z</time>
      </trkpt>
      <trkpt lat="60.11431209" lon="30.51188707">
        <time>2026-08-20T09:54:55Z</time>
      </trkpt>
      <trkpt lat="60.11444083" lon="30.51195145">
        <time>2026-08-20T09:55:25Z</time>
      </trkpt>
      <trkpt lat="60.11446229" lon="30.51220894">
        <time>2026-08-20T09:55:55Z</time>
      </trkpt>
      <trkpt lat="60.11446229" lon="30.5122304">
        <time>2026-08-20T09:56:05Z</time>
      </trkpt>
      <trkpt lat="60.11448375" lon="30.5122304">
        <time>2026-08-20T09:56:17Z</time>
      </trkpt>
      <trkpt lat="60.11446229" lon="30.51220894">
        <time>2026-08-20T09:56:27Z</time>
      </trkpt>
      <trkpt lat="60.11446229" lon="30.51212311">
        <time>2026-08-20T09:56:30Z</time>
      </trkpt>
      <trkpt lat="60.11446229" lon="30.51203728">
        <time>2026-08-20T09:57:00Z</time>
      </trkpt>
      <trkpt lat="60.11446229" lon="30.51203728">
        <time>2026-08-20T09:57:30Z</time>
      </trkpt>
      <trkpt lat="60.1146125" lon="30.51216602">
        <time>2026-08-20T09:57:45Z</time>
      </trkpt>
      <trkpt lat="60.11474124" lon="30.51233768">
        <time>2026-08-20T09:58:15Z</time>
      </trkpt>
      <trkpt lat="60.11474124" lon="30.51231623">
        <time>2026-08-20T09:58:27Z</time>
      </trkpt>
      <trkpt lat="60.1147627" lon="30.51240206">
        <time>2026-08-20T09:58:30Z</time>
      </trkpt>
      <trkpt lat="60.11471978" lon="30.51270247">
        <time>2026-08-20T09:58:47Z</time>
      </trkpt>
      <trkpt lat="60.11469833" lon="30.51280975">
        <time>2026-08-20T09:58:55Z</time>
      </trkpt>
      <trkpt lat="60.11467687" lon="30.51287413">
        <time>2026-08-20T09:58:57Z</time>
      </trkpt>
      <trkpt lat="60.11471978" lon="30.51280975">
        <time>2026-08-20T09:59:17Z</time>
      </trkpt>
      <trkpt lat="60.11474124" lon="30.51272392">
        <time>2026-08-20T09:59:20Z</time>
      </trkpt>
      <trkpt lat="60.11478416" lon="30.51268101">
        <time>2026-08-20T09:59:22Z</time>
      </trkpt>
      <trkpt lat="60.11480561" lon="30.51263809">
        <time>2026-08-20T09:59:25Z</time>
      </trkpt>
      <trkpt lat="60.11482707" lon="30.51261663">
        <time>2026-08-20T09:59:42Z</time>
      </trkpt>
      <trkpt lat="60.11482707" lon="30.51261663">
        <time>2026-08-20T09:59:50Z</time>
      </trkpt>
      <trkpt lat="60.11480561" lon="30.51261663">
        <time>2026-08-20T10:00:17Z</time>
      </trkpt>
      <trkpt lat="60.11484853" lon="30.51263809">
        <time>2026-08-20T10:00:47Z</time>
      </trkpt>
      <trkpt lat="60.11495582" lon="30.5127883">
        <time>2026-08-20T10:01:00Z</time>
      </trkpt>
      <trkpt lat="60.11502019" lon="30.51289558">
        <time>2026-08-20T10:01:10Z</time>
      </trkpt>
      <trkpt lat="60.11504165" lon="30.51298141">
        <time>2026-08-20T10:01:15Z</time>
      </trkpt>
      <trkpt lat="60.11504165" lon="30.51302433">
        <time>2026-08-20T10:01:17Z</time>
      </trkpt>
      <trkpt lat="60.11502019" lon="30.51319599">
        <time>2026-08-20T10:01:47Z</time>
      </trkpt>
      <trkpt lat="60.11497728" lon="30.51328182">
        <time>2026-08-20T10:01:52Z</time>
      </trkpt>
      <trkpt lat="60.11499873" lon="30.5133462">
        <time>2026-08-20T10:01:55Z</time>
      </trkpt>
      <trkpt lat="60.11499873" lon="30.51341057">
        <time>2026-08-20T10:01:57Z</time>
      </trkpt>
      <trkpt lat="60.11502019" lon="30.51347494">
        <time>2026-08-20T10:02:00Z</time>
      </trkpt>
      <trkpt lat="60.11499873" lon="30.5134964">
        <time>2026-08-20T10:02:02Z</time>
      </trkpt>
      <trkpt lat="60.11504165" lon="30.51356077">
        <time>2026-08-20T10:02:15Z</time>
      </trkpt>
      <trkpt lat="60.11506311" lon="30.51360369">
        <time>2026-08-20T10:02:17Z</time>
      </trkpt>
      <trkpt lat="60.11512748" lon="30.51360369">
        <time>2026-08-20T10:02:32Z</time>
      </trkpt>
      <trkpt lat="60.11512748" lon="30.51360369">
        <time>2026-08-20T10:02:40Z</time>
      </trkpt>
      <trkpt lat="60.11521331" lon="30.51341057">
        <time>2026-08-20T10:02:50Z</time>
      </trkpt>
      <trkpt lat="60.11523477" lon="30.51338911">
        <time>2026-08-20T10:02:52Z</time>
      </trkpt>
      <trkpt lat="60.1153206" lon="30.51336765">
        <time>2026-08-20T10:03:07Z</time>
      </trkpt>
      <trkpt lat="60.11544934" lon="30.51343203">
        <time>2026-08-20T10:03:27Z</time>
      </trkpt>
      <trkpt lat="60.11551372" lon="30.51371098">
        <time>2026-08-20T10:03:57Z</time>
      </trkpt>
      <trkpt lat="60.11555663" lon="30.51377535">
        <time>2026-08-20T10:04:27Z</time>
      </trkpt>
      <trkpt lat="60.11555663" lon="30.51377535">
        <time>2026-08-20T10:04:42Z</time>
      </trkpt>
      <trkpt lat="60.11562101" lon="30.51368952">
        <time>2026-08-20T10:05:12Z</time>
      </trkpt>
      <trkpt lat="60.11570684" lon="30.51373243">
        <time>2026-08-20T10:05:42Z</time>
      </trkpt>
      <trkpt lat="60.11570684" lon="30.51394701">
        <time>2026-08-20T10:05:50Z</time>
      </trkpt>
      <trkpt lat="60.11574975" lon="30.51401138">
        <time>2026-08-20T10:05:55Z</time>
      </trkpt>
      <trkpt lat="60.11581413" lon="30.51422596">
        <time>2026-08-20T10:06:25Z</time>
      </trkpt>
      <trkpt lat="60.11592141" lon="30.51431179">
        <time>2026-08-20T10:06:55Z</time>
      </trkpt>
      <trkpt lat="60.11596433" lon="30.51437616">
        <time>2026-08-20T10:07:25Z</time>
      </trkpt>
      <trkpt lat="60.11596433" lon="30.51437616">
        <time>2026-08-20T10:07:32Z</time>
      </trkpt>
      <trkpt lat="60.11598579" lon="30.51446199">
        <time>2026-08-20T10:08:02Z</time>
      </trkpt>
      <trkpt lat="60.11605016" lon="30.51444054">
        <time>2026-08-20T10:08:32Z</time>
      </trkpt>
      <trkpt lat="60.11605016" lon="30.51444054">
        <time>2026-08-20T10:09:02Z</time>
      </trkpt>
      <trkpt lat="60.11611453" lon="30.51439762">
        <time>2026-08-20T10:09:32Z</time>
      </trkpt>
      <trkpt lat="60.11611453" lon="30.51444054">
        <time>2026-08-20T10:09:42Z</time>
      </trkpt>
      <trkpt lat="60.11611453" lon="30.51452637">
        <time>2026-08-20T10:09:45Z</time>
      </trkpt>
      <trkpt lat="60.11611453" lon="30.5146122">
        <time>2026-08-20T10:09:47Z</time>
      </trkpt>
      <trkpt lat="60.11609307" lon="30.51474094">
        <time>2026-08-20T10:09:55Z</time>
      </trkpt>
      <trkpt lat="60.11613599" lon="30.51491261">
        <time>2026-08-20T10:10:25Z</time>
      </trkpt>
      <trkpt lat="60.11615745" lon="30.51501989">
        <time>2026-08-20T10:10:55Z</time>
      </trkpt>
      <trkpt lat="60.11615745" lon="30.51501989">
        <time>2026-08-20T10:10:57Z</time>
      </trkpt>
      <trkpt lat="60.11613599" lon="30.51525593">
        <time>2026-08-20T10:11:15Z</time>
      </trkpt>
      <trkpt lat="60.11613599" lon="30.51538467">
        <time>2026-08-20T10:11:32Z</time>
      </trkpt>
      <trkpt lat="60.11613599" lon="30.51538467">
        <time>2026-08-20T10:11:40Z</time>
      </trkpt>
      <trkpt lat="60.11620036" lon="30.51540613">
        <time>2026-08-20T10:12:05Z</time>
      </trkpt>
      <trkpt lat="60.11620036" lon="30.51540613">
        <time>2026-08-20T10:12:07Z</time>
      </trkpt>
      <trkpt lat="60.11617891" lon="30.5153203">
        <time>2026-08-20T10:12:15Z</time>
      </trkpt>
      <trkpt lat="60.11617891" lon="30.51523447">
        <time>2026-08-20T10:12:45Z</time>
      </trkpt>
      <trkpt lat="60.11617891" lon="30.51523447">
        <time>2026-08-20T10:13:15Z</time>
      </trkpt>
      <trkpt lat="60.11624328" lon="30.51527739">
        <time>2026-08-20T10:13:45Z</time>
      </trkpt>
      <trkpt lat="60.11626474" lon="30.5153203">
        <time>2026-08-20T10:13:57Z</time>
      </trkpt>
      <trkpt lat="60.11626474" lon="30.51542759">
        <time>2026-08-20T10:14:27Z</time>
      </trkpt>
      <trkpt lat="60.11624328" lon="30.51540613">
        <time>2026-08-20T10:14:37Z</time>
      </trkpt>
      <trkpt lat="60.11622182" lon="30.51538467">
        <time>2026-08-20T10:15:07Z</time>
      </trkpt>
      <trkpt lat="60.11624328" lon="30.51540613">
        <time>2026-08-20T10:15:17Z</time>
      </trkpt>
      <trkpt lat="60.11628619" lon="30.5154705">
        <time>2026-08-20T10:15:20Z</time>
      </trkpt>
      <trkpt lat="60.11630765" lon="30.51551342">
        <time>2026-08-20T10:15:50Z</time>
      </trkpt>
      <trkpt lat="60.11628619" lon="30.51564217">
        <time>2026-08-20T10:16:17Z</time>
      </trkpt>
      <trkpt lat="60.11635057" lon="30.51574945">
        <time>2026-08-20T10:16:20Z</time>
      </trkpt>
      <trkpt lat="60.11637202" lon="30.51581383">
        <time>2026-08-20T10:16:22Z</time>
      </trkpt>
      <trkpt lat="60.11637202" lon="30.51594257">
        <time>2026-08-20T10:16:52Z</time>
      </trkpt>
      <trkpt lat="60.1164364" lon="30.5160284">
        <time>2026-08-20T10:17:00Z</time>
      </trkpt>
      <trkpt lat="60.11656514" lon="30.51632881">
        <time>2026-08-20T10:17:27Z</time>
      </trkpt>
      <trkpt lat="60.11652223" lon="30.5165863">
        <time>2026-08-20T10:17:57Z</time>
      </trkpt>
      <trkpt lat="60.11650077" lon="30.51662922">
        <time>2026-08-20T10:18:00Z</time>
      </trkpt>
      <trkpt lat="60.11647931" lon="30.51665068">
        <time>2026-08-20T10:18:02Z</time>
      </trkpt>
      <trkpt lat="60.11645786" lon="30.51669359">
        <time>2026-08-20T10:18:05Z</time>
      </trkpt>
      <trkpt lat="60.11637202" lon="30.51690817">
        <time>2026-08-20T10:18:35Z</time>
      </trkpt>
      <trkpt lat="60.11630765" lon="30.51695108">
        <time>2026-08-20T10:18:42Z</time>
      </trkpt>
      <trkpt lat="60.11626474" lon="30.51697254">
        <time>2026-08-20T10:18:45Z</time>
      </trkpt>
      <trkpt lat="60.11624328" lon="30.516994">
        <time>2026-08-20T10:18:47Z</time>
      </trkpt>
      <trkpt lat="60.11622182" lon="30.51701546">
        <time>2026-08-20T10:18:50Z</time>
      </trkpt>
      <trkpt lat="60.11620036" lon="30.51703691">
        <time>2026-08-20T10:18:52Z</time>
      </trkpt>
      <trkpt lat="60.11613599" lon="30.51710129">
        <time>2026-08-20T10:19:00Z</time>
      </trkpt>
      <trkpt lat="60.11611453" lon="30.5171442">
        <time>2026-08-20T10:19:02Z</time>
      </trkpt>
      <trkpt lat="60.11609307" lon="30.51720858">
        <time>2026-08-20T10:19:05Z</time>
      </trkpt>
      <trkpt lat="60.11607162" lon="30.51725149">
        <time>2026-08-20T10:19:07Z</time>
      </trkpt>
      <trkpt lat="60.11605016" lon="30.51727295">
        <time>2026-08-20T10:19:10Z</time>
      </trkpt>
      <trkpt lat="60.1160287" lon="30.51729441">
        <time>2026-08-20T10:19:12Z</time>
      </trkpt>
      <trkpt lat="60.11598579" lon="30.51731586">
        <time>2026-08-20T10:19:15Z</time>
      </trkpt>
      <trkpt lat="60.11596433" lon="30.51735878">
        <time>2026-08-20T10:19:17Z</time>
      </trkpt>
      <trkpt lat="60.11594287" lon="30.51738024">
        <time>2026-08-20T10:19:20Z</time>
      </trkpt>
      <trkpt lat="60.11592141" lon="30.51738024">
        <time>2026-08-20T10:19:22Z</time>
      </trkpt>
      <trkpt lat="60.11589996" lon="30.51738024">
        <time>2026-08-20T10:19:25Z</time>
      </trkpt>
      <trkpt lat="60.1158785" lon="30.5174017">
        <time>2026-08-20T10:19:27Z</time>
      </trkpt>
      <trkpt lat="60.11585704" lon="30.51746607">
        <time>2026-08-20T10:19:30Z</time>
      </trkpt>
      <trkpt lat="60.11585704" lon="30.51753044">
        <time>2026-08-20T10:19:32Z</time>
      </trkpt>
      <trkpt lat="60.11585704" lon="30.51765919">
        <time>2026-08-20T10:20:00Z</time>
      </trkpt>
      <trkpt lat="60.1158785" lon="30.5177021">
        <time>2026-08-20T10:20:02Z</time>
      </trkpt>
      <trkpt lat="60.11598579" lon="30.51778793">
        <time>2026-08-20T10:20:15Z</time>
      </trkpt>
      <trkpt lat="60.11600724" lon="30.51783085">
        <time>2026-08-20T10:20:20Z</time>
      </trkpt>
      <trkpt lat="60.11605016" lon="30.51783085">
        <time>2026-08-20T10:20:22Z</time>
      </trkpt>
      <trkpt lat="60.11615745" lon="30.51776648">
        <time>2026-08-20T10:20:42Z</time>
      </trkpt>
      <trkpt lat="60.11613599" lon="30.5177021">
        <time>2026-08-20T10:20:45Z</time>
      </trkpt>
      <trkpt lat="60.11613599" lon="30.51761627">
        <time>2026-08-20T10:20:47Z</time>
      </trkpt>
      <trkpt lat="60.11617891" lon="30.5175519">
        <time>2026-08-20T10:20:50Z</time>
      </trkpt>
      <trkpt lat="60.11620036" lon="30.51746607">
        <time>2026-08-20T10:20:52Z</time>
      </trkpt>
      <trkpt lat="60.11624328" lon="30.51735878">
        <time>2026-08-20T10:20:55Z</time>
      </trkpt>
      <trkpt lat="60.11624328" lon="30.51729441">
        <time>2026-08-20T10:20:57Z</time>
      </trkpt>
      <trkpt lat="60.11626474" lon="30.51725149">
        <time>2026-08-20T10:21:00Z</time>
      </trkpt>
      <trkpt lat="60.11630765" lon="30.51718712">
        <time>2026-08-20T10:21:02Z</time>
      </trkpt>
      <trkpt lat="60.11630765" lon="30.5171442">
        <time>2026-08-20T10:21:05Z</time>
      </trkpt>
      <trkpt lat="60.11632911" lon="30.51707983">
        <time>2026-08-20T10:21:07Z</time>
      </trkpt>
      <trkpt lat="60.11637202" lon="30.51697254">
        <time>2026-08-20T10:21:15Z</time>
      </trkpt>
      <trkpt lat="60.11641494" lon="30.51692963">
        <time>2026-08-20T10:21:17Z</time>
      </trkpt>
      <trkpt lat="60.11645786" lon="30.51692963">
        <time>2026-08-20T10:21:20Z</time>
      </trkpt>
      <trkpt lat="60.11650077" lon="30.51697254">
        <time>2026-08-20T10:21:22Z</time>
      </trkpt>
      <trkpt lat="60.11656514" lon="30.51695108">
        <time>2026-08-20T10:21:25Z</time>
      </trkpt>
      <trkpt lat="60.11660806" lon="30.516994">
        <time>2026-08-20T10:21:32Z</time>
      </trkpt>
      <trkpt lat="60.11673681" lon="30.5171442">
        <time>2026-08-20T10:22:02Z</time>
      </trkpt>
      <trkpt lat="60.11684409" lon="30.5174017">
        <time>2026-08-20T10:22:32Z</time>
      </trkpt>
      <trkpt lat="60.11682264" lon="30.51750898">
        <time>2026-08-20T10:23:02Z</time>
      </trkpt>
      <trkpt lat="60.11673681" lon="30.5177021">
        <time>2026-08-20T10:23:32Z</time>
      </trkpt>
      <trkpt lat="60.11669389" lon="30.51776648">
        <time>2026-08-20T10:23:37Z</time>
      </trkpt>
      <trkpt lat="60.11667243" lon="30.51780939">
        <time>2026-08-20T10:23:40Z</time>
      </trkpt>
      <trkpt lat="60.1165866" lon="30.51798105">
        <time>2026-08-20T10:24:10Z</time>
      </trkpt>
      <trkpt lat="60.11656514" lon="30.51798105">
        <time>2026-08-20T10:24:15Z</time>
      </trkpt>
      <trkpt lat="60.11652223" lon="30.51800251">
        <time>2026-08-20T10:24:32Z</time>
      </trkpt>
      <trkpt lat="60.11652223" lon="30.51800251">
        <time>2026-08-20T10:24:45Z</time>
      </trkpt>
      <trkpt lat="60.1165866" lon="30.51798105">
        <time>2026-08-20T10:25:15Z</time>
      </trkpt>
      <trkpt lat="60.11656514" lon="30.51798105">
        <time>2026-08-20T10:25:45Z</time>
      </trkpt>
      <trkpt lat="60.11652223" lon="30.51832438">
        <time>2026-08-20T10:26:00Z</time>
      </trkpt>
      <trkpt lat="60.11654369" lon="30.51843166">
        <time>2026-08-20T10:26:15Z</time>
      </trkpt>
      <trkpt lat="60.11652223" lon="30.51845312">
        <time>2026-08-20T10:26:17Z</time>
      </trkpt>
      <trkpt lat="60.11650077" lon="30.51849604">
        <time>2026-08-20T10:26:32Z</time>
      </trkpt>
      <trkpt lat="60.11650077" lon="30.51849604">
        <time>2026-08-20T10:26:40Z</time>
      </trkpt>
      <trkpt lat="60.11650077" lon="30.51851749">
        <time>2026-08-20T10:26:55Z</time>
      </trkpt>
      <trkpt lat="60.11650077" lon="30.51851749">
        <time>2026-08-20T10:27:00Z</time>
      </trkpt>
      <trkpt lat="60.11652223" lon="30.51853895">
        <time>2026-08-20T10:27:30Z</time>
      </trkpt>
      <trkpt lat="60.11650077" lon="30.51849604">
        <time>2026-08-20T10:28:00Z</time>
      </trkpt>
      <trkpt lat="60.11652223" lon="30.51838875">
        <time>2026-08-20T10:28:30Z</time>
      </trkpt>
      <trkpt lat="60.11656514" lon="30.51832438">
        <time>2026-08-20T10:29:00Z</time>
      </trkpt>
      <trkpt lat="60.11656514" lon="30.51832438">
        <time>2026-08-20T10:29:30Z</time>
      </trkpt>
      <trkpt lat="60.11654369" lon="30.51843166">
        <time>2026-08-20T10:30:00Z</time>
      </trkpt>
      <trkpt lat="60.11652223" lon="30.51849604">
        <time>2026-08-20T10:30:02Z</time>
      </trkpt>
      <trkpt lat="60.1164364" lon="30.51858187">
        <time>2026-08-20T10:30:20Z</time>
      </trkpt>
      <trkpt lat="60.1164364" lon="30.51860332">
        <time>2026-08-20T10:30:50Z</time>
      </trkpt>
      <trkpt lat="60.11660806" lon="30.51875353">
        <time>2026-08-20T10:31:20Z</time>
      </trkpt>
      <trkpt lat="60.11667243" lon="30.5188179">
        <time>2026-08-20T10:31:50Z</time>
      </trkpt>
      <trkpt lat="60.11667243" lon="30.51879644">
        <time>2026-08-20T10:32:07Z</time>
      </trkpt>
      <trkpt lat="60.11677972" lon="30.51860332">
        <time>2026-08-20T10:32:25Z</time>
      </trkpt>
      <trkpt lat="60.11682264" lon="30.51864624">
        <time>2026-08-20T10:32:55Z</time>
      </trkpt>
      <trkpt lat="60.11686555" lon="30.51868916">
        <time>2026-08-20T10:33:10Z</time>
      </trkpt>
      <trkpt lat="60.11686555" lon="30.51868916">
        <time>2026-08-20T10:33:25Z</time>
      </trkpt>
      <trkpt lat="60.11684409" lon="30.51868916">
        <time>2026-08-20T10:33:55Z</time>
      </trkpt>
      <trkpt lat="60.11686555" lon="30.51868916">
        <time>2026-08-20T10:34:25Z</time>
      </trkpt>
      <trkpt lat="60.11684409" lon="30.51871061">
        <time>2026-08-20T10:34:55Z</time>
      </trkpt>
      <trkpt lat="60.11684409" lon="30.51871061">
        <time>2026-08-20T10:35:25Z</time>
      </trkpt>
      <trkpt lat="60.11684409" lon="30.51871061">
        <time>2026-08-20T10:35:55Z</time>
      </trkpt>
      <trkpt lat="60.11684409" lon="30.51871061">
        <time>2026-08-20T10:36:25Z</time>
      </trkpt>
      <trkpt lat="60.11677972" lon="30.51890373">
        <time>2026-08-20T10:36:55Z</time>
      </trkpt>
      <trkpt lat="60.11680118" lon="30.51892519">
        <time>2026-08-20T10:37:25Z</time>
      </trkpt>
      <trkpt lat="60.11680118" lon="30.51892519">
        <time>2026-08-20T10:37:55Z</time>
      </trkpt>
      <trkpt lat="60.11682264" lon="30.51886082">
        <time>2026-08-20T10:38:05Z</time>
      </trkpt>
      <trkpt lat="60.11690847" lon="30.51894665">
        <time>2026-08-20T10:38:35Z</time>
      </trkpt>
      <trkpt lat="60.11695138" lon="30.51898956">
        <time>2026-08-20T10:38:42Z</time>
      </trkpt>
      <trkpt lat="60.11708013" lon="30.51909685">
        <time>2026-08-20T10:38:55Z</time>
      </trkpt>
      <trkpt lat="60.11712304" lon="30.51913977">
        <time>2026-08-20T10:38:57Z</time>
      </trkpt>
      <trkpt lat="60.11712304" lon="30.51916122">
        <time>2026-08-20T10:39:00Z</time>
      </trkpt>
      <trkpt lat="60.1171445" lon="30.51920414">
        <time>2026-08-20T10:39:02Z</time>
      </trkpt>
      <trkpt lat="60.1171445" lon="30.51926851">
        <time>2026-08-20T10:39:32Z</time>
      </trkpt>
      <trkpt lat="60.1171445" lon="30.51948309">
        <time>2026-08-20T10:39:55Z</time>
      </trkpt>
      <trkpt lat="60.1171445" lon="30.51948309">
        <time>2026-08-20T10:40:02Z</time>
      </trkpt>
      <trkpt lat="60.1171445" lon="30.51948309">
        <time>2026-08-20T10:40:05Z</time>
      </trkpt>
      <trkpt lat="60.1171445" lon="30.51950455">
        <time>2026-08-20T10:40:10Z</time>
      </trkpt>
      <trkpt lat="60.1171445" lon="30.51959038">
        <time>2026-08-20T10:40:12Z</time>
      </trkpt>
      <trkpt lat="60.11716596" lon="30.51969767">
        <time>2026-08-20T10:40:15Z</time>
      </trkpt>
      <trkpt lat="60.11725179" lon="30.52012682">
        <time>2026-08-20T10:40:25Z</time>
      </trkpt>
      <trkpt lat="60.11740199" lon="30.52040577">
        <time>2026-08-20T10:40:42Z</time>
      </trkpt>
      <trkpt lat="60.11746637" lon="30.5206418">
        <time>2026-08-20T10:40:57Z</time>
      </trkpt>
      <trkpt lat="60.11750928" lon="30.52070618">
        <time>2026-08-20T10:41:00Z</time>
      </trkpt>
      <trkpt lat="60.11750928" lon="30.52077055">
        <time>2026-08-20T10:41:02Z</time>
      </trkpt>
      <trkpt lat="60.11750928" lon="30.52083492">
        <time>2026-08-20T10:41:05Z</time>
      </trkpt>
      <trkpt lat="60.11748782" lon="30.52094221">
        <time>2026-08-20T10:41:07Z</time>
      </trkpt>
      <trkpt lat="60.11746637" lon="30.52096367">
        <time>2026-08-20T10:41:10Z</time>
      </trkpt>
      <trkpt lat="60.11746637" lon="30.52094221">
        <time>2026-08-20T10:41:32Z</time>
      </trkpt>
      <trkpt lat="60.11744491" lon="30.52098513">
        <time>2026-08-20T10:41:50Z</time>
      </trkpt>
      <trkpt lat="60.11740199" lon="30.52096367">
        <time>2026-08-20T10:41:52Z</time>
      </trkpt>
      <trkpt lat="60.11740199" lon="30.52094221">
        <time>2026-08-20T10:42:05Z</time>
      </trkpt>
      <trkpt lat="60.11742345" lon="30.52094221">
        <time>2026-08-20T10:42:35Z</time>
      </trkpt>
      <trkpt lat="60.11742345" lon="30.52094221">
        <time>2026-08-20T10:43:05Z</time>
      </trkpt>
      <trkpt lat="60.11742345" lon="30.52092075">
        <time>2026-08-20T10:43:35Z</time>
      </trkpt>
      <trkpt lat="60.11744491" lon="30.52092075">
        <time>2026-08-20T10:44:05Z</time>
      </trkpt>
      <trkpt lat="60.11744491" lon="30.52094221">
        <time>2026-08-20T10:44:35Z</time>
      </trkpt>
      <trkpt lat="60.11744491" lon="30.52094221">
        <time>2026-08-20T10:45:05Z</time>
      </trkpt>
      <trkpt lat="60.11744491" lon="30.52094221">
        <time>2026-08-20T10:45:35Z</time>
      </trkpt>
      <trkpt lat="60.11744491" lon="30.52094221">
        <time>2026-08-20T10:46:05Z</time>
      </trkpt>
      <trkpt lat="60.11744491" lon="30.52094221">
        <time>2026-08-20T10:46:35Z</time>
      </trkpt>
      <trkpt lat="60.11744491" lon="30.52094221">
        <time>2026-08-20T10:47:05Z</time>
      </trkpt>
      <trkpt lat="60.11744491" lon="30.52094221">
        <time>2026-08-20T10:47:35Z</time>
      </trkpt>
      <trkpt lat="60.11744491" lon="30.52092075">
        <time>2026-08-20T10:47:45Z</time>
      </trkpt>
      <trkpt lat="60.11740199" lon="30.5206418">
        <time>2026-08-20T10:47:57Z</time>
      </trkpt>
      <trkpt lat="60.11740199" lon="30.52059889">
        <time>2026-08-20T10:48:00Z</time>
      </trkpt>
      <trkpt lat="60.11742345" lon="30.52051306">
        <time>2026-08-20T10:48:05Z</time>
      </trkpt>
      <trkpt lat="60.11735908" lon="30.5206418">
        <time>2026-08-20T10:48:30Z</time>
      </trkpt>
      <trkpt lat="60.11733762" lon="30.52070618">
        <time>2026-08-20T10:48:32Z</time>
      </trkpt>
      <trkpt lat="60.11731616" lon="30.52068472">
        <time>2026-08-20T10:48:35Z</time>
      </trkpt>
      <trkpt lat="60.11720887" lon="30.52068472">
        <time>2026-08-20T10:48:42Z</time>
      </trkpt>
      <trkpt lat="60.11712304" lon="30.52081347">
        <time>2026-08-20T10:48:50Z</time>
      </trkpt>
      <trkpt lat="60.11710159" lon="30.52087784">
        <time>2026-08-20T10:48:52Z</time>
      </trkpt>
      <trkpt lat="60.11708013" lon="30.52098513">
        <time>2026-08-20T10:48:55Z</time>
      </trkpt>
      <trkpt lat="60.11708013" lon="30.52111387">
        <time>2026-08-20T10:48:57Z</time>
      </trkpt>
      <trkpt lat="60.11705867" lon="30.52113533">
        <time>2026-08-20T10:49:00Z</time>
      </trkpt>
      <trkpt lat="60.11703721" lon="30.52117825">
        <time>2026-08-20T10:49:12Z</time>
      </trkpt>
      <trkpt lat="60.11703721" lon="30.52122116">
        <time>2026-08-20T10:49:15Z</time>
      </trkpt>
      <trkpt lat="60.11701575" lon="30.52128553">
        <time>2026-08-20T10:49:17Z</time>
      </trkpt>
      <trkpt lat="60.11701575" lon="30.52111387">
        <time>2026-08-20T10:49:30Z</time>
      </trkpt>
      <trkpt lat="60.11701575" lon="30.52092075">
        <time>2026-08-20T10:49:32Z</time>
      </trkpt>
      <trkpt lat="60.11703721" lon="30.52072763">
        <time>2026-08-20T10:49:35Z</time>
      </trkpt>
      <trkpt lat="60.11708013" lon="30.52051306">
        <time>2026-08-20T10:49:37Z</time>
      </trkpt>
      <trkpt lat="60.11710159" lon="30.52029848">
        <time>2026-08-20T10:49:40Z</time>
      </trkpt>
      <trkpt lat="60.11710159" lon="30.52010536">
        <time>2026-08-20T10:49:42Z</time>
      </trkpt>
      <trkpt lat="60.11710159" lon="30.51999807">
        <time>2026-08-20T10:49:45Z</time>
      </trkpt>
      <trkpt lat="60.11710159" lon="30.51991224">
        <time>2026-08-20T10:49:47Z</time>
      </trkpt>
      <trkpt lat="60.11710159" lon="30.51969767">
        <time>2026-08-20T10:49:55Z</time>
      </trkpt>
      <trkpt lat="60.11712304" lon="30.51965475">
        <time>2026-08-20T10:49:57Z</time>
      </trkpt>
      <trkpt lat="60.11712304" lon="30.51944017">
        <time>2026-08-20T10:50:27Z</time>
      </trkpt>
      <trkpt lat="60.11708013" lon="30.519526">
        <time>2026-08-20T10:50:37Z</time>
      </trkpt>
      <trkpt lat="60.11701575" lon="30.51954746">
        <time>2026-08-20T10:50:40Z</time>
      </trkpt>
      <trkpt lat="60.1169943" lon="30.51954746">
        <time>2026-08-20T10:50:42Z</time>
      </trkpt>
      <trkpt lat="60.11697284" lon="30.51946163">
        <time>2026-08-20T10:50:45Z</time>
      </trkpt>
      <trkpt lat="60.11697284" lon="30.51933289">
        <time>2026-08-20T10:51:15Z</time>
      </trkpt>
      <trkpt lat="60.11690847" lon="30.51935434">
        <time>2026-08-20T10:51:20Z</time>
      </trkpt>
      <trkpt lat="60.11684409" lon="30.51924706">
        <time>2026-08-20T10:51:30Z</time>
      </trkpt>
      <trkpt lat="60.11682264" lon="30.51918268">
        <time>2026-08-20T10:51:32Z</time>
      </trkpt>
      <trkpt lat="60.11680118" lon="30.51913977">
        <time>2026-08-20T10:51:35Z</time>
      </trkpt>
      <trkpt lat="60.11677972" lon="30.51909685">
        <time>2026-08-20T10:51:37Z</time>
      </trkpt>
      <trkpt lat="60.11675826" lon="30.51909685">
        <time>2026-08-20T10:51:40Z</time>
      </trkpt>
      <trkpt lat="60.11669389" lon="30.51886082">
        <time>2026-08-20T10:52:10Z</time>
      </trkpt>
      <trkpt lat="60.11671535" lon="30.51875353">
        <time>2026-08-20T10:52:35Z</time>
      </trkpt>
      <trkpt lat="60.11675826" lon="30.51868916">
        <time>2026-08-20T10:52:37Z</time>
      </trkpt>
      <trkpt lat="60.11677972" lon="30.51860332">
        <time>2026-08-20T10:52:40Z</time>
      </trkpt>
      <trkpt lat="60.11677972" lon="30.51853895">
        <time>2026-08-20T10:52:42Z</time>
      </trkpt>
      <trkpt lat="60.11686555" lon="30.5186677">
        <time>2026-08-20T10:53:10Z</time>
      </trkpt>
      <trkpt lat="60.11686555" lon="30.51873207">
        <time>2026-08-20T10:53:12Z</time>
      </trkpt>
      <trkpt lat="60.11686555" lon="30.51877499">
        <time>2026-08-20T10:53:37Z</time>
      </trkpt>
      <trkpt lat="60.11695138" lon="30.51890373">
        <time>2026-08-20T10:53:55Z</time>
      </trkpt>
      <trkpt lat="60.1171445" lon="30.51905394">
        <time>2026-08-20T10:54:25Z</time>
      </trkpt>
      <trkpt lat="60.11725179" lon="30.51918268">
        <time>2026-08-20T10:54:55Z</time>
      </trkpt>
      <trkpt lat="60.1172947" lon="30.51909685">
        <time>2026-08-20T10:55:12Z</time>
      </trkpt>
      <trkpt lat="60.11731616" lon="30.51911831">
        <time>2026-08-20T10:55:15Z</time>
      </trkpt>
      <trkpt lat="60.11731616" lon="30.51911831">
        <time>2026-08-20T10:55:22Z</time>
      </trkpt>
      <trkpt lat="60.11731616" lon="30.51911831">
        <time>2026-08-20T10:55:25Z</time>
      </trkpt>
      <trkpt lat="60.1172947" lon="30.51913977">
        <time>2026-08-20T10:55:30Z</time>
      </trkpt>
      <trkpt lat="60.11725179" lon="30.51924706">
        <time>2026-08-20T10:55:32Z</time>
      </trkpt>
      <trkpt lat="60.11731616" lon="30.51931143">
        <time>2026-08-20T10:55:35Z</time>
      </trkpt>
      <trkpt lat="60.11733762" lon="30.51935434">
        <time>2026-08-20T10:55:37Z</time>
      </trkpt>
      <trkpt lat="60.11735908" lon="30.51933289">
        <time>2026-08-20T10:55:42Z</time>
      </trkpt>
      <trkpt lat="60.11735908" lon="30.51933289">
        <time>2026-08-20T10:55:45Z</time>
      </trkpt>
      <trkpt lat="60.11744491" lon="30.51954746">
        <time>2026-08-20T10:56:15Z</time>
      </trkpt>
      <trkpt lat="60.11744491" lon="30.51954746">
        <time>2026-08-20T10:56:30Z</time>
      </trkpt>
      <trkpt lat="60.11744491" lon="30.51954746">
        <time>2026-08-20T10:56:45Z</time>
      </trkpt>
      <trkpt lat="60.11746637" lon="30.51956892">
        <time>2026-08-20T10:57:15Z</time>
      </trkpt>
      <trkpt lat="60.11746637" lon="30.51965475">
        <time>2026-08-20T10:57:22Z</time>
      </trkpt>
      <trkpt lat="60.11759511" lon="30.51980495">
        <time>2026-08-20T10:57:47Z</time>
      </trkpt>
      <trkpt lat="60.11774532" lon="30.5199337">
        <time>2026-08-20T10:58:17Z</time>
      </trkpt>
      <trkpt lat="60.11783115" lon="30.52004099">
        <time>2026-08-20T10:58:47Z</time>
      </trkpt>
      <trkpt lat="60.1178526" lon="30.52010536">
        <time>2026-08-20T10:59:15Z</time>
      </trkpt>
      <trkpt lat="60.1178526" lon="30.52010536">
        <time>2026-08-20T10:59:45Z</time>
      </trkpt>
      <trkpt lat="60.11789552" lon="30.52016973">
        <time>2026-08-20T11:00:15Z</time>
      </trkpt>
      <trkpt lat="60.11789552" lon="30.52029848">
        <time>2026-08-20T11:00:45Z</time>
      </trkpt>
      <trkpt lat="60.11791698" lon="30.52029848">
        <time>2026-08-20T11:01:15Z</time>
      </trkpt>
      <trkpt lat="60.11791698" lon="30.52027702">
        <time>2026-08-20T11:01:45Z</time>
      </trkpt>
      <trkpt lat="60.11791698" lon="30.52025557">
        <time>2026-08-20T11:02:15Z</time>
      </trkpt>
      <trkpt lat="60.11791698" lon="30.52025557">
        <time>2026-08-20T11:02:45Z</time>
      </trkpt>
      <trkpt lat="60.11791698" lon="30.52025557">
        <time>2026-08-20T11:03:15Z</time>
      </trkpt>
      <trkpt lat="60.11791698" lon="30.52025557">
        <time>2026-08-20T11:03:45Z</time>
      </trkpt>
      <trkpt lat="60.11791698" lon="30.52025557">
        <time>2026-08-20T11:04:15Z</time>
      </trkpt>
      <trkpt lat="60.11793843" lon="30.5203414">
        <time>2026-08-20T11:04:22Z</time>
      </trkpt>
      <trkpt lat="60.11798135" lon="30.5204916">
        <time>2026-08-20T11:04:27Z</time>
      </trkpt>
      <trkpt lat="60.11798135" lon="30.52057743">
        <time>2026-08-20T11:04:32Z</time>
      </trkpt>
      <trkpt lat="60.11798135" lon="30.52074909">
        <time>2026-08-20T11:05:02Z</time>
      </trkpt>
      <trkpt lat="60.11806718" lon="30.52087784">
        <time>2026-08-20T11:05:32Z</time>
      </trkpt>
      <trkpt lat="60.11806718" lon="30.52079201">
        <time>2026-08-20T11:05:45Z</time>
      </trkpt>
      <trkpt lat="60.11808864" lon="30.52070618">
        <time>2026-08-20T11:05:50Z</time>
      </trkpt>
      <trkpt lat="60.11808864" lon="30.52066326">
        <time>2026-08-20T11:06:02Z</time>
      </trkpt>
      <trkpt lat="60.1181101" lon="30.52070618">
        <time>2026-08-20T11:06:30Z</time>
      </trkpt>
      <trkpt lat="60.11819593" lon="30.52094221">
        <time>2026-08-20T11:06:45Z</time>
      </trkpt>
      <trkpt lat="60.11821738" lon="30.52094221">
        <time>2026-08-20T11:06:57Z</time>
      </trkpt>
      <trkpt lat="60.11821738" lon="30.52094221">
        <time>2026-08-20T11:07:15Z</time>
      </trkpt>
      <trkpt lat="60.11817447" lon="30.52098513">
        <time>2026-08-20T11:07:40Z</time>
      </trkpt>
      <trkpt lat="60.11815301" lon="30.52079201">
        <time>2026-08-20T11:08:10Z</time>
      </trkpt>
      <trkpt lat="60.11817447" lon="30.52072763">
        <time>2026-08-20T11:08:40Z</time>
      </trkpt>
      <trkpt lat="60.11817447" lon="30.52070618">
        <time>2026-08-20T11:09:10Z</time>
      </trkpt>
      <trkpt lat="60.11815301" lon="30.52066326">
        <time>2026-08-20T11:09:40Z</time>
      </trkpt>
      <trkpt lat="60.11813155" lon="30.52066326">
        <time>2026-08-20T11:10:10Z</time>
      </trkpt>
      <trkpt lat="60.11815301" lon="30.52066326">
        <time>2026-08-20T11:10:40Z</time>
      </trkpt>
      <trkpt lat="60.11815301" lon="30.5206418">
        <time>2026-08-20T11:11:10Z</time>
      </trkpt>
      <trkpt lat="60.11815301" lon="30.5206418">
        <time>2026-08-20T11:11:40Z</time>
      </trkpt>
      <trkpt lat="60.11815301" lon="30.5206418">
        <time>2026-08-20T11:12:10Z</time>
      </trkpt>
      <trkpt lat="60.11815301" lon="30.5206418">
        <time>2026-08-20T11:12:40Z</time>
      </trkpt>
      <trkpt lat="60.11815301" lon="30.5206418">
        <time>2026-08-20T11:13:10Z</time>
      </trkpt>
      <trkpt lat="60.11813155" lon="30.5206418">
        <time>2026-08-20T11:13:40Z</time>
      </trkpt>
      <trkpt lat="60.11813155" lon="30.52062035">
        <time>2026-08-20T11:14:10Z</time>
      </trkpt>
      <trkpt lat="60.11813155" lon="30.52062035">
        <time>2026-08-20T11:14:40Z</time>
      </trkpt>
      <trkpt lat="60.11815301" lon="30.52072763">
        <time>2026-08-20T11:14:52Z</time>
      </trkpt>
      <trkpt lat="60.11819593" lon="30.52081347">
        <time>2026-08-20T11:14:55Z</time>
      </trkpt>
      <trkpt lat="60.11823884" lon="30.5208993">
        <time>2026-08-20T11:14:57Z</time>
      </trkpt>
      <trkpt lat="60.1182603" lon="30.52098513">
        <time>2026-08-20T11:15:00Z</time>
      </trkpt>
      <trkpt lat="60.1182603" lon="30.52098513">
        <time>2026-08-20T11:15:12Z</time>
      </trkpt>
      <trkpt lat="60.1182603" lon="30.52098513">
        <time>2026-08-20T11:15:20Z</time>
      </trkpt>
      <trkpt lat="60.11834613" lon="30.52098513">
        <time>2026-08-20T11:15:50Z</time>
      </trkpt>
      <trkpt lat="60.11832467" lon="30.52098513">
        <time>2026-08-20T11:16:00Z</time>
      </trkpt>
      <trkpt lat="60.1184105" lon="30.52111387">
        <time>2026-08-20T11:16:25Z</time>
      </trkpt>
      <trkpt lat="60.1184105" lon="30.52117825">
        <time>2026-08-20T11:16:55Z</time>
      </trkpt>
      <trkpt lat="60.11843196" lon="30.52124262">
        <time>2026-08-20T11:16:57Z</time>
      </trkpt>
      <trkpt lat="60.11845342" lon="30.52126408">
        <time>2026-08-20T11:17:00Z</time>
      </trkpt>
      <trkpt lat="60.11847488" lon="30.52128553">
        <time>2026-08-20T11:17:02Z</time>
      </trkpt>
      <trkpt lat="60.11864654" lon="30.52126408">
        <time>2026-08-20T11:17:32Z</time>
      </trkpt>
      <trkpt lat="60.11868945" lon="30.52150011">
        <time>2026-08-20T11:17:52Z</time>
      </trkpt>
      <trkpt lat="60.11875383" lon="30.52156448">
        <time>2026-08-20T11:17:57Z</time>
      </trkpt>
      <trkpt lat="60.11877528" lon="30.52162886">
        <time>2026-08-20T11:18:00Z</time>
      </trkpt>
      <trkpt lat="60.11877528" lon="30.52167177">
        <time>2026-08-20T11:18:02Z</time>
      </trkpt>
      <trkpt lat="60.11890403" lon="30.52162886">
        <time>2026-08-20T11:18:22Z</time>
      </trkpt>
      <trkpt lat="60.11892549" lon="30.52167177">
        <time>2026-08-20T11:18:25Z</time>
      </trkpt>
      <trkpt lat="60.1189684" lon="30.52171469">
        <time>2026-08-20T11:18:27Z</time>
      </trkpt>
      <trkpt lat="60.11903278" lon="30.52180052">
        <time>2026-08-20T11:18:47Z</time>
      </trkpt>
      <trkpt lat="60.11903278" lon="30.52180052">
        <time>2026-08-20T11:19:10Z</time>
      </trkpt>
      <trkpt lat="60.11903278" lon="30.52180052">
        <time>2026-08-20T11:19:22Z</time>
      </trkpt>
      <trkpt lat="60.11905423" lon="30.52180052">
        <time>2026-08-20T11:19:25Z</time>
      </trkpt>
      <trkpt lat="60.11901132" lon="30.52173615">
        <time>2026-08-20T11:19:47Z</time>
      </trkpt>
      <trkpt lat="60.11886111" lon="30.52167177">
        <time>2026-08-20T11:19:50Z</time>
      </trkpt>
      <trkpt lat="60.11877528" lon="30.52162886">
        <time>2026-08-20T11:19:52Z</time>
      </trkpt>
      <trkpt lat="60.11877528" lon="30.52154303">
        <time>2026-08-20T11:19:55Z</time>
      </trkpt>
      <trkpt lat="60.11873237" lon="30.5214572">
        <time>2026-08-20T11:19:57Z</time>
      </trkpt>
      <trkpt lat="60.11868945" lon="30.52137136">
        <time>2026-08-20T11:20:00Z</time>
      </trkpt>
      <trkpt lat="60.118668" lon="30.52128553">
        <time>2026-08-20T11:20:02Z</time>
      </trkpt>
      <trkpt lat="60.11868945" lon="30.52126408">
        <time>2026-08-20T11:20:20Z</time>
      </trkpt>
      <trkpt lat="60.11871091" lon="30.52126408">
        <time>2026-08-20T11:20:22Z</time>
      </trkpt>
      <trkpt lat="60.11875383" lon="30.52126408">
        <time>2026-08-20T11:20:27Z</time>
      </trkpt>
      <trkpt lat="60.11877528" lon="30.52122116">
        <time>2026-08-20T11:20:40Z</time>
      </trkpt>
      <trkpt lat="60.11879674" lon="30.52126408">
        <time>2026-08-20T11:20:42Z</time>
      </trkpt>
      <trkpt lat="60.11883966" lon="30.52130699">
        <time>2026-08-20T11:20:45Z</time>
      </trkpt>
      <trkpt lat="60.11886111" lon="30.52137136">
        <time>2026-08-20T11:20:47Z</time>
      </trkpt>
      <trkpt lat="60.11890403" lon="30.5214572">
        <time>2026-08-20T11:20:50Z</time>
      </trkpt>
      <trkpt lat="60.11890403" lon="30.52156448">
        <time>2026-08-20T11:20:52Z</time>
      </trkpt>
      <trkpt lat="60.11894695" lon="30.52162886">
        <time>2026-08-20T11:20:55Z</time>
      </trkpt>
      <trkpt lat="60.11898986" lon="30.52167177">
        <time>2026-08-20T11:20:57Z</time>
      </trkpt>
      <trkpt lat="60.11905423" lon="30.5217576">
        <time>2026-08-20T11:21:00Z</time>
      </trkpt>
      <trkpt lat="60.11909715" lon="30.52173615">
        <time>2026-08-20T11:21:02Z</time>
      </trkpt>
      <trkpt lat="60.11920444" lon="30.52162886">
        <time>2026-08-20T11:21:20Z</time>
      </trkpt>
      <trkpt lat="60.11926881" lon="30.52152157">
        <time>2026-08-20T11:21:22Z</time>
      </trkpt>
      <trkpt lat="60.11946193" lon="30.5211997">
        <time>2026-08-20T11:21:27Z</time>
      </trkpt>
      <trkpt lat="60.11954776" lon="30.5210495">
        <time>2026-08-20T11:21:30Z</time>
      </trkpt>
      <trkpt lat="60.11961213" lon="30.5208993">
        <time>2026-08-20T11:21:32Z</time>
      </trkpt>
      <trkpt lat="60.11961213" lon="30.5208993">
        <time>2026-08-20T11:22:02Z</time>
      </trkpt>
      <trkpt lat="60.11961213" lon="30.5208993">
        <time>2026-08-20T11:22:05Z</time>
      </trkpt>
      <trkpt lat="60.11948339" lon="30.52113533">
        <time>2026-08-20T11:22:07Z</time>
      </trkpt>
      <trkpt lat="60.11931173" lon="30.52147865">
        <time>2026-08-20T11:22:10Z</time>
      </trkpt>
      <trkpt lat="60.11914006" lon="30.52171469">
        <time>2026-08-20T11:22:12Z</time>
      </trkpt>
      <trkpt lat="60.11901132" lon="30.52169323">
        <time>2026-08-20T11:22:15Z</time>
      </trkpt>
      <trkpt lat="60.11888257" lon="30.5216074">
        <time>2026-08-20T11:22:17Z</time>
      </trkpt>
      <trkpt lat="60.11888257" lon="30.52147865">
        <time>2026-08-20T11:22:20Z</time>
      </trkpt>
      <trkpt lat="60.11886111" lon="30.52139282">
        <time>2026-08-20T11:22:22Z</time>
      </trkpt>
      <trkpt lat="60.11883966" lon="30.52132845">
        <time>2026-08-20T11:22:25Z</time>
      </trkpt>
      <trkpt lat="60.11886111" lon="30.52134991">
        <time>2026-08-20T11:22:52Z</time>
      </trkpt>
      <trkpt lat="60.11890403" lon="30.52134991">
        <time>2026-08-20T11:22:55Z</time>
      </trkpt>
      <trkpt lat="60.11892549" lon="30.52132845">
        <time>2026-08-20T11:22:57Z</time>
      </trkpt>
      <trkpt lat="60.11898986" lon="30.52137136">
        <time>2026-08-20T11:23:05Z</time>
      </trkpt>
      <trkpt lat="60.11901132" lon="30.52139282">
        <time>2026-08-20T11:23:07Z</time>
      </trkpt>
      <trkpt lat="60.11914006" lon="30.52156448">
        <time>2026-08-20T11:23:37Z</time>
      </trkpt>
      <trkpt lat="60.11920444" lon="30.52167177">
        <time>2026-08-20T11:23:50Z</time>
      </trkpt>
      <trkpt lat="60.11907569" lon="30.52184343">
        <time>2026-08-20T11:23:55Z</time>
      </trkpt>
      <trkpt lat="60.11898986" lon="30.52203655">
        <time>2026-08-20T11:23:57Z</time>
      </trkpt>
      <trkpt lat="60.11898986" lon="30.5221653">
        <time>2026-08-20T11:24:00Z</time>
      </trkpt>
      <trkpt lat="60.11894695" lon="30.52225113">
        <time>2026-08-20T11:24:10Z</time>
      </trkpt>
      <trkpt lat="60.11894695" lon="30.52225113">
        <time>2026-08-20T11:24:12Z</time>
      </trkpt>
      <trkpt lat="60.11892549" lon="30.52214384">
        <time>2026-08-20T11:24:42Z</time>
      </trkpt>
      <trkpt lat="60.11894695" lon="30.52210093">
        <time>2026-08-20T11:25:00Z</time>
      </trkpt>
      <trkpt lat="60.1189684" lon="30.52207947">
        <time>2026-08-20T11:25:15Z</time>
      </trkpt>
      <trkpt lat="60.11903278" lon="30.52197218">
        <time>2026-08-20T11:25:17Z</time>
      </trkpt>
      <trkpt lat="60.11924735" lon="30.52165031">
        <time>2026-08-20T11:25:20Z</time>
      </trkpt>
      <trkpt lat="60.11939756" lon="30.52141428">
        <time>2026-08-20T11:25:22Z</time>
      </trkpt>
      <trkpt lat="60.11950484" lon="30.52124262">
        <time>2026-08-20T11:25:52Z</time>
      </trkpt>
      <trkpt lat="60.11950484" lon="30.52124262">
        <time>2026-08-20T11:25:55Z</time>
      </trkpt>
      <trkpt lat="60.11948339" lon="30.52128553">
        <time>2026-08-20T11:26:12Z</time>
      </trkpt>
      <trkpt lat="60.11944047" lon="30.52134991">
        <time>2026-08-20T11:26:15Z</time>
      </trkpt>
      <trkpt lat="60.11935464" lon="30.52147865">
        <time>2026-08-20T11:26:17Z</time>
      </trkpt>
      <trkpt lat="60.11924735" lon="30.52162886">
        <time>2026-08-20T11:26:20Z</time>
      </trkpt>
      <trkpt lat="60.11924735" lon="30.52162886">
        <time>2026-08-20T11:26:50Z</time>
      </trkpt>
      <trkpt lat="60.11924735" lon="30.52165031">
        <time>2026-08-20T11:27:20Z</time>
      </trkpt>
      <trkpt lat="60.11926881" lon="30.5216074">
        <time>2026-08-20T11:27:37Z</time>
      </trkpt>
      <trkpt lat="60.11941901" lon="30.52132845">
        <time>2026-08-20T11:27:42Z</time>
      </trkpt>
      <trkpt lat="60.11946193" lon="30.52124262">
        <time>2026-08-20T11:27:45Z</time>
      </trkpt>
      <trkpt lat="60.11948339" lon="30.5211997">
        <time>2026-08-20T11:27:47Z</time>
      </trkpt>
      <trkpt lat="60.11965505" lon="30.52094221">
        <time>2026-08-20T11:28:15Z</time>
      </trkpt>
      <trkpt lat="60.11967651" lon="30.5208993">
        <time>2026-08-20T11:28:17Z</time>
      </trkpt>
      <trkpt lat="60.11978379" lon="30.52070618">
        <time>2026-08-20T11:28:35Z</time>
      </trkpt>
      <trkpt lat="60.11980525" lon="30.52066326">
        <time>2026-08-20T11:28:37Z</time>
      </trkpt>
      <trkpt lat="60.11982671" lon="30.52057743">
        <time>2026-08-20T11:29:07Z</time>
      </trkpt>
      <trkpt lat="60.11982671" lon="30.5206418">
        <time>2026-08-20T11:29:15Z</time>
      </trkpt>
      <trkpt lat="60.11982671" lon="30.52072763">
        <time>2026-08-20T11:29:17Z</time>
      </trkpt>
      <trkpt lat="60.11980525" lon="30.52081347">
        <time>2026-08-20T11:29:20Z</time>
      </trkpt>
      <trkpt lat="60.11982671" lon="30.52087784">
        <time>2026-08-20T11:29:22Z</time>
      </trkpt>
      <trkpt lat="60.11982671" lon="30.52102804">
        <time>2026-08-20T11:29:50Z</time>
      </trkpt>
      <trkpt lat="60.11982671" lon="30.52102804">
        <time>2026-08-20T11:29:57Z</time>
      </trkpt>
      <trkpt lat="60.11982671" lon="30.52102804">
        <time>2026-08-20T11:30:20Z</time>
      </trkpt>
      <trkpt lat="60.11997691" lon="30.5211997">
        <time>2026-08-20T11:30:35Z</time>
      </trkpt>
      <trkpt lat="60.12001983" lon="30.52126408">
        <time>2026-08-20T11:30:37Z</time>
      </trkpt>
      <trkpt lat="60.12017003" lon="30.52150011">
        <time>2026-08-20T11:31:07Z</time>
      </trkpt>
      <trkpt lat="60.12034169" lon="30.52150011">
        <time>2026-08-20T11:31:37Z</time>
      </trkpt>
      <trkpt lat="60.12051336" lon="30.52156448">
        <time>2026-08-20T11:32:07Z</time>
      </trkpt>
      <trkpt lat="60.12055627" lon="30.5216074">
        <time>2026-08-20T11:32:15Z</time>
      </trkpt>
      <trkpt lat="60.12055627" lon="30.52173615">
        <time>2026-08-20T11:32:25Z</time>
      </trkpt>
      <trkpt lat="60.12053481" lon="30.52177906">
        <time>2026-08-20T11:32:27Z</time>
      </trkpt>
      <trkpt lat="60.12053481" lon="30.52177906">
        <time>2026-08-20T11:32:52Z</time>
      </trkpt>
      <trkpt lat="60.12057773" lon="30.52169323">
        <time>2026-08-20T11:32:55Z</time>
      </trkpt>
      <trkpt lat="60.12062064" lon="30.52165031">
        <time>2026-08-20T11:32:57Z</time>
      </trkpt>
      <trkpt lat="60.12068502" lon="30.52162886">
        <time>2026-08-20T11:33:00Z</time>
      </trkpt>
      <trkpt lat="60.12072793" lon="30.5216074">
        <time>2026-08-20T11:33:30Z</time>
      </trkpt>
      <trkpt lat="60.12072793" lon="30.5216074">
        <time>2026-08-20T11:34:00Z</time>
      </trkpt>
      <trkpt lat="60.12070647" lon="30.52162886">
        <time>2026-08-20T11:34:12Z</time>
      </trkpt>
      <trkpt lat="60.12081376" lon="30.52152157">
        <time>2026-08-20T11:34:20Z</time>
      </trkpt>
      <trkpt lat="60.12085668" lon="30.52150011">
        <time>2026-08-20T11:34:22Z</time>
      </trkpt>
      <trkpt lat="60.12089959" lon="30.52150011">
        <time>2026-08-20T11:34:25Z</time>
      </trkpt>
      <trkpt lat="60.12098542" lon="30.52158594">
        <time>2026-08-20T11:34:55Z</time>
      </trkpt>
      <trkpt lat="60.12113563" lon="30.52147865">
        <time>2026-08-20T11:35:25Z</time>
      </trkpt>
      <trkpt lat="60.1212" lon="30.52169323">
        <time>2026-08-20T11:35:55Z</time>
      </trkpt>
      <trkpt lat="60.12109271" lon="30.52173615">
        <time>2026-08-20T11:36:17Z</time>
      </trkpt>
      <trkpt lat="60.12107125" lon="30.5217576">
        <time>2026-08-20T11:36:20Z</time>
      </trkpt>
      <trkpt lat="60.12100688" lon="30.52154303">
        <time>2026-08-20T11:36:50Z</time>
      </trkpt>
      <trkpt lat="60.12092105" lon="30.52143574">
        <time>2026-08-20T11:37:07Z</time>
      </trkpt>
      <trkpt lat="60.12087814" lon="30.5214572">
        <time>2026-08-20T11:37:10Z</time>
      </trkpt>
      <trkpt lat="60.12083522" lon="30.5214572">
        <time>2026-08-20T11:37:12Z</time>
      </trkpt>
      <trkpt lat="60.12074939" lon="30.52150011">
        <time>2026-08-20T11:37:15Z</time>
      </trkpt>
      <trkpt lat="60.12072793" lon="30.52156448">
        <time>2026-08-20T11:37:17Z</time>
      </trkpt>
      <trkpt lat="60.12079231" lon="30.52167177">
        <time>2026-08-20T11:37:47Z</time>
      </trkpt>
      <trkpt lat="60.12079231" lon="30.52162886">
        <time>2026-08-20T11:38:07Z</time>
      </trkpt>
      <trkpt lat="60.12083522" lon="30.52154303">
        <time>2026-08-20T11:38:12Z</time>
      </trkpt>
      <trkpt lat="60.12085668" lon="30.52147865">
        <time>2026-08-20T11:38:15Z</time>
      </trkpt>
      <trkpt lat="60.12089959" lon="30.52150011">
        <time>2026-08-20T11:38:17Z</time>
      </trkpt>
      <trkpt lat="60.12092105" lon="30.52154303">
        <time>2026-08-20T11:38:20Z</time>
      </trkpt>
      <trkpt lat="60.12096397" lon="30.52156448">
        <time>2026-08-20T11:38:30Z</time>
      </trkpt>
      <trkpt lat="60.1210498" lon="30.52162886">
        <time>2026-08-20T11:38:32Z</time>
      </trkpt>
      <trkpt lat="60.12111417" lon="30.52167177">
        <time>2026-08-20T11:38:35Z</time>
      </trkpt>
      <trkpt lat="60.12111417" lon="30.52171469">
        <time>2026-08-20T11:39:05Z</time>
      </trkpt>
      <trkpt lat="60.12111417" lon="30.52171469">
        <time>2026-08-20T11:39:25Z</time>
      </trkpt>
      <trkpt lat="60.12111417" lon="30.52171469">
        <time>2026-08-20T11:39:32Z</time>
      </trkpt>
      <trkpt lat="60.12111417" lon="30.52171469">
        <time>2026-08-20T11:40:02Z</time>
      </trkpt>
      <trkpt lat="60.1210498" lon="30.52203655">
        <time>2026-08-20T11:40:25Z</time>
      </trkpt>
      <trkpt lat="60.12096397" lon="30.52218676">
        <time>2026-08-20T11:40:55Z</time>
      </trkpt>
      <trkpt lat="60.12094251" lon="30.52242279">
        <time>2026-08-20T11:41:25Z</time>
      </trkpt>
      <trkpt lat="60.12096397" lon="30.52268028">
        <time>2026-08-20T11:41:55Z</time>
      </trkpt>
      <trkpt lat="60.12100688" lon="30.52270174">
        <time>2026-08-20T11:42:25Z</time>
      </trkpt>
      <trkpt lat="60.12100688" lon="30.52268028">
        <time>2026-08-20T11:42:30Z</time>
      </trkpt>
      <trkpt lat="60.12094251" lon="30.5227232">
        <time>2026-08-20T11:43:00Z</time>
      </trkpt>
      <trkpt lat="60.12094251" lon="30.52278757">
        <time>2026-08-20T11:43:30Z</time>
      </trkpt>
      <trkpt lat="60.12100688" lon="30.52293777">
        <time>2026-08-20T11:44:00Z</time>
      </trkpt>
      <trkpt lat="60.12100688" lon="30.52298069">
        <time>2026-08-20T11:44:30Z</time>
      </trkpt>
      <trkpt lat="60.1210498" lon="30.52300215">
        <time>2026-08-20T11:45:00Z</time>
      </trkpt>
      <trkpt lat="60.1210498" lon="30.52300215">
        <time>2026-08-20T11:45:30Z</time>
      </trkpt>
      <trkpt lat="60.1210498" lon="30.52298069">
        <time>2026-08-20T11:46:00Z</time>
      </trkpt>
      <trkpt lat="60.1210498" lon="30.52298069">
        <time>2026-08-20T11:46:30Z</time>
      </trkpt>
      <trkpt lat="60.12102834" lon="30.52298069">
        <time>2026-08-20T11:47:00Z</time>
      </trkpt>
      <trkpt lat="60.12094251" lon="30.52302361">
        <time>2026-08-20T11:47:17Z</time>
      </trkpt>
      <trkpt lat="60.12089959" lon="30.52289486">
        <time>2026-08-20T11:47:25Z</time>
      </trkpt>
      <trkpt lat="60.12089959" lon="30.52278757">
        <time>2026-08-20T11:47:55Z</time>
      </trkpt>
      <trkpt lat="60.12098542" lon="30.52291632">
        <time>2026-08-20T11:48:25Z</time>
      </trkpt>
      <trkpt lat="60.12096397" lon="30.52308798">
        <time>2026-08-20T11:48:35Z</time>
      </trkpt>
      <trkpt lat="60.12098542" lon="30.52334547">
        <time>2026-08-20T11:48:47Z</time>
      </trkpt>
      <trkpt lat="60.12100688" lon="30.52340984">
        <time>2026-08-20T11:48:50Z</time>
      </trkpt>
      <trkpt lat="60.12113563" lon="30.52362442">
        <time>2026-08-20T11:49:20Z</time>
      </trkpt>
      <trkpt lat="60.12113563" lon="30.52362442">
        <time>2026-08-20T11:49:25Z</time>
      </trkpt>
      <trkpt lat="60.12113563" lon="30.52362442">
        <time>2026-08-20T11:49:50Z</time>
      </trkpt>
      <trkpt lat="60.12126437" lon="30.52364588">
        <time>2026-08-20T11:50:20Z</time>
      </trkpt>
      <trkpt lat="60.12126437" lon="30.52371025">
        <time>2026-08-20T11:50:50Z</time>
      </trkpt>
      <trkpt lat="60.12130729" lon="30.52375317">
        <time>2026-08-20T11:51:00Z</time>
      </trkpt>
      <trkpt lat="60.12128583" lon="30.52381754">
        <time>2026-08-20T11:51:07Z</time>
      </trkpt>
      <trkpt lat="60.12124292" lon="30.52381754">
        <time>2026-08-20T11:51:10Z</time>
      </trkpt>
      <trkpt lat="60.1212" lon="30.52381754">
        <time>2026-08-20T11:51:12Z</time>
      </trkpt>
      <trkpt lat="60.12115709" lon="30.52379608">
        <time>2026-08-20T11:51:15Z</time>
      </trkpt>
      <trkpt lat="60.12111417" lon="30.52375317">
        <time>2026-08-20T11:51:17Z</time>
      </trkpt>
      <trkpt lat="60.12111417" lon="30.52371025">
        <time>2026-08-20T11:51:20Z</time>
      </trkpt>
      <trkpt lat="60.12115709" lon="30.52364588">
        <time>2026-08-20T11:51:50Z</time>
      </trkpt>
      <trkpt lat="60.12115709" lon="30.52360296">
        <time>2026-08-20T11:52:12Z</time>
      </trkpt>
      <trkpt lat="60.12115709" lon="30.52360296">
        <time>2026-08-20T11:52:42Z</time>
      </trkpt>
      <trkpt lat="60.12115709" lon="30.52362442">
        <time>2026-08-20T11:53:12Z</time>
      </trkpt>
      <trkpt lat="60.12109271" lon="30.52356005">
        <time>2026-08-20T11:53:42Z</time>
      </trkpt>
      <trkpt lat="60.12100688" lon="30.52351713">
        <time>2026-08-20T11:54:02Z</time>
      </trkpt>
      <trkpt lat="60.12087814" lon="30.52353859">
        <time>2026-08-20T11:54:32Z</time>
      </trkpt>
      <trkpt lat="60.12087814" lon="30.52360296">
        <time>2026-08-20T11:54:40Z</time>
      </trkpt>
      <trkpt lat="60.12094251" lon="30.52386045">
        <time>2026-08-20T11:55:00Z</time>
      </trkpt>
      <trkpt lat="60.12098542" lon="30.52388191">
        <time>2026-08-20T11:55:02Z</time>
      </trkpt>
      <trkpt lat="60.12098542" lon="30.52392483">
        <time>2026-08-20T11:55:05Z</time>
      </trkpt>
      <trkpt lat="60.12098542" lon="30.52394629">
        <time>2026-08-20T11:55:07Z</time>
      </trkpt>
      <trkpt lat="60.12098542" lon="30.52396774">
        <time>2026-08-20T11:55:20Z</time>
      </trkpt>
      <trkpt lat="60.12098542" lon="30.52396774">
        <time>2026-08-20T11:55:22Z</time>
      </trkpt>
      <trkpt lat="60.12098542" lon="30.52403212">
        <time>2026-08-20T11:55:30Z</time>
      </trkpt>
      <trkpt lat="60.12098542" lon="30.52424669">
        <time>2026-08-20T11:55:42Z</time>
      </trkpt>
      <trkpt lat="60.12100688" lon="30.52431107">
        <time>2026-08-20T11:55:45Z</time>
      </trkpt>
      <trkpt lat="60.1210498" lon="30.52437544">
        <time>2026-08-20T11:55:47Z</time>
      </trkpt>
      <trkpt lat="60.12107125" lon="30.52446127">
        <time>2026-08-20T11:55:50Z</time>
      </trkpt>
      <trkpt lat="60.12111417" lon="30.52452564">
        <time>2026-08-20T11:55:52Z</time>
      </trkpt>
      <trkpt lat="60.12126437" lon="30.52480459">
        <time>2026-08-20T11:56:07Z</time>
      </trkpt>
      <trkpt lat="60.12126437" lon="30.52478313">
        <time>2026-08-20T11:56:17Z</time>
      </trkpt>
      <trkpt lat="60.12126437" lon="30.52478313">
        <time>2026-08-20T11:56:35Z</time>
      </trkpt>
      <trkpt lat="60.12128583" lon="30.52486897">
        <time>2026-08-20T11:56:40Z</time>
      </trkpt>
      <trkpt lat="60.12137166" lon="30.52504063">
        <time>2026-08-20T11:56:57Z</time>
      </trkpt>
      <trkpt lat="60.12139312" lon="30.52504063">
        <time>2026-08-20T11:57:00Z</time>
      </trkpt>
      <trkpt lat="60.12141458" lon="30.52499771">
        <time>2026-08-20T11:57:02Z</time>
      </trkpt>
      <trkpt lat="60.12141458" lon="30.52499771">
        <time>2026-08-20T11:57:15Z</time>
      </trkpt>
      <trkpt lat="60.12141458" lon="30.52497625">
        <time>2026-08-20T11:57:40Z</time>
      </trkpt>
      <trkpt lat="60.12132875" lon="30.52497625">
        <time>2026-08-20T11:58:17Z</time>
      </trkpt>
      <trkpt lat="60.12128583" lon="30.5249548">
        <time>2026-08-20T11:58:27Z</time>
      </trkpt>
      <trkpt lat="60.12126437" lon="30.52489042">
        <time>2026-08-20T11:58:30Z</time>
      </trkpt>
      <trkpt lat="60.12126437" lon="30.52484751">
        <time>2026-08-20T11:58:32Z</time>
      </trkpt>
      <trkpt lat="60.12126437" lon="30.52480459">
        <time>2026-08-20T11:58:35Z</time>
      </trkpt>
      <trkpt lat="60.12126437" lon="30.52476168">
        <time>2026-08-20T11:58:37Z</time>
      </trkpt>
      <trkpt lat="60.12128583" lon="30.52452564">
        <time>2026-08-20T11:58:55Z</time>
      </trkpt>
      <trkpt lat="60.12126437" lon="30.52426815">
        <time>2026-08-20T11:59:10Z</time>
      </trkpt>
      <trkpt lat="60.12122146" lon="30.5241394">
        <time>2026-08-20T11:59:12Z</time>
      </trkpt>
      <trkpt lat="60.12117854" lon="30.52403212">
        <time>2026-08-20T11:59:15Z</time>
      </trkpt>
      <trkpt lat="60.12113563" lon="30.52392483">
        <time>2026-08-20T11:59:17Z</time>
      </trkpt>
      <trkpt lat="60.12109271" lon="30.52394629">
        <time>2026-08-20T11:59:20Z</time>
      </trkpt>
      <trkpt lat="60.12107125" lon="30.52396774">
        <time>2026-08-20T11:59:22Z</time>
      </trkpt>
      <trkpt lat="60.1210498" lon="30.52394629">
        <time>2026-08-20T11:59:25Z</time>
      </trkpt>
      <trkpt lat="60.12102834" lon="30.52392483">
        <time>2026-08-20T11:59:27Z</time>
      </trkpt>
      <trkpt lat="60.12098542" lon="30.52390337">
        <time>2026-08-20T11:59:50Z</time>
      </trkpt>
      <trkpt lat="60.12094251" lon="30.52394629">
        <time>2026-08-20T11:59:52Z</time>
      </trkpt>
      <trkpt lat="60.12089959" lon="30.52396774">
        <time>2026-08-20T11:59:55Z</time>
      </trkpt>
      <trkpt lat="60.12085668" lon="30.52401066">
        <time>2026-08-20T11:59:57Z</time>
      </trkpt>
      <trkpt lat="60.12083522" lon="30.52405357">
        <time>2026-08-20T12:00:00Z</time>
      </trkpt>
      <trkpt lat="60.12074939" lon="30.52409649">
        <time>2026-08-20T12:00:15Z</time>
      </trkpt>
      <trkpt lat="60.12070647" lon="30.52411795">
        <time>2026-08-20T12:00:17Z</time>
      </trkpt>
      <trkpt lat="60.12066356" lon="30.52411795">
        <time>2026-08-20T12:00:20Z</time>
      </trkpt>
      <trkpt lat="60.12062064" lon="30.52411795">
        <time>2026-08-20T12:00:22Z</time>
      </trkpt>
      <trkpt lat="60.12062064" lon="30.52409649">
        <time>2026-08-20T12:00:52Z</time>
      </trkpt>
      <trkpt lat="60.1206421" lon="30.52405357">
        <time>2026-08-20T12:01:15Z</time>
      </trkpt>
      <trkpt lat="60.12062064" lon="30.52407503">
        <time>2026-08-20T12:01:45Z</time>
      </trkpt>
      <trkpt lat="60.1204919" lon="30.52411795">
        <time>2026-08-20T12:02:15Z</time>
      </trkpt>
      <trkpt lat="60.12044898" lon="30.52411795">
        <time>2026-08-20T12:02:20Z</time>
      </trkpt>
      <trkpt lat="60.12042752" lon="30.52411795">
        <time>2026-08-20T12:02:25Z</time>
      </trkpt>
      <trkpt lat="60.12034169" lon="30.52411795">
        <time>2026-08-20T12:02:42Z</time>
      </trkpt>
      <trkpt lat="60.12034169" lon="30.52411795">
        <time>2026-08-20T12:02:45Z</time>
      </trkpt>
      <trkpt lat="60.1204919" lon="30.52411795">
        <time>2026-08-20T12:02:50Z</time>
      </trkpt>
      <trkpt lat="60.12062064" lon="30.52411795">
        <time>2026-08-20T12:03:20Z</time>
      </trkpt>
      <trkpt lat="60.12051336" lon="30.52409649">
        <time>2026-08-20T12:03:45Z</time>
      </trkpt>
      <trkpt lat="60.12051336" lon="30.52409649">
        <time>2026-08-20T12:03:50Z</time>
      </trkpt>
      <trkpt lat="60.12059919" lon="30.52405357">
        <time>2026-08-20T12:03:52Z</time>
      </trkpt>
      <trkpt lat="60.1206421" lon="30.52401066">
        <time>2026-08-20T12:03:55Z</time>
      </trkpt>
      <trkpt lat="60.12066356" lon="30.52401066">
        <time>2026-08-20T12:04:00Z</time>
      </trkpt>
      <trkpt lat="60.12066356" lon="30.52394629">
        <time>2026-08-20T12:04:17Z</time>
      </trkpt>
      <trkpt lat="60.12066356" lon="30.52394629">
        <time>2026-08-20T12:04:22Z</time>
      </trkpt>
      <trkpt lat="60.12066356" lon="30.52390337">
        <time>2026-08-20T12:04:52Z</time>
      </trkpt>
      <trkpt lat="60.12066356" lon="30.52388191">
        <time>2026-08-20T12:05:00Z</time>
      </trkpt>
      <trkpt lat="60.12066356" lon="30.52386045">
        <time>2026-08-20T12:05:30Z</time>
      </trkpt>
      <trkpt lat="60.12068502" lon="30.52381754">
        <time>2026-08-20T12:06:00Z</time>
      </trkpt>
      <trkpt lat="60.12070647" lon="30.52373171">
        <time>2026-08-20T12:06:30Z</time>
      </trkpt>
      <trkpt lat="60.12074939" lon="30.52364588">
        <time>2026-08-20T12:07:00Z</time>
      </trkpt>
      <trkpt lat="60.12077085" lon="30.52349567">
        <time>2026-08-20T12:07:30Z</time>
      </trkpt>
      <trkpt lat="60.12079231" lon="30.52340984">
        <time>2026-08-20T12:08:00Z</time>
      </trkpt>
      <trkpt lat="60.12079231" lon="30.52334547">
        <time>2026-08-20T12:08:30Z</time>
      </trkpt>
      <trkpt lat="60.12072793" lon="30.5232811">
        <time>2026-08-20T12:09:00Z</time>
      </trkpt>
      <trkpt lat="60.12072793" lon="30.52334547">
        <time>2026-08-20T12:09:25Z</time>
      </trkpt>
      <trkpt lat="60.12068502" lon="30.52334547">
        <time>2026-08-20T12:09:55Z</time>
      </trkpt>
      <trkpt lat="60.12070647" lon="30.52334547">
        <time>2026-08-20T12:10:25Z</time>
      </trkpt>
      <trkpt lat="60.12059919" lon="30.52321672">
        <time>2026-08-20T12:10:55Z</time>
      </trkpt>
      <trkpt lat="60.12059919" lon="30.52323818">
        <time>2026-08-20T12:11:25Z</time>
      </trkpt>
      <trkpt lat="60.12057773" lon="30.52308798">
        <time>2026-08-20T12:11:55Z</time>
      </trkpt>
      <trkpt lat="60.12047044" lon="30.52291632">
        <time>2026-08-20T12:12:17Z</time>
      </trkpt>
      <trkpt lat="60.12044898" lon="30.52265882">
        <time>2026-08-20T12:12:47Z</time>
      </trkpt>
      <trkpt lat="60.12044898" lon="30.52265882">
        <time>2026-08-20T12:12:50Z</time>
      </trkpt>
      <trkpt lat="60.12044898" lon="30.52265882">
        <time>2026-08-20T12:12:55Z</time>
      </trkpt>
      <trkpt lat="60.12044898" lon="30.52268028">
        <time>2026-08-20T12:13:07Z</time>
      </trkpt>
      <trkpt lat="60.12044898" lon="30.52268028">
        <time>2026-08-20T12:13:10Z</time>
      </trkpt>
      <trkpt lat="60.12044898" lon="30.5227232">
        <time>2026-08-20T12:13:17Z</time>
      </trkpt>
      <trkpt lat="60.1204919" lon="30.5228734">
        <time>2026-08-20T12:13:27Z</time>
      </trkpt>
      <trkpt lat="60.1204919" lon="30.52285194">
        <time>2026-08-20T12:13:42Z</time>
      </trkpt>
      <trkpt lat="60.12051336" lon="30.52280903">
        <time>2026-08-20T12:13:45Z</time>
      </trkpt>
      <trkpt lat="60.12051336" lon="30.52274466">
        <time>2026-08-20T12:13:50Z</time>
      </trkpt>
      <trkpt lat="60.12055627" lon="30.52259445">
        <time>2026-08-20T12:14:20Z</time>
      </trkpt>
      <trkpt lat="60.12062064" lon="30.52248716">
        <time>2026-08-20T12:14:50Z</time>
      </trkpt>
      <trkpt lat="60.12062064" lon="30.52237988">
        <time>2026-08-20T12:15:12Z</time>
      </trkpt>
      <trkpt lat="60.12070647" lon="30.52229404">
        <time>2026-08-20T12:15:42Z</time>
      </trkpt>
      <trkpt lat="60.12068502" lon="30.52222967">
        <time>2026-08-20T12:16:12Z</time>
      </trkpt>
      <trkpt lat="60.12057773" lon="30.52207947">
        <time>2026-08-20T12:16:42Z</time>
      </trkpt>
      <trkpt lat="60.12057773" lon="30.52207947">
        <time>2026-08-20T12:16:45Z</time>
      </trkpt>
      <trkpt lat="60.12055627" lon="30.52201509">
        <time>2026-08-20T12:16:52Z</time>
      </trkpt>
      <trkpt lat="60.12047044" lon="30.52184343">
        <time>2026-08-20T12:17:12Z</time>
      </trkpt>
      <trkpt lat="60.12047044" lon="30.52184343">
        <time>2026-08-20T12:17:20Z</time>
      </trkpt>
      <trkpt lat="60.12047044" lon="30.52180052">
        <time>2026-08-20T12:17:22Z</time>
      </trkpt>
      <trkpt lat="60.12042752" lon="30.52167177">
        <time>2026-08-20T12:17:27Z</time>
      </trkpt>
      <trkpt lat="60.12038461" lon="30.5216074">
        <time>2026-08-20T12:17:40Z</time>
      </trkpt>
      <trkpt lat="60.12038461" lon="30.5216074">
        <time>2026-08-20T12:17:52Z</time>
      </trkpt>
      <trkpt lat="60.12038461" lon="30.5216074">
        <time>2026-08-20T12:17:55Z</time>
      </trkpt>
      <trkpt lat="60.12040607" lon="30.52165031">
        <time>2026-08-20T12:18:00Z</time>
      </trkpt>
      <trkpt lat="60.12047044" lon="30.52180052">
        <time>2026-08-20T12:18:10Z</time>
      </trkpt>
      <trkpt lat="60.12051336" lon="30.52190781">
        <time>2026-08-20T12:18:12Z</time>
      </trkpt>
      <trkpt lat="60.12055627" lon="30.52201509">
        <time>2026-08-20T12:18:15Z</time>
      </trkpt>
      <trkpt lat="60.1206421" lon="30.52214384">
        <time>2026-08-20T12:18:20Z</time>
      </trkpt>
      <trkpt lat="60.12068502" lon="30.52222967">
        <time>2026-08-20T12:18:22Z</time>
      </trkpt>
      <trkpt lat="60.12072793" lon="30.52227259">
        <time>2026-08-20T12:18:25Z</time>
      </trkpt>
      <trkpt lat="60.12072793" lon="30.52220821">
        <time>2026-08-20T12:18:52Z</time>
      </trkpt>
      <trkpt lat="60.12074939" lon="30.52210093">
        <time>2026-08-20T12:18:57Z</time>
      </trkpt>
      <trkpt lat="60.12070647" lon="30.52192926">
        <time>2026-08-20T12:19:15Z</time>
      </trkpt>
      <trkpt lat="60.1206421" lon="30.52169323">
        <time>2026-08-20T12:19:35Z</time>
      </trkpt>
      <trkpt lat="60.12062064" lon="30.52156448">
        <time>2026-08-20T12:19:47Z</time>
      </trkpt>
      <trkpt lat="60.12055627" lon="30.52152157">
        <time>2026-08-20T12:19:52Z</time>
      </trkpt>
      <trkpt lat="60.12051336" lon="30.52147865">
        <time>2026-08-20T12:19:55Z</time>
      </trkpt>
      <trkpt lat="60.12047044" lon="30.52147865">
        <time>2026-08-20T12:19:57Z</time>
      </trkpt>
      <trkpt lat="60.12044898" lon="30.5214572">
        <time>2026-08-20T12:20:00Z</time>
      </trkpt>
      <trkpt lat="60.12042752" lon="30.52147865">
        <time>2026-08-20T12:20:02Z</time>
      </trkpt>
      <trkpt lat="60.12040607" lon="30.52147865">
        <time>2026-08-20T12:20:17Z</time>
      </trkpt>
      <trkpt lat="60.12040607" lon="30.52147865">
        <time>2026-08-20T12:20:20Z</time>
      </trkpt>
      <trkpt lat="60.12040607" lon="30.52147865">
        <time>2026-08-20T12:20:35Z</time>
      </trkpt>
      <trkpt lat="60.12038461" lon="30.52150011">
        <time>2026-08-20T12:20:40Z</time>
      </trkpt>
      <trkpt lat="60.12032024" lon="30.52154303">
        <time>2026-08-20T12:20:50Z</time>
      </trkpt>
      <trkpt lat="60.12032024" lon="30.52154303">
        <time>2026-08-20T12:20:52Z</time>
      </trkpt>
      <trkpt lat="60.12027732" lon="30.52156448">
        <time>2026-08-20T12:20:55Z</time>
      </trkpt>
      <trkpt lat="60.12017003" lon="30.52171469">
        <time>2026-08-20T12:21:12Z</time>
      </trkpt>
      <trkpt lat="60.12017003" lon="30.52171469">
        <time>2026-08-20T12:21:17Z</time>
      </trkpt>
      <trkpt lat="60.12019149" lon="30.52171469">
        <time>2026-08-20T12:21:20Z</time>
      </trkpt>
      <trkpt lat="60.12023441" lon="30.52177906">
        <time>2026-08-20T12:21:22Z</time>
      </trkpt>
      <trkpt lat="60.12025586" lon="30.52182198">
        <time>2026-08-20T12:21:25Z</time>
      </trkpt>
      <trkpt lat="60.12029878" lon="30.52184343">
        <time>2026-08-20T12:21:27Z</time>
      </trkpt>
      <trkpt lat="60.12029878" lon="30.52192926">
        <time>2026-08-20T12:21:57Z</time>
      </trkpt>
      <trkpt lat="60.12029878" lon="30.52192926">
        <time>2026-08-20T12:22:02Z</time>
      </trkpt>
      <trkpt lat="60.12032024" lon="30.52192926">
        <time>2026-08-20T12:22:32Z</time>
      </trkpt>
      <trkpt lat="60.12029878" lon="30.52192926">
        <time>2026-08-20T12:23:02Z</time>
      </trkpt>
      <trkpt lat="60.12032024" lon="30.52205801">
        <time>2026-08-20T12:23:32Z</time>
      </trkpt>
      <trkpt lat="60.12036315" lon="30.52220821">
        <time>2026-08-20T12:23:52Z</time>
      </trkpt>
      <trkpt lat="60.12036315" lon="30.52222967">
        <time>2026-08-20T12:24:05Z</time>
      </trkpt>
      <trkpt lat="60.12036315" lon="30.52222967">
        <time>2026-08-20T12:24:07Z</time>
      </trkpt>
      <trkpt lat="60.12032024" lon="30.52222967">
        <time>2026-08-20T12:24:10Z</time>
      </trkpt>
      <trkpt lat="60.12029878" lon="30.5221653">
        <time>2026-08-20T12:24:12Z</time>
      </trkpt>
      <trkpt lat="60.12025586" lon="30.52214384">
        <time>2026-08-20T12:24:15Z</time>
      </trkpt>
      <trkpt lat="60.12023441" lon="30.52210093">
        <time>2026-08-20T12:24:20Z</time>
      </trkpt>
      <trkpt lat="60.12021295" lon="30.52205801">
        <time>2026-08-20T12:24:22Z</time>
      </trkpt>
      <trkpt lat="60.12019149" lon="30.52201509">
        <time>2026-08-20T12:24:25Z</time>
      </trkpt>
      <trkpt lat="60.12017003" lon="30.52199364">
        <time>2026-08-20T12:24:27Z</time>
      </trkpt>
      <trkpt lat="60.12012712" lon="30.52192926">
        <time>2026-08-20T12:24:32Z</time>
      </trkpt>
      <trkpt lat="60.12006274" lon="30.52192926">
        <time>2026-08-20T12:24:37Z</time>
      </trkpt>
      <trkpt lat="60.12001983" lon="30.52192926">
        <time>2026-08-20T12:24:40Z</time>
      </trkpt>
      <trkpt lat="60.11999837" lon="30.52197218">
        <time>2026-08-20T12:24:42Z</time>
      </trkpt>
      <trkpt lat="60.11997691" lon="30.52197218">
        <time>2026-08-20T12:24:55Z</time>
      </trkpt>
      <trkpt lat="60.119934" lon="30.52203655">
        <time>2026-08-20T12:24:57Z</time>
      </trkpt>
      <trkpt lat="60.11989108" lon="30.52207947">
        <time>2026-08-20T12:25:00Z</time>
      </trkpt>
      <trkpt lat="60.11986963" lon="30.52205801">
        <time>2026-08-20T12:25:02Z</time>
      </trkpt>
      <trkpt lat="60.11980525" lon="30.52201509">
        <time>2026-08-20T12:25:05Z</time>
      </trkpt>
      <trkpt lat="60.11978379" lon="30.52197218">
        <time>2026-08-20T12:25:07Z</time>
      </trkpt>
      <trkpt lat="60.11976234" lon="30.52195072">
        <time>2026-08-20T12:25:10Z</time>
      </trkpt>
      <trkpt lat="60.11965505" lon="30.52192926">
        <time>2026-08-20T12:25:27Z</time>
      </trkpt>
      <trkpt lat="60.11967651" lon="30.52188635">
        <time>2026-08-20T12:25:50Z</time>
      </trkpt>
      <trkpt lat="60.11976234" lon="30.52195072">
        <time>2026-08-20T12:25:57Z</time>
      </trkpt>
      <trkpt lat="60.11978379" lon="30.52199364">
        <time>2026-08-20T12:26:00Z</time>
      </trkpt>
      <trkpt lat="60.11982671" lon="30.52201509">
        <time>2026-08-20T12:26:02Z</time>
      </trkpt>
      <trkpt lat="60.11986963" lon="30.52205801">
        <time>2026-08-20T12:26:05Z</time>
      </trkpt>
      <trkpt lat="60.11991254" lon="30.52205801">
        <time>2026-08-20T12:26:15Z</time>
      </trkpt>
      <trkpt lat="60.11995546" lon="30.52203655">
        <time>2026-08-20T12:26:17Z</time>
      </trkpt>
      <trkpt lat="60.11999837" lon="30.52197218">
        <time>2026-08-20T12:26:20Z</time>
      </trkpt>
      <trkpt lat="60.12004129" lon="30.52192926">
        <time>2026-08-20T12:26:22Z</time>
      </trkpt>
      <trkpt lat="60.12010566" lon="30.52184343">
        <time>2026-08-20T12:26:25Z</time>
      </trkpt>
      <trkpt lat="60.12014857" lon="30.52182198">
        <time>2026-08-20T12:26:27Z</time>
      </trkpt>
      <trkpt lat="60.12021295" lon="30.52188635">
        <time>2026-08-20T12:26:30Z</time>
      </trkpt>
      <trkpt lat="60.12027732" lon="30.52197218">
        <time>2026-08-20T12:26:32Z</time>
      </trkpt>
      <trkpt lat="60.12032024" lon="30.52207947">
        <time>2026-08-20T12:26:35Z</time>
      </trkpt>
      <trkpt lat="60.12034169" lon="30.52218676">
        <time>2026-08-20T12:26:37Z</time>
      </trkpt>
      <trkpt lat="60.12032024" lon="30.52218676">
        <time>2026-08-20T12:26:40Z</time>
      </trkpt>
      <trkpt lat="60.12029878" lon="30.52220821">
        <time>2026-08-20T12:27:10Z</time>
      </trkpt>
      <trkpt lat="60.12029878" lon="30.52218676">
        <time>2026-08-20T12:27:32Z</time>
      </trkpt>
      <trkpt lat="60.12029878" lon="30.52218676">
        <time>2026-08-20T12:28:02Z</time>
      </trkpt>
      <trkpt lat="60.12032024" lon="30.52218676">
        <time>2026-08-20T12:28:32Z</time>
      </trkpt>
      <trkpt lat="60.12032024" lon="30.52218676">
        <time>2026-08-20T12:29:02Z</time>
      </trkpt>
      <trkpt lat="60.12032024" lon="30.52218676">
        <time>2026-08-20T12:29:32Z</time>
      </trkpt>
      <trkpt lat="60.12032024" lon="30.5221653">
        <time>2026-08-20T12:30:02Z</time>
      </trkpt>
      <trkpt lat="60.12038461" lon="30.52227259">
        <time>2026-08-20T12:30:32Z</time>
      </trkpt>
      <trkpt lat="60.12032024" lon="30.52250862">
        <time>2026-08-20T12:30:47Z</time>
      </trkpt>
      <trkpt lat="60.12019149" lon="30.52270174">
        <time>2026-08-20T12:31:17Z</time>
      </trkpt>
      <trkpt lat="60.1200842" lon="30.52278757">
        <time>2026-08-20T12:31:37Z</time>
      </trkpt>
      <trkpt lat="60.1200842" lon="30.52302361">
        <time>2026-08-20T12:32:07Z</time>
      </trkpt>
      <trkpt lat="60.12012712" lon="30.52315235">
        <time>2026-08-20T12:32:15Z</time>
      </trkpt>
      <trkpt lat="60.1200842" lon="30.5232811">
        <time>2026-08-20T12:32:20Z</time>
      </trkpt>
      <trkpt lat="60.1200842" lon="30.52334547">
        <time>2026-08-20T12:32:22Z</time>
      </trkpt>
      <trkpt lat="60.1200842" lon="30.52340984">
        <time>2026-08-20T12:32:40Z</time>
      </trkpt>
      <trkpt lat="60.1200842" lon="30.52340984">
        <time>2026-08-20T12:32:42Z</time>
      </trkpt>
      <trkpt lat="60.1200842" lon="30.52345276">
        <time>2026-08-20T12:33:07Z</time>
      </trkpt>
      <trkpt lat="60.1200842" lon="30.52345276">
        <time>2026-08-20T12:33:15Z</time>
      </trkpt>
      <trkpt lat="60.1200842" lon="30.52345276">
        <time>2026-08-20T12:33:17Z</time>
      </trkpt>
      <trkpt lat="60.12010566" lon="30.52356005">
        <time>2026-08-20T12:33:47Z</time>
      </trkpt>
      <trkpt lat="60.12010566" lon="30.52356005">
        <time>2026-08-20T12:34:17Z</time>
      </trkpt>
      <trkpt lat="60.12010566" lon="30.52353859">
        <time>2026-08-20T12:34:47Z</time>
      </trkpt>
      <trkpt lat="60.12012712" lon="30.52351713">
        <time>2026-08-20T12:35:17Z</time>
      </trkpt>
      <trkpt lat="60.12014857" lon="30.52338839">
        <time>2026-08-20T12:35:22Z</time>
      </trkpt>
      <trkpt lat="60.12014857" lon="30.52325964">
        <time>2026-08-20T12:35:25Z</time>
      </trkpt>
      <trkpt lat="60.12014857" lon="30.52317381">
        <time>2026-08-20T12:35:27Z</time>
      </trkpt>
      <trkpt lat="60.12014857" lon="30.52315235">
        <time>2026-08-20T12:35:50Z</time>
      </trkpt>
      <trkpt lat="60.12014857" lon="30.52315235">
        <time>2026-08-20T12:35:52Z</time>
      </trkpt>
      <trkpt lat="60.12017003" lon="30.52308798">
        <time>2026-08-20T12:35:55Z</time>
      </trkpt>
      <trkpt lat="60.12017003" lon="30.52300215">
        <time>2026-08-20T12:35:57Z</time>
      </trkpt>
      <trkpt lat="60.12019149" lon="30.52291632">
        <time>2026-08-20T12:36:00Z</time>
      </trkpt>
      <trkpt lat="60.12019149" lon="30.52283049">
        <time>2026-08-20T12:36:02Z</time>
      </trkpt>
      <trkpt lat="60.12021295" lon="30.52276611">
        <time>2026-08-20T12:36:05Z</time>
      </trkpt>
      <trkpt lat="60.12023441" lon="30.52274466">
        <time>2026-08-20T12:36:07Z</time>
      </trkpt>
      <trkpt lat="60.12025586" lon="30.5227232">
        <time>2026-08-20T12:36:10Z</time>
      </trkpt>
      <trkpt lat="60.12032024" lon="30.52265882">
        <time>2026-08-20T12:36:25Z</time>
      </trkpt>
      <trkpt lat="60.12034169" lon="30.52270174">
        <time>2026-08-20T12:36:55Z</time>
      </trkpt>
      <trkpt lat="60.12029878" lon="30.52283049">
        <time>2026-08-20T12:37:05Z</time>
      </trkpt>
      <trkpt lat="60.12025586" lon="30.52300215">
        <time>2026-08-20T12:37:12Z</time>
      </trkpt>
      <trkpt lat="60.12012712" lon="30.52315235">
        <time>2026-08-20T12:37:42Z</time>
      </trkpt>
      <trkpt lat="60.12012712" lon="30.52315235">
        <time>2026-08-20T12:37:47Z</time>
      </trkpt>
      <trkpt lat="60.12012712" lon="30.52315235">
        <time>2026-08-20T12:37:57Z</time>
      </trkpt>
      <trkpt lat="60.12014857" lon="30.52319527">
        <time>2026-08-20T12:38:00Z</time>
      </trkpt>
      <trkpt lat="60.12014857" lon="30.5232811">
        <time>2026-08-20T12:38:02Z</time>
      </trkpt>
      <trkpt lat="60.12017003" lon="30.52338839">
        <time>2026-08-20T12:38:05Z</time>
      </trkpt>
      <trkpt lat="60.12017003" lon="30.52340984">
        <time>2026-08-20T12:38:17Z</time>
      </trkpt>
      <trkpt lat="60.12017003" lon="30.52340984">
        <time>2026-08-20T12:38:35Z</time>
      </trkpt>
      <trkpt lat="60.12017003" lon="30.52338839">
        <time>2026-08-20T12:38:37Z</time>
      </trkpt>
      <trkpt lat="60.12019149" lon="30.52332401">
        <time>2026-08-20T12:38:40Z</time>
      </trkpt>
      <trkpt lat="60.12023441" lon="30.52325964">
        <time>2026-08-20T12:38:42Z</time>
      </trkpt>
      <trkpt lat="60.12029878" lon="30.52317381">
        <time>2026-08-20T12:38:50Z</time>
      </trkpt>
      <trkpt lat="60.12032024" lon="30.52310944">
        <time>2026-08-20T12:38:52Z</time>
      </trkpt>
      <trkpt lat="60.12029878" lon="30.52315235">
        <time>2026-08-20T12:39:05Z</time>
      </trkpt>
      <trkpt lat="60.12029878" lon="30.52321672">
        <time>2026-08-20T12:39:07Z</time>
      </trkpt>
      <trkpt lat="60.12032024" lon="30.5232811">
        <time>2026-08-20T12:39:10Z</time>
      </trkpt>
      <trkpt lat="60.12032024" lon="30.52334547">
        <time>2026-08-20T12:39:12Z</time>
      </trkpt>
      <trkpt lat="60.12032024" lon="30.52338839">
        <time>2026-08-20T12:39:15Z</time>
      </trkpt>
      <trkpt lat="60.12036315" lon="30.52360296">
        <time>2026-08-20T12:39:37Z</time>
      </trkpt>
      <trkpt lat="60.12038461" lon="30.52371025">
        <time>2026-08-20T12:40:07Z</time>
      </trkpt>
      <trkpt lat="60.12038461" lon="30.52371025">
        <time>2026-08-20T12:40:15Z</time>
      </trkpt>
      <trkpt lat="60.12038461" lon="30.52371025">
        <time>2026-08-20T12:40:17Z</time>
      </trkpt>
      <trkpt lat="60.12040607" lon="30.52364588">
        <time>2026-08-20T12:40:30Z</time>
      </trkpt>
      <trkpt lat="60.12040607" lon="30.52356005">
        <time>2026-08-20T12:41:00Z</time>
      </trkpt>
      <trkpt lat="60.12040607" lon="30.52353859">
        <time>2026-08-20T12:41:30Z</time>
      </trkpt>
      <trkpt lat="60.12040607" lon="30.5235815">
        <time>2026-08-20T12:41:55Z</time>
      </trkpt>
      <trkpt lat="60.12040607" lon="30.52371025">
        <time>2026-08-20T12:42:57Z</time>
      </trkpt>
      <trkpt lat="60.12040607" lon="30.52371025">
        <time>2026-08-20T12:43:27Z</time>
      </trkpt>
      <trkpt lat="60.12038461" lon="30.52373171">
        <time>2026-08-20T12:43:57Z</time>
      </trkpt>
      <trkpt lat="60.12040607" lon="30.52386045">
        <time>2026-08-20T12:44:15Z</time>
      </trkpt>
      <trkpt lat="60.12042752" lon="30.52405357">
        <time>2026-08-20T12:44:25Z</time>
      </trkpt>
      <trkpt lat="60.12032024" lon="30.52403212">
        <time>2026-08-20T12:44:50Z</time>
      </trkpt>
      <trkpt lat="60.12027732" lon="30.52401066">
        <time>2026-08-20T12:44:52Z</time>
      </trkpt>
      <trkpt lat="60.12025586" lon="30.52396774">
        <time>2026-08-20T12:45:00Z</time>
      </trkpt>
      <trkpt lat="60.12017003" lon="30.52388191">
        <time>2026-08-20T12:45:15Z</time>
      </trkpt>
      <trkpt lat="60.12012712" lon="30.52388191">
        <time>2026-08-20T12:45:17Z</time>
      </trkpt>
      <trkpt lat="60.11991254" lon="30.523839">
        <time>2026-08-20T12:45:27Z</time>
      </trkpt>
      <trkpt lat="60.11984817" lon="30.52386045">
        <time>2026-08-20T12:45:57Z</time>
      </trkpt>
      <trkpt lat="60.11963359" lon="30.52394629">
        <time>2026-08-20T12:46:15Z</time>
      </trkpt>
      <trkpt lat="60.11963359" lon="30.52392483">
        <time>2026-08-20T12:46:40Z</time>
      </trkpt>
      <trkpt lat="60.11995546" lon="30.52388191">
        <time>2026-08-20T12:46:45Z</time>
      </trkpt>
      <trkpt lat="60.12014857" lon="30.52388191">
        <time>2026-08-20T12:46:47Z</time>
      </trkpt>
      <trkpt lat="60.12023441" lon="30.5239892">
        <time>2026-08-20T12:46:50Z</time>
      </trkpt>
      <trkpt lat="60.12025586" lon="30.5239892">
        <time>2026-08-20T12:47:02Z</time>
      </trkpt>
      <trkpt lat="60.12025586" lon="30.5239892">
        <time>2026-08-20T12:47:05Z</time>
      </trkpt>
      <trkpt lat="60.12027732" lon="30.5239892">
        <time>2026-08-20T12:47:17Z</time>
      </trkpt>
      <trkpt lat="60.12019149" lon="30.52388191">
        <time>2026-08-20T12:47:20Z</time>
      </trkpt>
      <trkpt lat="60.12017003" lon="30.52388191">
        <time>2026-08-20T12:47:32Z</time>
      </trkpt>
      <trkpt lat="60.12017003" lon="30.52388191">
        <time>2026-08-20T12:47:45Z</time>
      </trkpt>
      <trkpt lat="60.12017003" lon="30.52388191">
        <time>2026-08-20T12:47:50Z</time>
      </trkpt>
      <trkpt lat="60.12017003" lon="30.52388191">
        <time>2026-08-20T12:48:20Z</time>
      </trkpt>
      <trkpt lat="60.12019149" lon="30.52381754">
        <time>2026-08-20T12:48:37Z</time>
      </trkpt>
      <trkpt lat="60.12023441" lon="30.52368879">
        <time>2026-08-20T12:48:40Z</time>
      </trkpt>
      <trkpt lat="60.12021295" lon="30.52360296">
        <time>2026-08-20T12:48:42Z</time>
      </trkpt>
      <trkpt lat="60.12021295" lon="30.5235815">
        <time>2026-08-20T12:48:50Z</time>
      </trkpt>
      <trkpt lat="60.12021295" lon="30.52353859">
        <time>2026-08-20T12:49:02Z</time>
      </trkpt>
      <trkpt lat="60.12012712" lon="30.52347422">
        <time>2026-08-20T12:49:12Z</time>
      </trkpt>
      <trkpt lat="60.12012712" lon="30.5234313">
        <time>2026-08-20T12:49:30Z</time>
      </trkpt>
      <trkpt lat="60.12010566" lon="30.5232811">
        <time>2026-08-20T12:49:35Z</time>
      </trkpt>
      <trkpt lat="60.12010566" lon="30.52323818">
        <time>2026-08-20T12:49:37Z</time>
      </trkpt>
      <trkpt lat="60.12006274" lon="30.52295923">
        <time>2026-08-20T12:50:00Z</time>
      </trkpt>
      <trkpt lat="60.12004129" lon="30.52291632">
        <time>2026-08-20T12:50:02Z</time>
      </trkpt>
      <trkpt lat="60.11997691" lon="30.52280903">
        <time>2026-08-20T12:50:12Z</time>
      </trkpt>
      <trkpt lat="60.11997691" lon="30.5227232">
        <time>2026-08-20T12:50:15Z</time>
      </trkpt>
      <trkpt lat="60.11995546" lon="30.52265882">
        <time>2026-08-20T12:50:17Z</time>
      </trkpt>
      <trkpt lat="60.11991254" lon="30.52257299">
        <time>2026-08-20T12:50:47Z</time>
      </trkpt>
      <trkpt lat="60.119934" lon="30.52250862">
        <time>2026-08-20T12:50:50Z</time>
      </trkpt>
      <trkpt lat="60.11991254" lon="30.52225113">
        <time>2026-08-20T12:51:10Z</time>
      </trkpt>
      <trkpt lat="60.11991254" lon="30.52225113">
        <time>2026-08-20T12:51:15Z</time>
      </trkpt>
      <trkpt lat="60.11991254" lon="30.52227259">
        <time>2026-08-20T12:51:22Z</time>
      </trkpt>
      <trkpt lat="60.119934" lon="30.52235842">
        <time>2026-08-20T12:51:25Z</time>
      </trkpt>
      <trkpt lat="60.11995546" lon="30.52244425">
        <time>2026-08-20T12:51:27Z</time>
      </trkpt>
      <trkpt lat="60.11997691" lon="30.52246571">
        <time>2026-08-20T12:51:30Z</time>
      </trkpt>
      <trkpt lat="60.11999837" lon="30.52253008">
        <time>2026-08-20T12:51:32Z</time>
      </trkpt>
      <trkpt lat="60.12001983" lon="30.52250862">
        <time>2026-08-20T12:51:35Z</time>
      </trkpt>
      <trkpt lat="60.12004129" lon="30.52246571">
        <time>2026-08-20T12:51:37Z</time>
      </trkpt>
      <trkpt lat="60.12012712" lon="30.52248716">
        <time>2026-08-20T12:51:47Z</time>
      </trkpt>
      <trkpt lat="60.12014857" lon="30.52246571">
        <time>2026-08-20T12:52:17Z</time>
      </trkpt>
      <trkpt lat="60.12014857" lon="30.52248716">
        <time>2026-08-20T12:52:32Z</time>
      </trkpt>
      <trkpt lat="60.12014857" lon="30.52250862">
        <time>2026-08-20T12:52:35Z</time>
      </trkpt>
      <trkpt lat="60.12014857" lon="30.52242279">
        <time>2026-08-20T12:53:05Z</time>
      </trkpt>
      <trkpt lat="60.12019149" lon="30.52227259">
        <time>2026-08-20T12:53:25Z</time>
      </trkpt>
      <trkpt lat="60.12019149" lon="30.52220821">
        <time>2026-08-20T12:53:27Z</time>
      </trkpt>
      <trkpt lat="60.12023441" lon="30.5221653">
        <time>2026-08-20T12:53:32Z</time>
      </trkpt>
      <trkpt lat="60.12027732" lon="30.52212238">
        <time>2026-08-20T12:54:02Z</time>
      </trkpt>
      <trkpt lat="60.12027732" lon="30.52197218">
        <time>2026-08-20T12:54:17Z</time>
      </trkpt>
      <trkpt lat="60.12025586" lon="30.52188635">
        <time>2026-08-20T12:54:20Z</time>
      </trkpt>
      <trkpt lat="60.12023441" lon="30.52173615">
        <time>2026-08-20T12:54:50Z</time>
      </trkpt>
      <trkpt lat="60.12021295" lon="30.52177906">
        <time>2026-08-20T12:55:15Z</time>
      </trkpt>
      <trkpt lat="60.12019149" lon="30.52182198">
        <time>2026-08-20T12:55:17Z</time>
      </trkpt>
      <trkpt lat="60.12019149" lon="30.52186489">
        <time>2026-08-20T12:55:47Z</time>
      </trkpt>
      <trkpt lat="60.12019149" lon="30.52177906">
        <time>2026-08-20T12:56:10Z</time>
      </trkpt>
      <trkpt lat="60.12019149" lon="30.52169323">
        <time>2026-08-20T12:56:12Z</time>
      </trkpt>
      <trkpt lat="60.12019149" lon="30.52158594">
        <time>2026-08-20T12:56:15Z</time>
      </trkpt>
      <trkpt lat="60.12017003" lon="30.52150011">
        <time>2026-08-20T12:56:17Z</time>
      </trkpt>
      <trkpt lat="60.12014857" lon="30.5214572">
        <time>2026-08-20T12:56:20Z</time>
      </trkpt>
      <trkpt lat="60.12012712" lon="30.52141428">
        <time>2026-08-20T12:56:22Z</time>
      </trkpt>
      <trkpt lat="60.12010566" lon="30.52139282">
        <time>2026-08-20T12:56:25Z</time>
      </trkpt>
      <trkpt lat="60.12010566" lon="30.52141428">
        <time>2026-08-20T12:56:47Z</time>
      </trkpt>
      <trkpt lat="60.12010566" lon="30.52141428">
        <time>2026-08-20T12:56:52Z</time>
      </trkpt>
      <trkpt lat="60.1200842" lon="30.52132845">
        <time>2026-08-20T12:57:02Z</time>
      </trkpt>
      <trkpt lat="60.12001983" lon="30.52122116">
        <time>2026-08-20T12:57:17Z</time>
      </trkpt>
      <trkpt lat="60.12001983" lon="30.52122116">
        <time>2026-08-20T12:57:20Z</time>
      </trkpt>
      <trkpt lat="60.12004129" lon="30.52126408">
        <time>2026-08-20T12:57:25Z</time>
      </trkpt>
      <trkpt lat="60.12004129" lon="30.52134991">
        <time>2026-08-20T12:57:55Z</time>
      </trkpt>
      <trkpt lat="60.12001983" lon="30.52141428">
        <time>2026-08-20T12:58:25Z</time>
      </trkpt>
      <trkpt lat="60.11999837" lon="30.52143574">
        <time>2026-08-20T12:58:55Z</time>
      </trkpt>
      <trkpt lat="60.12001983" lon="30.52147865">
        <time>2026-08-20T12:59:25Z</time>
      </trkpt>
      <trkpt lat="60.11997691" lon="30.52171469">
        <time>2026-08-20T12:59:40Z</time>
      </trkpt>
      <trkpt lat="60.11997691" lon="30.52173615">
        <time>2026-08-20T12:59:52Z</time>
      </trkpt>
      <trkpt lat="60.11999837" lon="30.52173615">
        <time>2026-08-20T13:00:20Z</time>
      </trkpt>
      <trkpt lat="60.12001983" lon="30.52177906">
        <time>2026-08-20T13:00:40Z</time>
      </trkpt>
      <trkpt lat="60.12004129" lon="30.52201509">
        <time>2026-08-20T13:01:10Z</time>
      </trkpt>
      <trkpt lat="60.12004129" lon="30.52203655">
        <time>2026-08-20T13:01:12Z</time>
      </trkpt>
      <trkpt lat="60.11997691" lon="30.5223155">
        <time>2026-08-20T13:01:42Z</time>
      </trkpt>
      <trkpt lat="60.11995546" lon="30.52244425">
        <time>2026-08-20T13:02:05Z</time>
      </trkpt>
      <trkpt lat="60.119934" lon="30.52248716">
        <time>2026-08-20T13:02:07Z</time>
      </trkpt>
      <trkpt lat="60.11989108" lon="30.52253008">
        <time>2026-08-20T13:02:10Z</time>
      </trkpt>
      <trkpt lat="60.11986963" lon="30.52263737">
        <time>2026-08-20T13:02:15Z</time>
      </trkpt>
      <trkpt lat="60.11984817" lon="30.52265882">
        <time>2026-08-20T13:02:17Z</time>
      </trkpt>
      <trkpt lat="60.11982671" lon="30.5227232">
        <time>2026-08-20T13:02:20Z</time>
      </trkpt>
      <trkpt lat="60.11980525" lon="30.52278757">
        <time>2026-08-20T13:02:22Z</time>
      </trkpt>
      <trkpt lat="60.11980525" lon="30.52283049">
        <time>2026-08-20T13:02:25Z</time>
      </trkpt>
      <trkpt lat="60.11982671" lon="30.5228734">
        <time>2026-08-20T13:02:27Z</time>
      </trkpt>
      <trkpt lat="60.11980525" lon="30.52293777">
        <time>2026-08-20T13:02:52Z</time>
      </trkpt>
      <trkpt lat="60.11980525" lon="30.52293777">
        <time>2026-08-20T13:03:02Z</time>
      </trkpt>
      <trkpt lat="60.11978379" lon="30.52289486">
        <time>2026-08-20T13:03:07Z</time>
      </trkpt>
      <trkpt lat="60.11976234" lon="30.52280903">
        <time>2026-08-20T13:03:10Z</time>
      </trkpt>
      <trkpt lat="60.11976234" lon="30.52270174">
        <time>2026-08-20T13:03:12Z</time>
      </trkpt>
      <trkpt lat="60.11971942" lon="30.52268028">
        <time>2026-08-20T13:03:15Z</time>
      </trkpt>
      <trkpt lat="60.11967651" lon="30.5227232">
        <time>2026-08-20T13:03:20Z</time>
      </trkpt>
      <trkpt lat="60.11963359" lon="30.52274466">
        <time>2026-08-20T13:03:22Z</time>
      </trkpt>
      <trkpt lat="60.11954776" lon="30.5227232">
        <time>2026-08-20T13:03:30Z</time>
      </trkpt>
      <trkpt lat="60.11950484" lon="30.52276611">
        <time>2026-08-20T13:03:52Z</time>
      </trkpt>
      <trkpt lat="60.11950484" lon="30.52276611">
        <time>2026-08-20T13:04:22Z</time>
      </trkpt>
      <trkpt lat="60.11950484" lon="30.52276611">
        <time>2026-08-20T13:04:25Z</time>
      </trkpt>
      <trkpt lat="60.11950484" lon="30.52274466">
        <time>2026-08-20T13:04:50Z</time>
      </trkpt>
      <trkpt lat="60.11954776" lon="30.52270174">
        <time>2026-08-20T13:04:52Z</time>
      </trkpt>
      <trkpt lat="60.11956922" lon="30.52270174">
        <time>2026-08-20T13:04:55Z</time>
      </trkpt>
      <trkpt lat="60.11959068" lon="30.52265882">
        <time>2026-08-20T13:04:57Z</time>
      </trkpt>
      <trkpt lat="60.11961213" lon="30.52261591">
        <time>2026-08-20T13:05:00Z</time>
      </trkpt>
      <trkpt lat="60.11965505" lon="30.52250862">
        <time>2026-08-20T13:05:15Z</time>
      </trkpt>
      <trkpt lat="60.11967651" lon="30.52244425">
        <time>2026-08-20T13:05:45Z</time>
      </trkpt>
      <trkpt lat="60.11969796" lon="30.52242279">
        <time>2026-08-20T13:06:02Z</time>
      </trkpt>
      <trkpt lat="60.11971942" lon="30.5223155">
        <time>2026-08-20T13:06:15Z</time>
      </trkpt>
      <trkpt lat="60.11976234" lon="30.52218676">
        <time>2026-08-20T13:06:30Z</time>
      </trkpt>
      <trkpt lat="60.11969796" lon="30.52212238">
        <time>2026-08-20T13:06:45Z</time>
      </trkpt>
      <trkpt lat="60.11971942" lon="30.52201509">
        <time>2026-08-20T13:07:15Z</time>
      </trkpt>
      <trkpt lat="60.11971942" lon="30.52201509">
        <time>2026-08-20T13:07:30Z</time>
      </trkpt>
      <trkpt lat="60.11969796" lon="30.52195072">
        <time>2026-08-20T13:07:35Z</time>
      </trkpt>
      <trkpt lat="60.11965505" lon="30.52180052">
        <time>2026-08-20T13:07:50Z</time>
      </trkpt>
      <trkpt lat="60.11974088" lon="30.52171469">
        <time>2026-08-20T13:08:20Z</time>
      </trkpt>
      <trkpt lat="60.11974088" lon="30.52171469">
        <time>2026-08-20T13:08:30Z</time>
      </trkpt>
      <trkpt lat="60.11967651" lon="30.52171469">
        <time>2026-08-20T13:08:35Z</time>
      </trkpt>
      <trkpt lat="60.11967651" lon="30.52171469">
        <time>2026-08-20T13:08:37Z</time>
      </trkpt>
      <trkpt lat="60.11963359" lon="30.52171469">
        <time>2026-08-20T13:08:50Z</time>
      </trkpt>
      <trkpt lat="60.11961213" lon="30.52171469">
        <time>2026-08-20T13:08:52Z</time>
      </trkpt>
      <trkpt lat="60.11963359" lon="30.5214572">
        <time>2026-08-20T13:09:22Z</time>
      </trkpt>
      <trkpt lat="60.11963359" lon="30.5214572">
        <time>2026-08-20T13:09:27Z</time>
      </trkpt>
      <trkpt lat="60.11963359" lon="30.52143574">
        <time>2026-08-20T13:09:30Z</time>
      </trkpt>
      <trkpt lat="60.11965505" lon="30.52134991">
        <time>2026-08-20T13:10:00Z</time>
      </trkpt>
      <trkpt lat="60.11967651" lon="30.52117825">
        <time>2026-08-20T13:10:22Z</time>
      </trkpt>
      <trkpt lat="60.11967651" lon="30.52117825">
        <time>2026-08-20T13:10:27Z</time>
      </trkpt>
      <trkpt lat="60.11967651" lon="30.52115679">
        <time>2026-08-20T13:10:57Z</time>
      </trkpt>
      <trkpt lat="60.11950484" lon="30.52117825">
        <time>2026-08-20T13:11:25Z</time>
      </trkpt>
      <trkpt lat="60.11948339" lon="30.52122116">
        <time>2026-08-20T13:11:27Z</time>
      </trkpt>
      <trkpt lat="60.11948339" lon="30.52124262">
        <time>2026-08-20T13:11:57Z</time>
      </trkpt>
      <trkpt lat="60.11939756" lon="30.52137136">
        <time>2026-08-20T13:12:17Z</time>
      </trkpt>
      <trkpt lat="60.11931173" lon="30.52152157">
        <time>2026-08-20T13:12:22Z</time>
      </trkpt>
      <trkpt lat="60.11903278" lon="30.52197218">
        <time>2026-08-20T13:12:30Z</time>
      </trkpt>
      <trkpt lat="60.11898986" lon="30.52222967">
        <time>2026-08-20T13:12:32Z</time>
      </trkpt>
      <trkpt lat="60.11901132" lon="30.52220821">
        <time>2026-08-20T13:13:02Z</time>
      </trkpt>
      <trkpt lat="60.11901132" lon="30.52210093">
        <time>2026-08-20T13:13:30Z</time>
      </trkpt>
      <trkpt lat="60.11903278" lon="30.52205801">
        <time>2026-08-20T13:13:32Z</time>
      </trkpt>
      <trkpt lat="60.11907569" lon="30.52188635">
        <time>2026-08-20T13:13:42Z</time>
      </trkpt>
      <trkpt lat="60.11916152" lon="30.52173615">
        <time>2026-08-20T13:13:47Z</time>
      </trkpt>
      <trkpt lat="60.11931173" lon="30.52150011">
        <time>2026-08-20T13:13:50Z</time>
      </trkpt>
      <trkpt lat="60.11941901" lon="30.52134991">
        <time>2026-08-20T13:13:52Z</time>
      </trkpt>
      <trkpt lat="60.11944047" lon="30.52141428">
        <time>2026-08-20T13:14:00Z</time>
      </trkpt>
      <trkpt lat="60.11941901" lon="30.5214572">
        <time>2026-08-20T13:14:02Z</time>
      </trkpt>
      <trkpt lat="60.11946193" lon="30.52152157">
        <time>2026-08-20T13:14:05Z</time>
      </trkpt>
      <trkpt lat="60.11948339" lon="30.52156448">
        <time>2026-08-20T13:14:07Z</time>
      </trkpt>
      <trkpt lat="60.11950484" lon="30.52165031">
        <time>2026-08-20T13:14:10Z</time>
      </trkpt>
      <trkpt lat="60.11954776" lon="30.52169323">
        <time>2026-08-20T13:14:12Z</time>
      </trkpt>
      <trkpt lat="60.11956922" lon="30.5217576">
        <time>2026-08-20T13:14:17Z</time>
      </trkpt>
      <trkpt lat="60.11961213" lon="30.52173615">
        <time>2026-08-20T13:14:20Z</time>
      </trkpt>
      <trkpt lat="60.11963359" lon="30.52171469">
        <time>2026-08-20T13:14:22Z</time>
      </trkpt>
      <trkpt lat="60.11963359" lon="30.52171469">
        <time>2026-08-20T13:14:35Z</time>
      </trkpt>
      <trkpt lat="60.11963359" lon="30.52171469">
        <time>2026-08-20T13:14:50Z</time>
      </trkpt>
      <trkpt lat="60.11967651" lon="30.52169323">
        <time>2026-08-20T13:15:12Z</time>
      </trkpt>
      <trkpt lat="60.11974088" lon="30.52169323">
        <time>2026-08-20T13:15:42Z</time>
      </trkpt>
      <trkpt lat="60.11980525" lon="30.52171469">
        <time>2026-08-20T13:16:12Z</time>
      </trkpt>
      <trkpt lat="60.11984817" lon="30.52171469">
        <time>2026-08-20T13:16:40Z</time>
      </trkpt>
      <trkpt lat="60.11986963" lon="30.5217576">
        <time>2026-08-20T13:16:45Z</time>
      </trkpt>
      <trkpt lat="60.11991254" lon="30.52167177">
        <time>2026-08-20T13:17:05Z</time>
      </trkpt>
      <trkpt lat="60.11986963" lon="30.5217576">
        <time>2026-08-20T13:17:12Z</time>
      </trkpt>
      <trkpt lat="60.11976234" lon="30.52169323">
        <time>2026-08-20T13:17:37Z</time>
      </trkpt>
      <trkpt lat="60.11974088" lon="30.52167177">
        <time>2026-08-20T13:17:40Z</time>
      </trkpt>
      <trkpt lat="60.11961213" lon="30.52169323">
        <time>2026-08-20T13:18:10Z</time>
      </trkpt>
      <trkpt lat="60.11963359" lon="30.52154303">
        <time>2026-08-20T13:18:22Z</time>
      </trkpt>
      <trkpt lat="60.11963359" lon="30.52147865">
        <time>2026-08-20T13:18:25Z</time>
      </trkpt>
      <trkpt lat="60.11965505" lon="30.52143574">
        <time>2026-08-20T13:18:27Z</time>
      </trkpt>
      <trkpt lat="60.11967651" lon="30.52134991">
        <time>2026-08-20T13:18:40Z</time>
      </trkpt>
      <trkpt lat="60.11959068" lon="30.52102804">
        <time>2026-08-20T13:19:10Z</time>
      </trkpt>
      <trkpt lat="60.11959068" lon="30.52102804">
        <time>2026-08-20T13:19:22Z</time>
      </trkpt>
      <trkpt lat="60.11959068" lon="30.52102804">
        <time>2026-08-20T13:19:30Z</time>
      </trkpt>
      <trkpt lat="60.11954776" lon="30.52111387">
        <time>2026-08-20T13:19:45Z</time>
      </trkpt>
      <trkpt lat="60.11954776" lon="30.52111387">
        <time>2026-08-20T13:20:15Z</time>
      </trkpt>
      <trkpt lat="60.11963359" lon="30.52113533">
        <time>2026-08-20T13:20:32Z</time>
      </trkpt>
      <trkpt lat="60.11965505" lon="30.5211997">
        <time>2026-08-20T13:20:35Z</time>
      </trkpt>
      <trkpt lat="60.11967651" lon="30.52126408">
        <time>2026-08-20T13:20:37Z</time>
      </trkpt>
      <trkpt lat="60.11967651" lon="30.52130699">
        <time>2026-08-20T13:21:07Z</time>
      </trkpt>
      <trkpt lat="60.11965505" lon="30.52122116">
        <time>2026-08-20T13:21:10Z</time>
      </trkpt>
      <trkpt lat="60.11965505" lon="30.52113533">
        <time>2026-08-20T13:21:12Z</time>
      </trkpt>
      <trkpt lat="60.11959068" lon="30.52107096">
        <time>2026-08-20T13:21:32Z</time>
      </trkpt>
      <trkpt lat="60.11959068" lon="30.52107096">
        <time>2026-08-20T13:21:40Z</time>
      </trkpt>
      <trkpt lat="60.11961213" lon="30.52130699">
        <time>2026-08-20T13:22:10Z</time>
      </trkpt>
      <trkpt lat="60.11954776" lon="30.52126408">
        <time>2026-08-20T13:22:40Z</time>
      </trkpt>
      <trkpt lat="60.1195263" lon="30.52124262">
        <time>2026-08-20T13:22:57Z</time>
      </trkpt>
      <trkpt lat="60.11948339" lon="30.52126408">
        <time>2026-08-20T13:23:27Z</time>
      </trkpt>
      <trkpt lat="60.11948339" lon="30.52130699">
        <time>2026-08-20T13:23:42Z</time>
      </trkpt>
      <trkpt lat="60.11948339" lon="30.52154303">
        <time>2026-08-20T13:23:57Z</time>
      </trkpt>
      <trkpt lat="60.1193761" lon="30.52150011">
        <time>2026-08-20T13:24:27Z</time>
      </trkpt>
      <trkpt lat="60.11926881" lon="30.52158594">
        <time>2026-08-20T13:24:45Z</time>
      </trkpt>
      <trkpt lat="60.11924735" lon="30.52162886">
        <time>2026-08-20T13:25:15Z</time>
      </trkpt>
      <trkpt lat="60.11924735" lon="30.52162886">
        <time>2026-08-20T13:25:20Z</time>
      </trkpt>
      <trkpt lat="60.11926881" lon="30.52158594">
        <time>2026-08-20T13:25:22Z</time>
      </trkpt>
      <trkpt lat="60.11931173" lon="30.52156448">
        <time>2026-08-20T13:25:25Z</time>
      </trkpt>
      <trkpt lat="60.11933318" lon="30.52156448">
        <time>2026-08-20T13:25:27Z</time>
      </trkpt>
      <trkpt lat="60.11935464" lon="30.52156448">
        <time>2026-08-20T13:25:30Z</time>
      </trkpt>
      <trkpt lat="60.1193761" lon="30.5216074">
        <time>2026-08-20T13:25:35Z</time>
      </trkpt>
      <trkpt lat="60.1193761" lon="30.52162886">
        <time>2026-08-20T13:25:42Z</time>
      </trkpt>
      <trkpt lat="60.1193761" lon="30.52162886">
        <time>2026-08-20T13:25:55Z</time>
      </trkpt>
      <trkpt lat="60.11933318" lon="30.52165031">
        <time>2026-08-20T13:26:25Z</time>
      </trkpt>
      <trkpt lat="60.11935464" lon="30.52173615">
        <time>2026-08-20T13:26:37Z</time>
      </trkpt>
      <trkpt lat="60.11935464" lon="30.52177906">
        <time>2026-08-20T13:27:07Z</time>
      </trkpt>
      <trkpt lat="60.11933318" lon="30.52205801">
        <time>2026-08-20T13:27:25Z</time>
      </trkpt>
      <trkpt lat="60.11924735" lon="30.52235842">
        <time>2026-08-20T13:27:47Z</time>
      </trkpt>
      <trkpt lat="60.1192259" lon="30.52235842">
        <time>2026-08-20T13:28:02Z</time>
      </trkpt>
      <trkpt lat="60.1192259" lon="30.52235842">
        <time>2026-08-20T13:28:10Z</time>
      </trkpt>
      <trkpt lat="60.1192259" lon="30.52237988">
        <time>2026-08-20T13:28:20Z</time>
      </trkpt>
      <trkpt lat="60.1192259" lon="30.52240133">
        <time>2026-08-20T13:28:22Z</time>
      </trkpt>
      <trkpt lat="60.11931173" lon="30.52250862">
        <time>2026-08-20T13:28:32Z</time>
      </trkpt>
      <trkpt lat="60.11933318" lon="30.52259445">
        <time>2026-08-20T13:28:35Z</time>
      </trkpt>
      <trkpt lat="60.11935464" lon="30.52263737">
        <time>2026-08-20T13:28:37Z</time>
      </trkpt>
      <trkpt lat="60.11935464" lon="30.52250862">
        <time>2026-08-20T13:28:45Z</time>
      </trkpt>
      <trkpt lat="60.11935464" lon="30.52244425">
        <time>2026-08-20T13:28:47Z</time>
      </trkpt>
      <trkpt lat="60.11935464" lon="30.52235842">
        <time>2026-08-20T13:28:52Z</time>
      </trkpt>
      <trkpt lat="60.11933318" lon="30.52229404">
        <time>2026-08-20T13:28:55Z</time>
      </trkpt>
      <trkpt lat="60.11931173" lon="30.52225113">
        <time>2026-08-20T13:28:57Z</time>
      </trkpt>
      <trkpt lat="60.11926881" lon="30.52220821">
        <time>2026-08-20T13:29:17Z</time>
      </trkpt>
      <trkpt lat="60.11916152" lon="30.52195072">
        <time>2026-08-20T13:29:40Z</time>
      </trkpt>
      <trkpt lat="60.11916152" lon="30.52188635">
        <time>2026-08-20T13:29:42Z</time>
      </trkpt>
      <trkpt lat="60.11914006" lon="30.52184343">
        <time>2026-08-20T13:29:45Z</time>
      </trkpt>
      <trkpt lat="60.11914006" lon="30.52180052">
        <time>2026-08-20T13:29:47Z</time>
      </trkpt>
      <trkpt lat="60.1192259" lon="30.52156448">
        <time>2026-08-20T13:30:17Z</time>
      </trkpt>
      <trkpt lat="60.11920444" lon="30.52152157">
        <time>2026-08-20T13:30:35Z</time>
      </trkpt>
      <trkpt lat="60.11920444" lon="30.52152157">
        <time>2026-08-20T13:30:37Z</time>
      </trkpt>
      <trkpt lat="60.11920444" lon="30.52156448">
        <time>2026-08-20T13:30:50Z</time>
      </trkpt>
      <trkpt lat="60.11920444" lon="30.52165031">
        <time>2026-08-20T13:31:20Z</time>
      </trkpt>
      <trkpt lat="60.11920444" lon="30.52165031">
        <time>2026-08-20T13:31:50Z</time>
      </trkpt>
      <trkpt lat="60.11920444" lon="30.52165031">
        <time>2026-08-20T13:32:20Z</time>
      </trkpt>
      <trkpt lat="60.11920444" lon="30.52162886">
        <time>2026-08-20T13:32:50Z</time>
      </trkpt>
      <trkpt lat="60.11920444" lon="30.52162886">
        <time>2026-08-20T13:33:20Z</time>
      </trkpt>
      <trkpt lat="60.11918298" lon="30.52162886">
        <time>2026-08-20T13:33:50Z</time>
      </trkpt>
      <trkpt lat="60.11918298" lon="30.52162886">
        <time>2026-08-20T13:34:20Z</time>
      </trkpt>
      <trkpt lat="60.11918298" lon="30.52162886">
        <time>2026-08-20T13:34:50Z</time>
      </trkpt>
      <trkpt lat="60.11918298" lon="30.52162886">
        <time>2026-08-20T13:35:20Z</time>
      </trkpt>
      <trkpt lat="60.11918298" lon="30.52162886">
        <time>2026-08-20T13:35:50Z</time>
      </trkpt>
      <trkpt lat="60.11918298" lon="30.52162886">
        <time>2026-08-20T13:36:20Z</time>
      </trkpt>
      <trkpt lat="60.11918298" lon="30.52162886">
        <time>2026-08-20T13:36:50Z</time>
      </trkpt>
      <trkpt lat="60.11920444" lon="30.52162886">
        <time>2026-08-20T13:37:20Z</time>
      </trkpt>
      <trkpt lat="60.11920444" lon="30.52165031">
        <time>2026-08-20T13:37:50Z</time>
      </trkpt>
      <trkpt lat="60.11920444" lon="30.52165031">
        <time>2026-08-20T13:38:20Z</time>
      </trkpt>
      <trkpt lat="60.11920444" lon="30.52165031">
        <time>2026-08-20T13:38:50Z</time>
      </trkpt>
      <trkpt lat="60.11929027" lon="30.52150011">
        <time>2026-08-20T13:39:20Z</time>
      </trkpt>
      <trkpt lat="60.11939756" lon="30.52130699">
        <time>2026-08-20T13:39:35Z</time>
      </trkpt>
      <trkpt lat="60.11941901" lon="30.52126408">
        <time>2026-08-20T13:39:37Z</time>
      </trkpt>
      <trkpt lat="60.11941901" lon="30.52117825">
        <time>2026-08-20T13:40:00Z</time>
      </trkpt>
      <trkpt lat="60.11941901" lon="30.52117825">
        <time>2026-08-20T13:40:02Z</time>
      </trkpt>
      <trkpt lat="60.11941901" lon="30.52117825">
        <time>2026-08-20T13:40:25Z</time>
      </trkpt>
      <trkpt lat="60.11941901" lon="30.52117825">
        <time>2026-08-20T13:40:27Z</time>
      </trkpt>
      <trkpt lat="60.11944047" lon="30.52115679">
        <time>2026-08-20T13:40:57Z</time>
      </trkpt>
      <trkpt lat="60.11944047" lon="30.52115679">
        <time>2026-08-20T13:41:27Z</time>
      </trkpt>
      <trkpt lat="60.11944047" lon="30.52113533">
        <time>2026-08-20T13:41:57Z</time>
      </trkpt>
      <trkpt lat="60.11944047" lon="30.52113533">
        <time>2026-08-20T13:42:27Z</time>
      </trkpt>
      <trkpt lat="60.11944047" lon="30.52117825">
        <time>2026-08-20T13:42:57Z</time>
      </trkpt>
      <trkpt lat="60.11946193" lon="30.52122116">
        <time>2026-08-20T13:43:27Z</time>
      </trkpt>
      <trkpt lat="60.11946193" lon="30.52124262">
        <time>2026-08-20T13:43:57Z</time>
      </trkpt>
      <trkpt lat="60.11946193" lon="30.52124262">
        <time>2026-08-20T13:44:27Z</time>
      </trkpt>
      <trkpt lat="60.11948339" lon="30.52124262">
        <time>2026-08-20T13:44:57Z</time>
      </trkpt>
      <trkpt lat="60.11939756" lon="30.52107096">
        <time>2026-08-20T13:45:12Z</time>
      </trkpt>
      <trkpt lat="60.1193761" lon="30.52102804">
        <time>2026-08-20T13:45:42Z</time>
      </trkpt>
      <trkpt lat="60.11929027" lon="30.52098513">
        <time>2026-08-20T13:45:52Z</time>
      </trkpt>
      <trkpt lat="60.1192259" lon="30.5208993">
        <time>2026-08-20T13:45:57Z</time>
      </trkpt>
      <trkpt lat="60.11903278" lon="30.52085638">
        <time>2026-08-20T13:46:27Z</time>
      </trkpt>
      <trkpt lat="60.11894695" lon="30.52079201">
        <time>2026-08-20T13:46:57Z</time>
      </trkpt>
      <trkpt lat="60.11886111" lon="30.52081347">
        <time>2026-08-20T13:47:27Z</time>
      </trkpt>
      <trkpt lat="60.11873237" lon="30.52079201">
        <time>2026-08-20T13:47:57Z</time>
      </trkpt>
      <trkpt lat="60.11873237" lon="30.52087784">
        <time>2026-08-20T13:48:15Z</time>
      </trkpt>
      <trkpt lat="60.11873237" lon="30.52087784">
        <time>2026-08-20T13:48:17Z</time>
      </trkpt>
      <trkpt lat="60.11871091" lon="30.52092075">
        <time>2026-08-20T13:48:30Z</time>
      </trkpt>
      <trkpt lat="60.118668" lon="30.52081347">
        <time>2026-08-20T13:49:00Z</time>
      </trkpt>
      <trkpt lat="60.11864654" lon="30.52077055">
        <time>2026-08-20T13:49:30Z</time>
      </trkpt>
      <trkpt lat="60.11862508" lon="30.52068472">
        <time>2026-08-20T13:50:00Z</time>
      </trkpt>
      <trkpt lat="60.11853925" lon="30.52038431">
        <time>2026-08-20T13:50:27Z</time>
      </trkpt>
      <trkpt lat="60.11851779" lon="30.52025557">
        <time>2026-08-20T13:50:50Z</time>
      </trkpt>
      <trkpt lat="60.11851779" lon="30.52025557">
        <time>2026-08-20T13:50:55Z</time>
      </trkpt>
      <trkpt lat="60.11847488" lon="30.5200839">
        <time>2026-08-20T13:51:25Z</time>
      </trkpt>
      <trkpt lat="60.11849633" lon="30.51999807">
        <time>2026-08-20T13:51:32Z</time>
      </trkpt>
      <trkpt lat="60.11849633" lon="30.51999807">
        <time>2026-08-20T13:52:02Z</time>
      </trkpt>
      <trkpt lat="60.11849633" lon="30.51999807">
        <time>2026-08-20T13:52:10Z</time>
      </trkpt>
      <trkpt lat="60.11849633" lon="30.51999807">
        <time>2026-08-20T13:52:32Z</time>
      </trkpt>
      <trkpt lat="60.11851779" lon="30.52001953">
        <time>2026-08-20T13:53:00Z</time>
      </trkpt>
      <trkpt lat="60.11851779" lon="30.52001953">
        <time>2026-08-20T13:53:07Z</time>
      </trkpt>
      <trkpt lat="60.11851779" lon="30.52001953">
        <time>2026-08-20T13:53:37Z</time>
      </trkpt>
      <trkpt lat="60.11851779" lon="30.52001953">
        <time>2026-08-20T13:54:07Z</time>
      </trkpt>
      <trkpt lat="60.11851779" lon="30.51999807">
        <time>2026-08-20T13:54:37Z</time>
      </trkpt>
      <trkpt lat="60.11851779" lon="30.51999807">
        <time>2026-08-20T13:55:07Z</time>
      </trkpt>
      <trkpt lat="60.11851779" lon="30.51999807">
        <time>2026-08-20T13:55:37Z</time>
      </trkpt>
      <trkpt lat="60.11851779" lon="30.51999807">
        <time>2026-08-20T13:56:07Z</time>
      </trkpt>
      <trkpt lat="60.11851779" lon="30.51999807">
        <time>2026-08-20T13:56:37Z</time>
      </trkpt>
      <trkpt lat="60.11851779" lon="30.51999807">
        <time>2026-08-20T13:57:07Z</time>
      </trkpt>
      <trkpt lat="60.11851779" lon="30.51999807">
        <time>2026-08-20T13:57:37Z</time>
      </trkpt>
      <trkpt lat="60.11851779" lon="30.51999807">
        <time>2026-08-20T13:58:07Z</time>
      </trkpt>
      <trkpt lat="60.11851779" lon="30.51999807">
        <time>2026-08-20T13:58:37Z</time>
      </trkpt>
      <trkpt lat="60.11851779" lon="30.51999807">
        <time>2026-08-20T13:59:07Z</time>
      </trkpt>
      <trkpt lat="60.11851779" lon="30.51999807">
        <time>2026-08-20T13:59:37Z</time>
      </trkpt>
      <trkpt lat="60.11851779" lon="30.51999807">
        <time>2026-08-20T14:00:07Z</time>
      </trkpt>
      <trkpt lat="60.11851779" lon="30.51999807">
        <time>2026-08-20T14:00:37Z</time>
      </trkpt>
      <trkpt lat="60.11851779" lon="30.51999807">
        <time>2026-08-20T14:01:07Z</time>
      </trkpt>
      <trkpt lat="60.11851779" lon="30.51999807">
        <time>2026-08-20T14:01:37Z</time>
      </trkpt>
      <trkpt lat="60.11851779" lon="30.51999807">
        <time>2026-08-20T14:02:07Z</time>
      </trkpt>
      <trkpt lat="60.11851779" lon="30.51999807">
        <time>2026-08-20T14:02:37Z</time>
      </trkpt>
      <trkpt lat="60.11849633" lon="30.51999807">
        <time>2026-08-20T14:03:07Z</time>
      </trkpt>
      <trkpt lat="60.11849633" lon="30.51999807">
        <time>2026-08-20T14:03:37Z</time>
      </trkpt>
      <trkpt lat="60.11849633" lon="30.51999807">
        <time>2026-08-20T14:04:07Z</time>
      </trkpt>
      <trkpt lat="60.11849633" lon="30.51999807">
        <time>2026-08-20T14:04:37Z</time>
      </trkpt>
      <trkpt lat="60.11849633" lon="30.51999807">
        <time>2026-08-20T14:05:07Z</time>
      </trkpt>
      <trkpt lat="60.11849633" lon="30.51999807">
        <time>2026-08-20T14:05:37Z</time>
      </trkpt>
      <trkpt lat="60.11849633" lon="30.51999807">
        <time>2026-08-20T14:06:07Z</time>
      </trkpt>
      <trkpt lat="60.11849633" lon="30.51999807">
        <time>2026-08-20T14:06:37Z</time>
      </trkpt>
      <trkpt lat="60.11849633" lon="30.51999807">
        <time>2026-08-20T14:07:07Z</time>
      </trkpt>
      <trkpt lat="60.11849633" lon="30.51999807">
        <time>2026-08-20T14:07:37Z</time>
      </trkpt>
      <trkpt lat="60.11849633" lon="30.51999807">
        <time>2026-08-20T14:08:07Z</time>
      </trkpt>
      <trkpt lat="60.11849633" lon="30.52001953">
        <time>2026-08-20T14:08:37Z</time>
      </trkpt>
      <trkpt lat="60.11849633" lon="30.52001953">
        <time>2026-08-20T14:09:07Z</time>
      </trkpt>
      <trkpt lat="60.11849633" lon="30.52001953">
        <time>2026-08-20T14:09:37Z</time>
      </trkpt>
      <trkpt lat="60.11849633" lon="30.52001953">
        <time>2026-08-20T14:10:07Z</time>
      </trkpt>
      <trkpt lat="60.11849633" lon="30.52001953">
        <time>2026-08-20T14:10:37Z</time>
      </trkpt>
      <trkpt lat="60.11849633" lon="30.52001953">
        <time>2026-08-20T14:11:07Z</time>
      </trkpt>
      <trkpt lat="60.11849633" lon="30.52001953">
        <time>2026-08-20T14:11:37Z</time>
      </trkpt>
      <trkpt lat="60.11849633" lon="30.52001953">
        <time>2026-08-20T14:12:07Z</time>
      </trkpt>
      <trkpt lat="60.11849633" lon="30.52001953">
        <time>2026-08-20T14:12:37Z</time>
      </trkpt>
      <trkpt lat="60.11849633" lon="30.52001953">
        <time>2026-08-20T14:13:07Z</time>
      </trkpt>
      <trkpt lat="60.11849633" lon="30.52001953">
        <time>2026-08-20T14:13:37Z</time>
      </trkpt>
      <trkpt lat="60.11849633" lon="30.52001953">
        <time>2026-08-20T14:14:07Z</time>
      </trkpt>
      <trkpt lat="60.11849633" lon="30.52001953">
        <time>2026-08-20T14:14:37Z</time>
      </trkpt>
      <trkpt lat="60.11853925" lon="30.52031994">
        <time>2026-08-20T14:15:07Z</time>
      </trkpt>
      <trkpt lat="60.11853925" lon="30.52036285">
        <time>2026-08-20T14:15:10Z</time>
      </trkpt>
      <trkpt lat="60.11853925" lon="30.52038431">
        <time>2026-08-20T14:15:22Z</time>
      </trkpt>
      <trkpt lat="60.11853925" lon="30.52038431">
        <time>2026-08-20T14:15:25Z</time>
      </trkpt>
      <trkpt lat="60.11862508" lon="30.52074909">
        <time>2026-08-20T14:15:55Z</time>
      </trkpt>
      <trkpt lat="60.118668" lon="30.52074909">
        <time>2026-08-20T14:16:22Z</time>
      </trkpt>
      <trkpt lat="60.11886111" lon="30.52062035">
        <time>2026-08-20T14:16:52Z</time>
      </trkpt>
      <trkpt lat="60.11903278" lon="30.52087784">
        <time>2026-08-20T14:17:15Z</time>
      </trkpt>
      <trkpt lat="60.11911861" lon="30.52087784">
        <time>2026-08-20T14:17:45Z</time>
      </trkpt>
      <trkpt lat="60.11918298" lon="30.5208993">
        <time>2026-08-20T14:17:57Z</time>
      </trkpt>
      <trkpt lat="60.11924735" lon="30.52094221">
        <time>2026-08-20T14:18:05Z</time>
      </trkpt>
      <trkpt lat="60.11929027" lon="30.52102804">
        <time>2026-08-20T14:18:07Z</time>
      </trkpt>
      <trkpt lat="60.11931173" lon="30.5210495">
        <time>2026-08-20T14:18:10Z</time>
      </trkpt>
      <trkpt lat="60.11933318" lon="30.5210495">
        <time>2026-08-20T14:18:12Z</time>
      </trkpt>
      <trkpt lat="60.1193761" lon="30.52107096">
        <time>2026-08-20T14:18:15Z</time>
      </trkpt>
      <trkpt lat="60.11939756" lon="30.52113533">
        <time>2026-08-20T14:18:17Z</time>
      </trkpt>
      <trkpt lat="60.11939756" lon="30.52117825">
        <time>2026-08-20T14:18:20Z</time>
      </trkpt>
      <trkpt lat="60.11941901" lon="30.5211997">
        <time>2026-08-20T14:18:22Z</time>
      </trkpt>
      <trkpt lat="60.1193761" lon="30.52137136">
        <time>2026-08-20T14:18:40Z</time>
      </trkpt>
      <trkpt lat="60.11933318" lon="30.52143574">
        <time>2026-08-20T14:18:42Z</time>
      </trkpt>
      <trkpt lat="60.11920444" lon="30.52162886">
        <time>2026-08-20T14:19:00Z</time>
      </trkpt>
      <trkpt lat="60.11914006" lon="30.52171469">
        <time>2026-08-20T14:19:10Z</time>
      </trkpt>
      <trkpt lat="60.11911861" lon="30.5217576">
        <time>2026-08-20T14:19:12Z</time>
      </trkpt>
      <trkpt lat="60.11905423" lon="30.52171469">
        <time>2026-08-20T14:19:35Z</time>
      </trkpt>
      <trkpt lat="60.1189684" lon="30.52162886">
        <time>2026-08-20T14:19:45Z</time>
      </trkpt>
      <trkpt lat="60.11890403" lon="30.52165031">
        <time>2026-08-20T14:19:47Z</time>
      </trkpt>
      <trkpt lat="60.11886111" lon="30.52169323">
        <time>2026-08-20T14:19:50Z</time>
      </trkpt>
      <trkpt lat="60.1188182" lon="30.52173615">
        <time>2026-08-20T14:19:52Z</time>
      </trkpt>
      <trkpt lat="60.11871091" lon="30.5217576">
        <time>2026-08-20T14:19:55Z</time>
      </trkpt>
      <trkpt lat="60.118668" lon="30.52177906">
        <time>2026-08-20T14:19:57Z</time>
      </trkpt>
      <trkpt lat="60.11864654" lon="30.52205801">
        <time>2026-08-20T14:20:17Z</time>
      </trkpt>
      <trkpt lat="60.11864654" lon="30.52210093">
        <time>2026-08-20T14:20:20Z</time>
      </trkpt>
      <trkpt lat="60.118668" lon="30.52214384">
        <time>2026-08-20T14:20:22Z</time>
      </trkpt>
      <trkpt lat="60.11871091" lon="30.5221653">
        <time>2026-08-20T14:20:25Z</time>
      </trkpt>
      <trkpt lat="60.11871091" lon="30.5223155">
        <time>2026-08-20T14:20:37Z</time>
      </trkpt>
      <trkpt lat="60.11873237" lon="30.52240133">
        <time>2026-08-20T14:20:40Z</time>
      </trkpt>
      <trkpt lat="60.11871091" lon="30.52244425">
        <time>2026-08-20T14:20:42Z</time>
      </trkpt>
      <trkpt lat="60.11873237" lon="30.52259445">
        <time>2026-08-20T14:20:52Z</time>
      </trkpt>
      <trkpt lat="60.11873237" lon="30.52261591">
        <time>2026-08-20T14:21:05Z</time>
      </trkpt>
      <trkpt lat="60.11875383" lon="30.52261591">
        <time>2026-08-20T14:21:10Z</time>
      </trkpt>
      <trkpt lat="60.11873237" lon="30.52268028">
        <time>2026-08-20T14:21:12Z</time>
      </trkpt>
      <trkpt lat="60.11871091" lon="30.5228734">
        <time>2026-08-20T14:21:17Z</time>
      </trkpt>
      <trkpt lat="60.11868945" lon="30.52300215">
        <time>2026-08-20T14:21:20Z</time>
      </trkpt>
      <trkpt lat="60.11871091" lon="30.52306652">
        <time>2026-08-20T14:21:22Z</time>
      </trkpt>
      <trkpt lat="60.11875383" lon="30.52306652">
        <time>2026-08-20T14:21:25Z</time>
      </trkpt>
      <trkpt lat="60.11877528" lon="30.52313089">
        <time>2026-08-20T14:21:27Z</time>
      </trkpt>
      <trkpt lat="60.1188182" lon="30.52319527">
        <time>2026-08-20T14:21:30Z</time>
      </trkpt>
      <trkpt lat="60.11883966" lon="30.52323818">
        <time>2026-08-20T14:21:32Z</time>
      </trkpt>
      <trkpt lat="60.11886111" lon="30.52323818">
        <time>2026-08-20T14:21:45Z</time>
      </trkpt>
      <trkpt lat="60.11886111" lon="30.52323818">
        <time>2026-08-20T14:21:55Z</time>
      </trkpt>
      <trkpt lat="60.1188182" lon="30.52323818">
        <time>2026-08-20T14:21:57Z</time>
      </trkpt>
      <trkpt lat="60.11868945" lon="30.52330256">
        <time>2026-08-20T14:22:00Z</time>
      </trkpt>
      <trkpt lat="60.11853925" lon="30.5234313">
        <time>2026-08-20T14:22:02Z</time>
      </trkpt>
      <trkpt lat="60.1184105" lon="30.52360296">
        <time>2026-08-20T14:22:05Z</time>
      </trkpt>
      <trkpt lat="60.11834613" lon="30.52373171">
        <time>2026-08-20T14:22:07Z</time>
      </trkpt>
      <trkpt lat="60.11836759" lon="30.52381754">
        <time>2026-08-20T14:22:15Z</time>
      </trkpt>
      <trkpt lat="60.11836759" lon="30.52390337">
        <time>2026-08-20T14:22:17Z</time>
      </trkpt>
      <trkpt lat="60.11834613" lon="30.52392483">
        <time>2026-08-20T14:22:32Z</time>
      </trkpt>
      <trkpt lat="60.11834613" lon="30.52392483">
        <time>2026-08-20T14:23:02Z</time>
      </trkpt>
      <trkpt lat="60.11834613" lon="30.52392483">
        <time>2026-08-20T14:23:07Z</time>
      </trkpt>
      <trkpt lat="60.11834613" lon="30.523839">
        <time>2026-08-20T14:23:17Z</time>
      </trkpt>
      <trkpt lat="60.11838905" lon="30.52371025">
        <time>2026-08-20T14:23:20Z</time>
      </trkpt>
      <trkpt lat="60.11845342" lon="30.5235815">
        <time>2026-08-20T14:23:22Z</time>
      </trkpt>
      <trkpt lat="60.11847488" lon="30.52351713">
        <time>2026-08-20T14:23:25Z</time>
      </trkpt>
      <trkpt lat="60.11836759" lon="30.52366734">
        <time>2026-08-20T14:23:47Z</time>
      </trkpt>
      <trkpt lat="60.11828176" lon="30.52392483">
        <time>2026-08-20T14:24:10Z</time>
      </trkpt>
      <trkpt lat="60.11830322" lon="30.52396774">
        <time>2026-08-20T14:24:12Z</time>
      </trkpt>
      <trkpt lat="60.11830322" lon="30.52396774">
        <time>2026-08-20T14:24:15Z</time>
      </trkpt>
      <trkpt lat="60.11832467" lon="30.52392483">
        <time>2026-08-20T14:24:17Z</time>
      </trkpt>
      <trkpt lat="60.11832467" lon="30.52392483">
        <time>2026-08-20T14:24:47Z</time>
      </trkpt>
      <trkpt lat="60.11834613" lon="30.52394629">
        <time>2026-08-20T14:24:52Z</time>
      </trkpt>
      <trkpt lat="60.11830322" lon="30.52388191">
        <time>2026-08-20T14:25:15Z</time>
      </trkpt>
      <trkpt lat="60.11821738" lon="30.52375317">
        <time>2026-08-20T14:25:17Z</time>
      </trkpt>
      <trkpt lat="60.11819593" lon="30.52371025">
        <time>2026-08-20T14:25:20Z</time>
      </trkpt>
      <trkpt lat="60.11808864" lon="30.5235815">
        <time>2026-08-20T14:25:35Z</time>
      </trkpt>
      <trkpt lat="60.11793843" lon="30.52356005">
        <time>2026-08-20T14:25:37Z</time>
      </trkpt>
      <trkpt lat="60.11789552" lon="30.52360296">
        <time>2026-08-20T14:25:42Z</time>
      </trkpt>
      <trkpt lat="60.1178526" lon="30.52364588">
        <time>2026-08-20T14:25:45Z</time>
      </trkpt>
      <trkpt lat="60.11780969" lon="30.52371025">
        <time>2026-08-20T14:25:47Z</time>
      </trkpt>
      <trkpt lat="60.11776677" lon="30.52379608">
        <time>2026-08-20T14:25:50Z</time>
      </trkpt>
      <trkpt lat="60.11768094" lon="30.52388191">
        <time>2026-08-20T14:25:52Z</time>
      </trkpt>
      <trkpt lat="60.11763803" lon="30.5239892">
        <time>2026-08-20T14:25:55Z</time>
      </trkpt>
      <trkpt lat="60.11757365" lon="30.5241394">
        <time>2026-08-20T14:25:57Z</time>
      </trkpt>
      <trkpt lat="60.1175522" lon="30.52409649">
        <time>2026-08-20T14:26:00Z</time>
      </trkpt>
      <trkpt lat="60.11750928" lon="30.52407503">
        <time>2026-08-20T14:26:02Z</time>
      </trkpt>
      <trkpt lat="60.11748782" lon="30.52407503">
        <time>2026-08-20T14:26:05Z</time>
      </trkpt>
      <trkpt lat="60.11746637" lon="30.52416086">
        <time>2026-08-20T14:26:12Z</time>
      </trkpt>
      <trkpt lat="60.11744491" lon="30.52428961">
        <time>2026-08-20T14:26:15Z</time>
      </trkpt>
      <trkpt lat="60.11742345" lon="30.52441835">
        <time>2026-08-20T14:26:20Z</time>
      </trkpt>
      <trkpt lat="60.11740199" lon="30.52448273">
        <time>2026-08-20T14:26:22Z</time>
      </trkpt>
      <trkpt lat="60.11735908" lon="30.52450418">
        <time>2026-08-20T14:26:25Z</time>
      </trkpt>
      <trkpt lat="60.11735908" lon="30.52450418">
        <time>2026-08-20T14:26:37Z</time>
      </trkpt>
      <trkpt lat="60.11735908" lon="30.52450418">
        <time>2026-08-20T14:26:52Z</time>
      </trkpt>
      <trkpt lat="60.11735908" lon="30.52450418">
        <time>2026-08-20T14:27:15Z</time>
      </trkpt>
      <trkpt lat="60.11735908" lon="30.5245471">
        <time>2026-08-20T14:27:40Z</time>
      </trkpt>
      <trkpt lat="60.11733762" lon="30.52467585">
        <time>2026-08-20T14:27:42Z</time>
      </trkpt>
      <trkpt lat="60.11727325" lon="30.52478313">
        <time>2026-08-20T14:27:45Z</time>
      </trkpt>
      <trkpt lat="60.11725179" lon="30.52484751">
        <time>2026-08-20T14:27:47Z</time>
      </trkpt>
      <trkpt lat="60.11723033" lon="30.52493334">
        <time>2026-08-20T14:27:50Z</time>
      </trkpt>
      <trkpt lat="60.11720887" lon="30.52499771">
        <time>2026-08-20T14:27:52Z</time>
      </trkpt>
      <trkpt lat="60.11708013" lon="30.52540541">
        <time>2026-08-20T14:28:15Z</time>
      </trkpt>
      <trkpt lat="60.11697284" lon="30.52568436">
        <time>2026-08-20T14:28:42Z</time>
      </trkpt>
      <trkpt lat="60.11692992" lon="30.52577019">
        <time>2026-08-20T14:28:45Z</time>
      </trkpt>
      <trkpt lat="60.11688701" lon="30.5258131">
        <time>2026-08-20T14:28:47Z</time>
      </trkpt>
      <trkpt lat="60.11680118" lon="30.52613497">
        <time>2026-08-20T14:29:17Z</time>
      </trkpt>
      <trkpt lat="60.11671535" lon="30.52632809">
        <time>2026-08-20T14:29:32Z</time>
      </trkpt>
      <trkpt lat="60.11667243" lon="30.526371">
        <time>2026-08-20T14:29:37Z</time>
      </trkpt>
      <trkpt lat="60.11665097" lon="30.52641392">
        <time>2026-08-20T14:29:40Z</time>
      </trkpt>
      <trkpt lat="60.11662952" lon="30.52645683">
        <time>2026-08-20T14:29:42Z</time>
      </trkpt>
      <trkpt lat="60.11654369" lon="30.52667141">
        <time>2026-08-20T14:30:05Z</time>
      </trkpt>
      <trkpt lat="60.11652223" lon="30.52675724">
        <time>2026-08-20T14:30:25Z</time>
      </trkpt>
      <trkpt lat="60.11652223" lon="30.52686453">
        <time>2026-08-20T14:30:27Z</time>
      </trkpt>
      <trkpt lat="60.11650077" lon="30.52695036">
        <time>2026-08-20T14:30:30Z</time>
      </trkpt>
      <trkpt lat="60.11650077" lon="30.52703619">
        <time>2026-08-20T14:30:32Z</time>
      </trkpt>
      <trkpt lat="60.11647931" lon="30.52716494">
        <time>2026-08-20T14:30:35Z</time>
      </trkpt>
      <trkpt lat="60.11645786" lon="30.52722931">
        <time>2026-08-20T14:30:37Z</time>
      </trkpt>
      <trkpt lat="60.1164364" lon="30.52727222">
        <time>2026-08-20T14:30:40Z</time>
      </trkpt>
      <trkpt lat="60.11639348" lon="30.52729368">
        <time>2026-08-20T14:30:42Z</time>
      </trkpt>
      <trkpt lat="60.11635057" lon="30.52731514">
        <time>2026-08-20T14:30:55Z</time>
      </trkpt>
      <trkpt lat="60.11630765" lon="30.5273366">
        <time>2026-08-20T14:30:57Z</time>
      </trkpt>
      <trkpt lat="60.11624328" lon="30.52742243">
        <time>2026-08-20T14:31:00Z</time>
      </trkpt>
      <trkpt lat="60.11622182" lon="30.52744389">
        <time>2026-08-20T14:31:02Z</time>
      </trkpt>
      <trkpt lat="60.11620036" lon="30.5274868">
        <time>2026-08-20T14:31:05Z</time>
      </trkpt>
      <trkpt lat="60.11598579" lon="30.52770138">
        <time>2026-08-20T14:31:15Z</time>
      </trkpt>
      <trkpt lat="60.11577121" lon="30.52793741">
        <time>2026-08-20T14:31:22Z</time>
      </trkpt>
      <trkpt lat="60.11570684" lon="30.52798033">
        <time>2026-08-20T14:31:25Z</time>
      </trkpt>
      <trkpt lat="60.11562101" lon="30.52802324">
        <time>2026-08-20T14:31:27Z</time>
      </trkpt>
      <trkpt lat="60.1154708" lon="30.5280447">
        <time>2026-08-20T14:31:30Z</time>
      </trkpt>
      <trkpt lat="60.11540643" lon="30.52817345">
        <time>2026-08-20T14:31:32Z</time>
      </trkpt>
      <trkpt lat="60.11540643" lon="30.52817345">
        <time>2026-08-20T14:32:00Z</time>
      </trkpt>
      <trkpt lat="60.11538497" lon="30.52813053">
        <time>2026-08-20T14:32:02Z</time>
      </trkpt>
      <trkpt lat="60.11540643" lon="30.52808762">
        <time>2026-08-20T14:32:05Z</time>
      </trkpt>
      <trkpt lat="60.11540643" lon="30.52817345">
        <time>2026-08-20T14:32:30Z</time>
      </trkpt>
      <trkpt lat="60.11540643" lon="30.52817345">
        <time>2026-08-20T14:33:00Z</time>
      </trkpt>
      <trkpt lat="60.11540643" lon="30.52813053">
        <time>2026-08-20T14:33:15Z</time>
      </trkpt>
      <trkpt lat="60.11540643" lon="30.52808762">
        <time>2026-08-20T14:33:45Z</time>
      </trkpt>
      <trkpt lat="60.11540643" lon="30.52815199">
        <time>2026-08-20T14:34:15Z</time>
      </trkpt>
      <trkpt lat="60.11540643" lon="30.52815199">
        <time>2026-08-20T14:34:45Z</time>
      </trkpt>
      <trkpt lat="60.11540643" lon="30.52815199">
        <time>2026-08-20T14:35:15Z</time>
      </trkpt>
      <trkpt lat="60.11542789" lon="30.52815199">
        <time>2026-08-20T14:35:45Z</time>
      </trkpt>
      <trkpt lat="60.11540643" lon="30.52813053">
        <time>2026-08-20T14:36:15Z</time>
      </trkpt>
      <trkpt lat="60.11540643" lon="30.52815199">
        <time>2026-08-20T14:36:45Z</time>
      </trkpt>
      <trkpt lat="60.11538497" lon="30.52815199">
        <time>2026-08-20T14:37:15Z</time>
      </trkpt>
      <trkpt lat="60.11538497" lon="30.52815199">
        <time>2026-08-20T14:37:47Z</time>
      </trkpt>
      <trkpt lat="60.11538497" lon="30.52815199">
        <time>2026-08-20T14:38:17Z</time>
      </trkpt>
      <trkpt lat="60.11538497" lon="30.52815199">
        <time>2026-08-20T14:38:47Z</time>
      </trkpt>
      <trkpt lat="60.11538497" lon="30.52815199">
        <time>2026-08-20T14:39:17Z</time>
      </trkpt>
      <trkpt lat="60.11538497" lon="30.52815199">
        <time>2026-08-20T14:39:47Z</time>
      </trkpt>
      <trkpt lat="60.11538497" lon="30.52815199">
        <time>2026-08-20T14:40:17Z</time>
      </trkpt>
      <trkpt lat="60.11538497" lon="30.52815199">
        <time>2026-08-20T14:40:47Z</time>
      </trkpt>
      <trkpt lat="60.11538497" lon="30.52815199">
        <time>2026-08-20T14:41:17Z</time>
      </trkpt>
      <trkpt lat="60.11538497" lon="30.52815199">
        <time>2026-08-20T14:41:47Z</time>
      </trkpt>
      <trkpt lat="60.11538497" lon="30.52815199">
        <time>2026-08-20T14:42:17Z</time>
      </trkpt>
      <trkpt lat="60.11540643" lon="30.52815199">
        <time>2026-08-20T14:42:47Z</time>
      </trkpt>
      <trkpt lat="60.11540643" lon="30.52815199">
        <time>2026-08-20T14:43:17Z</time>
      </trkpt>
      <trkpt lat="60.11540643" lon="30.52815199">
        <time>2026-08-20T14:43:47Z</time>
      </trkpt>
      <trkpt lat="60.11540643" lon="30.52815199">
        <time>2026-08-20T14:44:17Z</time>
      </trkpt>
      <trkpt lat="60.11540643" lon="30.52815199">
        <time>2026-08-20T14:44:47Z</time>
      </trkpt>
      <trkpt lat="60.11542789" lon="30.52815199">
        <time>2026-08-20T14:45:17Z</time>
      </trkpt>
      <trkpt lat="60.11542789" lon="30.52815199">
        <time>2026-08-20T14:45:47Z</time>
      </trkpt>
      <trkpt lat="60.11542789" lon="30.52815199">
        <time>2026-08-20T14:46:17Z</time>
      </trkpt>
      <trkpt lat="60.11542789" lon="30.52815199">
        <time>2026-08-20T14:46:47Z</time>
      </trkpt>
      <trkpt lat="60.11542789" lon="30.52815199">
        <time>2026-08-20T14:47:17Z</time>
      </trkpt>
      <trkpt lat="60.11542789" lon="30.52815199">
        <time>2026-08-20T14:47:47Z</time>
      </trkpt>
      <trkpt lat="60.11542789" lon="30.52815199">
        <time>2026-08-20T14:48:17Z</time>
      </trkpt>
      <trkpt lat="60.11542789" lon="30.52815199">
        <time>2026-08-20T14:48:47Z</time>
      </trkpt>
      <trkpt lat="60.11542789" lon="30.52815199">
        <time>2026-08-20T14:49:17Z</time>
      </trkpt>
      <trkpt lat="60.11542789" lon="30.52815199">
        <time>2026-08-20T14:49:47Z</time>
      </trkpt>
      <trkpt lat="60.11542789" lon="30.52815199">
        <time>2026-08-20T14:50:17Z</time>
      </trkpt>
      <trkpt lat="60.11542789" lon="30.52815199">
        <time>2026-08-20T14:50:47Z</time>
      </trkpt>
      <trkpt lat="60.11542789" lon="30.52815199">
        <time>2026-08-20T14:51:17Z</time>
      </trkpt>
      <trkpt lat="60.11542789" lon="30.52815199">
        <time>2026-08-20T14:51:47Z</time>
      </trkpt>
      <trkpt lat="60.11542789" lon="30.52815199">
        <time>2026-08-20T14:52:17Z</time>
      </trkpt>
      <trkpt lat="60.11542789" lon="30.52815199">
        <time>2026-08-20T14:52:47Z</time>
      </trkpt>
      <trkpt lat="60.11542789" lon="30.52815199">
        <time>2026-08-20T14:53:17Z</time>
      </trkpt>
      <trkpt lat="60.11542789" lon="30.52817345">
        <time>2026-08-20T14:53:47Z</time>
      </trkpt>
      <trkpt lat="60.11542789" lon="30.52817345">
        <time>2026-08-20T14:54:17Z</time>
      </trkpt>
      <trkpt lat="60.11542789" lon="30.52817345">
        <time>2026-08-20T14:54:47Z</time>
      </trkpt>
      <trkpt lat="60.11542789" lon="30.52817345">
        <time>2026-08-20T14:55:17Z</time>
      </trkpt>
      <trkpt lat="60.11542789" lon="30.52817345">
        <time>2026-08-20T14:55:47Z</time>
      </trkpt>
      <trkpt lat="60.11542789" lon="30.52817345">
        <time>2026-08-20T14:56:17Z</time>
      </trkpt>
      <trkpt lat="60.11542789" lon="30.52817345">
        <time>2026-08-20T14:56:47Z</time>
      </trkpt>
      <trkpt lat="60.11542789" lon="30.52817345">
        <time>2026-08-20T14:57:17Z</time>
      </trkpt>
      <trkpt lat="60.11542789" lon="30.52817345">
        <time>2026-08-20T14:57:47Z</time>
      </trkpt>
      <trkpt lat="60.11542789" lon="30.52817345">
        <time>2026-08-20T14:58:17Z</time>
      </trkpt>
      <trkpt lat="60.11542789" lon="30.52817345">
        <time>2026-08-20T14:58:47Z</time>
      </trkpt>
      <trkpt lat="60.11542789" lon="30.52817345">
        <time>2026-08-20T14:59:17Z</time>
      </trkpt>
      <trkpt lat="60.11542789" lon="30.52817345">
        <time>2026-08-20T14:59:50Z</time>
      </trkpt>
      <trkpt lat="60.11542789" lon="30.52817345">
        <time>2026-08-20T15:00:20Z</time>
      </trkpt>
      <trkpt lat="60.11542789" lon="30.52817345">
        <time>2026-08-20T15:00:50Z</time>
      </trkpt>
      <trkpt lat="60.11542789" lon="30.52817345">
        <time>2026-08-20T15:01:20Z</time>
      </trkpt>
      <trkpt lat="60.11542789" lon="30.52817345">
        <time>2026-08-20T15:01:50Z</time>
      </trkpt>
      <trkpt lat="60.11542789" lon="30.52821636">
        <time>2026-08-20T15:02:10Z</time>
      </trkpt>
      <trkpt lat="60.11544934" lon="30.52836657">
        <time>2026-08-20T15:02:40Z</time>
      </trkpt>
      <trkpt lat="60.11544934" lon="30.52836657">
        <time>2026-08-20T15:03:10Z</time>
      </trkpt>
      <trkpt lat="60.11542789" lon="30.52838802">
        <time>2026-08-20T15:03:40Z</time>
      </trkpt>
      <trkpt lat="60.11540643" lon="30.52832365">
        <time>2026-08-20T15:04:10Z</time>
      </trkpt>
      <trkpt lat="60.11540643" lon="30.52830219">
        <time>2026-08-20T15:04:15Z</time>
      </trkpt>
      <trkpt lat="60.11534206" lon="30.5281949">
        <time>2026-08-20T15:04:20Z</time>
      </trkpt>
      <trkpt lat="60.1153206" lon="30.52813053">
        <time>2026-08-20T15:04:22Z</time>
      </trkpt>
      <trkpt lat="60.11529914" lon="30.52802324">
        <time>2026-08-20T15:04:25Z</time>
      </trkpt>
      <trkpt lat="60.11527768" lon="30.52795887">
        <time>2026-08-20T15:04:27Z</time>
      </trkpt>
      <trkpt lat="60.11512748" lon="30.52757263">
        <time>2026-08-20T15:04:40Z</time>
      </trkpt>
      <trkpt lat="60.11502019" lon="30.5273366">
        <time>2026-08-20T15:04:50Z</time>
      </trkpt>
      <trkpt lat="60.11499873" lon="30.52729368">
        <time>2026-08-20T15:04:52Z</time>
      </trkpt>
      <trkpt lat="60.11497728" lon="30.52725077">
        <time>2026-08-20T15:04:55Z</time>
      </trkpt>
      <trkpt lat="60.11495582" lon="30.52720785">
        <time>2026-08-20T15:04:57Z</time>
      </trkpt>
      <trkpt lat="60.11495582" lon="30.52718639">
        <time>2026-08-20T15:05:00Z</time>
      </trkpt>
      <trkpt lat="60.11493436" lon="30.52712202">
        <time>2026-08-20T15:05:02Z</time>
      </trkpt>
      <trkpt lat="60.1149129" lon="30.52703619">
        <time>2026-08-20T15:05:05Z</time>
      </trkpt>
      <trkpt lat="60.11486999" lon="30.52695036">
        <time>2026-08-20T15:05:07Z</time>
      </trkpt>
      <trkpt lat="60.11484853" lon="30.52688599">
        <time>2026-08-20T15:05:10Z</time>
      </trkpt>
      <trkpt lat="60.11482707" lon="30.52684307">
        <time>2026-08-20T15:05:12Z</time>
      </trkpt>
      <trkpt lat="60.11478416" lon="30.52675724">
        <time>2026-08-20T15:05:20Z</time>
      </trkpt>
      <trkpt lat="60.1147627" lon="30.52664995">
        <time>2026-08-20T15:05:22Z</time>
      </trkpt>
      <trkpt lat="60.11471978" lon="30.52654266">
        <time>2026-08-20T15:05:25Z</time>
      </trkpt>
      <trkpt lat="60.11467687" lon="30.52643538">
        <time>2026-08-20T15:05:27Z</time>
      </trkpt>
      <trkpt lat="60.11454812" lon="30.52607059">
        <time>2026-08-20T15:05:37Z</time>
      </trkpt>
      <trkpt lat="60.11439792" lon="30.52572727">
        <time>2026-08-20T15:05:50Z</time>
      </trkpt>
      <trkpt lat="60.11429063" lon="30.52536249">
        <time>2026-08-20T15:06:02Z</time>
      </trkpt>
      <trkpt lat="60.11414043" lon="30.52504063">
        <time>2026-08-20T15:06:27Z</time>
      </trkpt>
      <trkpt lat="60.11411897" lon="30.52493334">
        <time>2026-08-20T15:06:30Z</time>
      </trkpt>
      <trkpt lat="60.1140546" lon="30.52474022">
        <time>2026-08-20T15:06:35Z</time>
      </trkpt>
      <trkpt lat="60.1140546" lon="30.52465439">
        <time>2026-08-20T15:06:37Z</time>
      </trkpt>
      <trkpt lat="60.11403314" lon="30.5245471">
        <time>2026-08-20T15:06:40Z</time>
      </trkpt>
      <trkpt lat="60.11401168" lon="30.52446127">
        <time>2026-08-20T15:06:42Z</time>
      </trkpt>
      <trkpt lat="60.11394731" lon="30.52403212">
        <time>2026-08-20T15:06:55Z</time>
      </trkpt>
      <trkpt lat="60.11392585" lon="30.52364588">
        <time>2026-08-20T15:07:15Z</time>
      </trkpt>
      <trkpt lat="60.11392585" lon="30.5235815">
        <time>2026-08-20T15:07:17Z</time>
      </trkpt>
      <trkpt lat="60.11392585" lon="30.5235815">
        <time>2026-08-20T15:07:35Z</time>
      </trkpt>
      <trkpt lat="60.11390439" lon="30.52338839">
        <time>2026-08-20T15:07:37Z</time>
      </trkpt>
      <trkpt lat="60.11388293" lon="30.52313089">
        <time>2026-08-20T15:07:40Z</time>
      </trkpt>
      <trkpt lat="60.11386148" lon="30.5227232">
        <time>2026-08-20T15:07:45Z</time>
      </trkpt>
      <trkpt lat="60.11384002" lon="30.52227259">
        <time>2026-08-20T15:08:05Z</time>
      </trkpt>
      <trkpt lat="60.1137971" lon="30.52186489">
        <time>2026-08-20T15:08:20Z</time>
      </trkpt>
      <trkpt lat="60.11377565" lon="30.5214572">
        <time>2026-08-20T15:08:35Z</time>
      </trkpt>
      <trkpt lat="60.11377565" lon="30.52137136">
        <time>2026-08-20T15:08:37Z</time>
      </trkpt>
      <trkpt lat="60.11375419" lon="30.52113533">
        <time>2026-08-20T15:08:42Z</time>
      </trkpt>
      <trkpt lat="60.11371127" lon="30.52070618">
        <time>2026-08-20T15:08:52Z</time>
      </trkpt>
      <trkpt lat="60.11362544" lon="30.52027702">
        <time>2026-08-20T15:09:05Z</time>
      </trkpt>
      <trkpt lat="60.11360398" lon="30.5200839">
        <time>2026-08-20T15:09:10Z</time>
      </trkpt>
      <trkpt lat="60.11360398" lon="30.51999807">
        <time>2026-08-20T15:09:12Z</time>
      </trkpt>
      <trkpt lat="60.11360398" lon="30.5199337">
        <time>2026-08-20T15:09:15Z</time>
      </trkpt>
      <trkpt lat="60.11362544" lon="30.51986933">
        <time>2026-08-20T15:09:25Z</time>
      </trkpt>
      <trkpt lat="60.1136469" lon="30.51980495">
        <time>2026-08-20T15:09:27Z</time>
      </trkpt>
      <trkpt lat="60.1136469" lon="30.51974058">
        <time>2026-08-20T15:09:32Z</time>
      </trkpt>
      <trkpt lat="60.1136469" lon="30.51967621">
        <time>2026-08-20T15:09:35Z</time>
      </trkpt>
      <trkpt lat="60.1136469" lon="30.51948309">
        <time>2026-08-20T15:09:55Z</time>
      </trkpt>
      <trkpt lat="60.1136469" lon="30.51948309">
        <time>2026-08-20T15:10:25Z</time>
      </trkpt>
      <trkpt lat="60.1136469" lon="30.51948309">
        <time>2026-08-20T15:10:35Z</time>
      </trkpt>
      <trkpt lat="60.1136469" lon="30.51948309">
        <time>2026-08-20T15:11:05Z</time>
      </trkpt>
      <trkpt lat="60.1136469" lon="30.51948309">
        <time>2026-08-20T15:11:35Z</time>
      </trkpt>
      <trkpt lat="60.1136469" lon="30.5193758">
        <time>2026-08-20T15:11:57Z</time>
      </trkpt>
      <trkpt lat="60.1136469" lon="30.5192256">
        <time>2026-08-20T15:12:00Z</time>
      </trkpt>
      <trkpt lat="60.11362544" lon="30.51909685">
        <time>2026-08-20T15:12:02Z</time>
      </trkpt>
      <trkpt lat="60.11362544" lon="30.51896811">
        <time>2026-08-20T15:12:05Z</time>
      </trkpt>
      <trkpt lat="60.11356107" lon="30.51858187">
        <time>2026-08-20T15:12:15Z</time>
      </trkpt>
      <trkpt lat="60.11356107" lon="30.51862478">
        <time>2026-08-20T15:12:20Z</time>
      </trkpt>
      <trkpt lat="60.11358253" lon="30.51860332">
        <time>2026-08-20T15:12:22Z</time>
      </trkpt>
      <trkpt lat="60.11358253" lon="30.51853895">
        <time>2026-08-20T15:12:25Z</time>
      </trkpt>
      <trkpt lat="60.11356107" lon="30.51849604">
        <time>2026-08-20T15:12:27Z</time>
      </trkpt>
      <trkpt lat="60.11356107" lon="30.51843166">
        <time>2026-08-20T15:12:30Z</time>
      </trkpt>
      <trkpt lat="60.11356107" lon="30.51836729">
        <time>2026-08-20T15:12:32Z</time>
      </trkpt>
      <trkpt lat="60.11353961" lon="30.51823854">
        <time>2026-08-20T15:12:42Z</time>
      </trkpt>
      <trkpt lat="60.11353961" lon="30.51815271">
        <time>2026-08-20T15:12:45Z</time>
      </trkpt>
      <trkpt lat="60.11353961" lon="30.51806688">
        <time>2026-08-20T15:12:50Z</time>
      </trkpt>
      <trkpt lat="60.11353961" lon="30.51800251">
        <time>2026-08-20T15:12:52Z</time>
      </trkpt>
      <trkpt lat="60.11351815" lon="30.51791668">
        <time>2026-08-20T15:12:55Z</time>
      </trkpt>
      <trkpt lat="60.1134967" lon="30.51750898">
        <time>2026-08-20T15:13:07Z</time>
      </trkpt>
      <trkpt lat="60.11347524" lon="30.51716566">
        <time>2026-08-20T15:13:17Z</time>
      </trkpt>
      <trkpt lat="60.11345378" lon="30.51707983">
        <time>2026-08-20T15:13:27Z</time>
      </trkpt>
      <trkpt lat="60.11343232" lon="30.516994">
        <time>2026-08-20T15:13:30Z</time>
      </trkpt>
      <trkpt lat="60.11341087" lon="30.51654339">
        <time>2026-08-20T15:13:45Z</time>
      </trkpt>
      <trkpt lat="60.11336795" lon="30.51607132">
        <time>2026-08-20T15:14:00Z</time>
      </trkpt>
      <trkpt lat="60.11332504" lon="30.51564217">
        <time>2026-08-20T15:14:15Z</time>
      </trkpt>
      <trkpt lat="60.11332504" lon="30.51553488">
        <time>2026-08-20T15:14:22Z</time>
      </trkpt>
      <trkpt lat="60.11332504" lon="30.51542759">
        <time>2026-08-20T15:14:25Z</time>
      </trkpt>
      <trkpt lat="60.11330358" lon="30.51499844">
        <time>2026-08-20T15:14:40Z</time>
      </trkpt>
      <trkpt lat="60.11326066" lon="30.51478386">
        <time>2026-08-20T15:14:47Z</time>
      </trkpt>
      <trkpt lat="60.11326066" lon="30.51469803">
        <time>2026-08-20T15:14:50Z</time>
      </trkpt>
      <trkpt lat="60.11328212" lon="30.51463366">
        <time>2026-08-20T15:14:52Z</time>
      </trkpt>
      <trkpt lat="60.11326066" lon="30.51456928">
        <time>2026-08-20T15:14:55Z</time>
      </trkpt>
      <trkpt lat="60.11326066" lon="30.51450491">
        <time>2026-08-20T15:14:57Z</time>
      </trkpt>
      <trkpt lat="60.11326066" lon="30.51441908">
        <time>2026-08-20T15:15:00Z</time>
      </trkpt>
      <trkpt lat="60.1132392" lon="30.51398993">
        <time>2026-08-20T15:15:15Z</time>
      </trkpt>
      <trkpt lat="60.11321775" lon="30.51356077">
        <time>2026-08-20T15:15:30Z</time>
      </trkpt>
      <trkpt lat="60.11315337" lon="30.51313162">
        <time>2026-08-20T15:15:45Z</time>
      </trkpt>
      <trkpt lat="60.11311046" lon="30.51268101">
        <time>2026-08-20T15:16:00Z</time>
      </trkpt>
      <trkpt lat="60.113089" lon="30.51218748">
        <time>2026-08-20T15:16:15Z</time>
      </trkpt>
      <trkpt lat="60.11304609" lon="30.51177979">
        <time>2026-08-20T15:16:30Z</time>
      </trkpt>
      <trkpt lat="60.11298171" lon="30.51130772">
        <time>2026-08-20T15:16:45Z</time>
      </trkpt>
      <trkpt lat="60.1129388" lon="30.51085711">
        <time>2026-08-20T15:16:57Z</time>
      </trkpt>
      <trkpt lat="60.11289588" lon="30.51038504">
        <time>2026-08-20T15:17:12Z</time>
      </trkpt>
      <trkpt lat="60.11285297" lon="30.50993443">
        <time>2026-08-20T15:17:25Z</time>
      </trkpt>
      <trkpt lat="60.11283151" lon="30.50952673">
        <time>2026-08-20T15:17:45Z</time>
      </trkpt>
      <trkpt lat="60.11278859" lon="30.50909758">
        <time>2026-08-20T15:18:00Z</time>
      </trkpt>
      <trkpt lat="60.11274568" lon="30.50866842">
        <time>2026-08-20T15:18:15Z</time>
      </trkpt>
      <trkpt lat="60.11270276" lon="30.50823927">
        <time>2026-08-20T15:18:32Z</time>
      </trkpt>
      <trkpt lat="60.11265985" lon="30.50781012">
        <time>2026-08-20T15:18:47Z</time>
      </trkpt>
      <trkpt lat="60.11259547" lon="30.50742388">
        <time>2026-08-20T15:19:02Z</time>
      </trkpt>
      <trkpt lat="60.11259547" lon="30.50733805">
        <time>2026-08-20T15:19:05Z</time>
      </trkpt>
      <trkpt lat="60.11257402" lon="30.50727367">
        <time>2026-08-20T15:19:07Z</time>
      </trkpt>
      <trkpt lat="60.11255256" lon="30.5072093">
        <time>2026-08-20T15:19:10Z</time>
      </trkpt>
      <trkpt lat="60.11244527" lon="30.50682306">
        <time>2026-08-20T15:19:25Z</time>
      </trkpt>
      <trkpt lat="60.11240236" lon="30.50645828">
        <time>2026-08-20T15:19:40Z</time>
      </trkpt>
      <trkpt lat="60.11240236" lon="30.50639391">
        <time>2026-08-20T15:19:42Z</time>
      </trkpt>
      <trkpt lat="60.1123809" lon="30.50632954">
        <time>2026-08-20T15:19:45Z</time>
      </trkpt>
      <trkpt lat="60.1123809" lon="30.50626516">
        <time>2026-08-20T15:19:47Z</time>
      </trkpt>
      <trkpt lat="60.11231652" lon="30.50598621">
        <time>2026-08-20T15:20:00Z</time>
      </trkpt>
      <trkpt lat="60.11233798" lon="30.50592184">
        <time>2026-08-20T15:20:02Z</time>
      </trkpt>
      <trkpt lat="60.11233798" lon="30.50583601">
        <time>2026-08-20T15:20:05Z</time>
      </trkpt>
      <trkpt lat="60.11231652" lon="30.50577164">
        <time>2026-08-20T15:20:07Z</time>
      </trkpt>
      <trkpt lat="60.11229507" lon="30.50570726">
        <time>2026-08-20T15:20:10Z</time>
      </trkpt>
      <trkpt lat="60.11227361" lon="30.50566435">
        <time>2026-08-20T15:20:12Z</time>
      </trkpt>
      <trkpt lat="60.11225215" lon="30.50557852">
        <time>2026-08-20T15:20:15Z</time>
      </trkpt>
      <trkpt lat="60.11225215" lon="30.50549269">
        <time>2026-08-20T15:20:17Z</time>
      </trkpt>
      <trkpt lat="60.11223069" lon="30.50544977">
        <time>2026-08-20T15:20:20Z</time>
      </trkpt>
      <trkpt lat="60.11223069" lon="30.5053854">
        <time>2026-08-20T15:20:22Z</time>
      </trkpt>
      <trkpt lat="60.11214486" lon="30.50495625">
        <time>2026-08-20T15:20:35Z</time>
      </trkpt>
      <trkpt lat="60.11214486" lon="30.50489187">
        <time>2026-08-20T15:20:37Z</time>
      </trkpt>
      <trkpt lat="60.11210195" lon="30.50487041">
        <time>2026-08-20T15:20:42Z</time>
      </trkpt>
      <trkpt lat="60.11208049" lon="30.5048275">
        <time>2026-08-20T15:20:45Z</time>
      </trkpt>
      <trkpt lat="60.11208049" lon="30.50476313">
        <time>2026-08-20T15:20:47Z</time>
      </trkpt>
      <trkpt lat="60.11208049" lon="30.50465584">
        <time>2026-08-20T15:20:50Z</time>
      </trkpt>
      <trkpt lat="60.11205903" lon="30.50457001">
        <time>2026-08-20T15:20:52Z</time>
      </trkpt>
      <trkpt lat="60.11201612" lon="30.50439835">
        <time>2026-08-20T15:21:00Z</time>
      </trkpt>
      <trkpt lat="60.11199466" lon="30.50431252">
        <time>2026-08-20T15:21:02Z</time>
      </trkpt>
      <trkpt lat="60.1119732" lon="30.50424814">
        <time>2026-08-20T15:21:05Z</time>
      </trkpt>
      <trkpt lat="60.11195174" lon="30.50416231">
        <time>2026-08-20T15:21:07Z</time>
      </trkpt>
      <trkpt lat="60.11188737" lon="30.50377607">
        <time>2026-08-20T15:21:25Z</time>
      </trkpt>
      <trkpt lat="60.11186591" lon="30.50336838">
        <time>2026-08-20T15:21:40Z</time>
      </trkpt>
      <trkpt lat="60.11184446" lon="30.50326109">
        <time>2026-08-20T15:21:45Z</time>
      </trkpt>
      <trkpt lat="60.11184446" lon="30.50311089">
        <time>2026-08-20T15:21:50Z</time>
      </trkpt>
      <trkpt lat="60.11184446" lon="30.50304651">
        <time>2026-08-20T15:21:52Z</time>
      </trkpt>
      <trkpt lat="60.11184446" lon="30.50298214">
        <time>2026-08-20T15:21:55Z</time>
      </trkpt>
      <trkpt lat="60.11184446" lon="30.50274611">
        <time>2026-08-20T15:22:02Z</time>
      </trkpt>
      <trkpt lat="60.11180154" lon="30.50268173">
        <time>2026-08-20T15:22:05Z</time>
      </trkpt>
      <trkpt lat="60.11180154" lon="30.50263882">
        <time>2026-08-20T15:22:10Z</time>
      </trkpt>
      <trkpt lat="60.11173717" lon="30.50251007">
        <time>2026-08-20T15:22:40Z</time>
      </trkpt>
      <trkpt lat="60.11175863" lon="30.50251007">
        <time>2026-08-20T15:23:05Z</time>
      </trkpt>
      <trkpt lat="60.11175863" lon="30.50251007">
        <time>2026-08-20T15:23:35Z</time>
      </trkpt>
      <trkpt lat="60.11175863" lon="30.50251007">
        <time>2026-08-20T15:24:05Z</time>
      </trkpt>
      <trkpt lat="60.11175863" lon="30.50248861">
        <time>2026-08-20T15:24:35Z</time>
      </trkpt>
      <trkpt lat="60.11175863" lon="30.50251007">
        <time>2026-08-20T15:25:05Z</time>
      </trkpt>
      <trkpt lat="60.11175863" lon="30.50251007">
        <time>2026-08-20T15:25:35Z</time>
      </trkpt>
      <trkpt lat="60.11175863" lon="30.50251007">
        <time>2026-08-20T15:26:05Z</time>
      </trkpt>
      <trkpt lat="60.11175863" lon="30.50253153">
        <time>2026-08-20T15:26:35Z</time>
      </trkpt>
      <trkpt lat="60.11175863" lon="30.50253153">
        <time>2026-08-20T15:27:05Z</time>
      </trkpt>
      <trkpt lat="60.11178008" lon="30.50253153">
        <time>2026-08-20T15:27:35Z</time>
      </trkpt>
      <trkpt lat="60.11178008" lon="30.50253153">
        <time>2026-08-20T15:28:05Z</time>
      </trkpt>
      <trkpt lat="60.11175863" lon="30.50253153">
        <time>2026-08-20T15:28:35Z</time>
      </trkpt>
      <trkpt lat="60.11178008" lon="30.50251007">
        <time>2026-08-20T15:29:05Z</time>
      </trkpt>
      <trkpt lat="60.11178008" lon="30.50251007">
        <time>2026-08-20T15:29:35Z</time>
      </trkpt>
      <trkpt lat="60.11178008" lon="30.50242424">
        <time>2026-08-20T15:30:02Z</time>
      </trkpt>
      <trkpt lat="60.11180154" lon="30.50231695">
        <time>2026-08-20T15:30:05Z</time>
      </trkpt>
      <trkpt lat="60.111823" lon="30.50223112">
        <time>2026-08-20T15:30:07Z</time>
      </trkpt>
      <trkpt lat="60.11184446" lon="30.50210238">
        <time>2026-08-20T15:30:10Z</time>
      </trkpt>
      <trkpt lat="60.11186591" lon="30.502038">
        <time>2026-08-20T15:30:12Z</time>
      </trkpt>
      <trkpt lat="60.11188737" lon="30.50199509">
        <time>2026-08-20T15:30:15Z</time>
      </trkpt>
      <trkpt lat="60.11190883" lon="30.50197363">
        <time>2026-08-20T15:30:17Z</time>
      </trkpt>
      <trkpt lat="60.11193029" lon="30.50193071">
        <time>2026-08-20T15:30:20Z</time>
      </trkpt>
      <trkpt lat="60.11195174" lon="30.50190926">
        <time>2026-08-20T15:30:22Z</time>
      </trkpt>
      <trkpt lat="60.1119732" lon="30.5018878">
        <time>2026-08-20T15:30:25Z</time>
      </trkpt>
      <trkpt lat="60.11199466" lon="30.5018878">
        <time>2026-08-20T15:30:27Z</time>
      </trkpt>
      <trkpt lat="60.11205903" lon="30.50193071">
        <time>2026-08-20T15:30:35Z</time>
      </trkpt>
      <trkpt lat="60.11210195" lon="30.50195217">
        <time>2026-08-20T15:30:37Z</time>
      </trkpt>
      <trkpt lat="60.11212341" lon="30.50197363">
        <time>2026-08-20T15:30:40Z</time>
      </trkpt>
      <trkpt lat="60.11233798" lon="30.50208092">
        <time>2026-08-20T15:30:55Z</time>
      </trkpt>
      <trkpt lat="60.1125311" lon="30.50210238">
        <time>2026-08-20T15:31:20Z</time>
      </trkpt>
      <trkpt lat="60.1125311" lon="30.50210238">
        <time>2026-08-20T15:31:50Z</time>
      </trkpt>
      <trkpt lat="60.1125311" lon="30.50210238">
        <time>2026-08-20T15:32:00Z</time>
      </trkpt>
    </trkseg>
  </trk>
</gpx>